<?xml version="1.0" encoding="UTF-8" standalone="yes"?>
<?xml-stylesheet type="text/xsl" href="details.xsl"?>
<gpx
 version="1.1"
 creator="My Tracks running on Milestone"
 xmlns:xsi="http://www.w3.org/2001/XMLSchema-instance"
 xmlns="http://www.topografix.com/GPX/1/1"
 xmlns:topografix="http://www.topografix.com/GPX/Private/TopoGrafix/0/1" xsi:schemaLocation="http://www.topografix.com/GPX/1/1 http://www.topografix.com/GPX/1/1/gpx.xsd http://www.topografix.com/GPX/Private/TopoGrafix/0/1 http://www.topografix.com/GPX/Private/TopoGrafix/0/1/topografix.xsd">
<trk>
<name><![CDATA[30.01.12 12:50]]></name>
<desc><![CDATA[]]></desc>
<number>3</number>
<extensions><topografix:color>c0c0c0</topografix:color></extensions>
<trkseg>
<trkpt lat="51.3831" lon="7.78774">
<ele>328</ele>
<time>2012-01-30T11:50:39Z</time>
</trkpt>
<trkpt lat="51.3831" lon="7.78774">
<ele>328</ele>
<time>2012-01-30T11:50:39Z</time>
</trkpt>
<trkpt lat="51.3831" lon="7.78774">
<ele>328</ele>
<time>2012-01-30T11:50:51Z</time>
</trkpt>
<trkpt lat="51.38314" lon="7.7877">
<ele>327</ele>
<time>2012-01-30T11:51:20Z</time>
</trkpt>
<trkpt lat="51.38318" lon="7.78776">
<ele>327</ele>
<time>2012-01-30T11:51:26Z</time>
</trkpt>
<trkpt lat="51.38323" lon="7.78778">
<ele>327</ele>
<time>2012-01-30T11:51:31Z</time>
</trkpt>
<trkpt lat="51.38327" lon="7.7878">
<ele>328</ele>
<time>2012-01-30T11:51:35Z</time>
</trkpt>
<trkpt lat="51.38332" lon="7.7878">
<ele>328</ele>
<time>2012-01-30T11:51:39Z</time>
</trkpt>
<trkpt lat="51.38338" lon="7.7878">
<ele>328</ele>
<time>2012-01-30T11:51:43Z</time>
</trkpt>
<trkpt lat="51.38343" lon="7.7878">
<ele>328</ele>
<time>2012-01-30T11:51:47Z</time>
</trkpt>
<trkpt lat="51.3835" lon="7.7878">
<ele>328</ele>
<time>2012-01-30T11:51:51Z</time>
</trkpt>
<trkpt lat="51.38355" lon="7.78778">
<ele>328</ele>
<time>2012-01-30T11:51:55Z</time>
</trkpt>
<trkpt lat="51.3836" lon="7.78778">
<ele>328</ele>
<time>2012-01-30T11:52:00Z</time>
</trkpt>
<trkpt lat="51.38366" lon="7.78778">
<ele>329</ele>
<time>2012-01-30T11:52:04Z</time>
</trkpt>
<trkpt lat="51.38371" lon="7.78778">
<ele>329</ele>
<time>2012-01-30T11:52:08Z</time>
</trkpt>
<trkpt lat="51.38378" lon="7.78776">
<ele>329</ele>
<time>2012-01-30T11:52:12Z</time>
</trkpt>
<trkpt lat="51.38383" lon="7.78776">
<ele>329</ele>
<time>2012-01-30T11:52:16Z</time>
</trkpt>
<trkpt lat="51.38388" lon="7.78776">
<ele>329</ele>
<time>2012-01-30T11:52:20Z</time>
</trkpt>
<trkpt lat="51.38394" lon="7.78774">
<ele>329</ele>
<time>2012-01-30T11:52:24Z</time>
</trkpt>
<trkpt lat="51.38399" lon="7.78776">
<ele>329</ele>
<time>2012-01-30T11:52:28Z</time>
</trkpt>
<trkpt lat="51.38405" lon="7.78776">
<ele>329</ele>
<time>2012-01-30T11:52:33Z</time>
</trkpt>
<trkpt lat="51.38411" lon="7.78778">
<ele>329</ele>
<time>2012-01-30T11:52:37Z</time>
</trkpt>
<trkpt lat="51.38416" lon="7.78778">
<ele>330</ele>
<time>2012-01-30T11:52:41Z</time>
</trkpt>
<trkpt lat="51.38422" lon="7.7878">
<ele>330</ele>
<time>2012-01-30T11:52:45Z</time>
</trkpt>
<trkpt lat="51.38426" lon="7.78783">
<ele>330</ele>
<time>2012-01-30T11:52:49Z</time>
</trkpt>
<trkpt lat="51.38431" lon="7.78783">
<ele>330</ele>
<time>2012-01-30T11:52:53Z</time>
</trkpt>
<trkpt lat="51.38435" lon="7.78785">
<ele>330</ele>
<time>2012-01-30T11:52:56Z</time>
</trkpt>
<trkpt lat="51.38441" lon="7.78785">
<ele>330</ele>
<time>2012-01-30T11:53:00Z</time>
</trkpt>
<trkpt lat="51.38445" lon="7.78787">
<ele>331</ele>
<time>2012-01-30T11:53:03Z</time>
</trkpt>
<trkpt lat="51.3845" lon="7.78787">
<ele>331</ele>
<time>2012-01-30T11:53:08Z</time>
</trkpt>
<trkpt lat="51.38455" lon="7.78789">
<ele>331</ele>
<time>2012-01-30T11:53:11Z</time>
</trkpt>
<trkpt lat="51.3846" lon="7.78793">
<ele>331</ele>
<time>2012-01-30T11:53:15Z</time>
</trkpt>
<trkpt lat="51.38464" lon="7.78795">
<ele>331</ele>
<time>2012-01-30T11:53:19Z</time>
</trkpt>
<trkpt lat="51.38469" lon="7.78798">
<ele>331</ele>
<time>2012-01-30T11:53:22Z</time>
</trkpt>
<trkpt lat="51.38474" lon="7.78798">
<ele>331</ele>
<time>2012-01-30T11:53:26Z</time>
</trkpt>
<trkpt lat="51.38479" lon="7.78798">
<ele>331</ele>
<time>2012-01-30T11:53:30Z</time>
</trkpt>
<trkpt lat="51.38485" lon="7.78798">
<ele>331</ele>
<time>2012-01-30T11:53:34Z</time>
</trkpt>
<trkpt lat="51.38489" lon="7.788">
<ele>331</ele>
<time>2012-01-30T11:53:37Z</time>
</trkpt>
<trkpt lat="51.38494" lon="7.788">
<ele>332</ele>
<time>2012-01-30T11:53:41Z</time>
</trkpt>
<trkpt lat="51.385" lon="7.78802">
<ele>332</ele>
<time>2012-01-30T11:53:45Z</time>
</trkpt>
<trkpt lat="51.38505" lon="7.78804">
<ele>332</ele>
<time>2012-01-30T11:53:49Z</time>
</trkpt>
<trkpt lat="51.3851" lon="7.78806">
<ele>332</ele>
<time>2012-01-30T11:53:53Z</time>
</trkpt>
<trkpt lat="51.38516" lon="7.78806">
<ele>332</ele>
<time>2012-01-30T11:53:57Z</time>
</trkpt>
<trkpt lat="51.3852" lon="7.78808">
<ele>332</ele>
<time>2012-01-30T11:54:01Z</time>
</trkpt>
<trkpt lat="51.38524" lon="7.7881">
<ele>332</ele>
<time>2012-01-30T11:54:04Z</time>
</trkpt>
<trkpt lat="51.38529" lon="7.78813">
<ele>332</ele>
<time>2012-01-30T11:54:07Z</time>
</trkpt>
<trkpt lat="51.38534" lon="7.78815">
<ele>333</ele>
<time>2012-01-30T11:54:11Z</time>
</trkpt>
<trkpt lat="51.38541" lon="7.78815">
<ele>333</ele>
<time>2012-01-30T11:54:15Z</time>
</trkpt>
<trkpt lat="51.38545" lon="7.78817">
<ele>333</ele>
<time>2012-01-30T11:54:19Z</time>
</trkpt>
<trkpt lat="51.3855" lon="7.78817">
<ele>333</ele>
<time>2012-01-30T11:54:23Z</time>
</trkpt>
<trkpt lat="51.38554" lon="7.78819">
<ele>333</ele>
<time>2012-01-30T11:54:26Z</time>
</trkpt>
<trkpt lat="51.3856" lon="7.78819">
<ele>333</ele>
<time>2012-01-30T11:54:30Z</time>
</trkpt>
<trkpt lat="51.38565" lon="7.78819">
<ele>334</ele>
<time>2012-01-30T11:54:34Z</time>
</trkpt>
<trkpt lat="51.3857" lon="7.78821">
<ele>334</ele>
<time>2012-01-30T11:54:38Z</time>
</trkpt>
<trkpt lat="51.38575" lon="7.78821">
<ele>334</ele>
<time>2012-01-30T11:54:42Z</time>
</trkpt>
<trkpt lat="51.38579" lon="7.78823">
<ele>334</ele>
<time>2012-01-30T11:54:46Z</time>
</trkpt>
<trkpt lat="51.38585" lon="7.78826">
<ele>333</ele>
<time>2012-01-30T11:54:51Z</time>
</trkpt>
<trkpt lat="51.3859" lon="7.78826">
<ele>333</ele>
<time>2012-01-30T11:54:55Z</time>
</trkpt>
<trkpt lat="51.38595" lon="7.78826">
<ele>334</ele>
<time>2012-01-30T11:54:59Z</time>
</trkpt>
<trkpt lat="51.38601" lon="7.78826">
<ele>334</ele>
<time>2012-01-30T11:55:03Z</time>
</trkpt>
<trkpt lat="51.38607" lon="7.78826">
<ele>334</ele>
<time>2012-01-30T11:55:07Z</time>
</trkpt>
<trkpt lat="51.38612" lon="7.78826">
<ele>334</ele>
<time>2012-01-30T11:55:11Z</time>
</trkpt>
<trkpt lat="51.38617" lon="7.78823">
<ele>334</ele>
<time>2012-01-30T11:55:14Z</time>
</trkpt>
<trkpt lat="51.38621" lon="7.78826">
<ele>334</ele>
<time>2012-01-30T11:55:17Z</time>
</trkpt>
<trkpt lat="51.38626" lon="7.78826">
<ele>334</ele>
<time>2012-01-30T11:55:21Z</time>
</trkpt>
<trkpt lat="51.38632" lon="7.78826">
<ele>335</ele>
<time>2012-01-30T11:55:24Z</time>
</trkpt>
<trkpt lat="51.38638" lon="7.78826">
<ele>335</ele>
<time>2012-01-30T11:55:27Z</time>
</trkpt>
<trkpt lat="51.38645" lon="7.78826">
<ele>335</ele>
<time>2012-01-30T11:55:31Z</time>
</trkpt>
<trkpt lat="51.38651" lon="7.78826">
<ele>336</ele>
<time>2012-01-30T11:55:35Z</time>
</trkpt>
<trkpt lat="51.38656" lon="7.78826">
<ele>336</ele>
<time>2012-01-30T11:55:39Z</time>
</trkpt>
<trkpt lat="51.38661" lon="7.78823">
<ele>336</ele>
<time>2012-01-30T11:55:42Z</time>
</trkpt>
<trkpt lat="51.38667" lon="7.78823">
<ele>336</ele>
<time>2012-01-30T11:55:47Z</time>
</trkpt>
<trkpt lat="51.38672" lon="7.78826">
<ele>336</ele>
<time>2012-01-30T11:55:51Z</time>
</trkpt>
<trkpt lat="51.38677" lon="7.78826">
<ele>336</ele>
<time>2012-01-30T11:55:55Z</time>
</trkpt>
<trkpt lat="51.38681" lon="7.78823">
<ele>337</ele>
<time>2012-01-30T11:55:59Z</time>
</trkpt>
<trkpt lat="51.38686" lon="7.78823">
<ele>337</ele>
<time>2012-01-30T11:56:03Z</time>
</trkpt>
<trkpt lat="51.38692" lon="7.78823">
<ele>337</ele>
<time>2012-01-30T11:56:07Z</time>
</trkpt>
<trkpt lat="51.38697" lon="7.78823">
<ele>337</ele>
<time>2012-01-30T11:56:11Z</time>
</trkpt>
<trkpt lat="51.38703" lon="7.78823">
<ele>337</ele>
<time>2012-01-30T11:56:15Z</time>
</trkpt>
<trkpt lat="51.38708" lon="7.78823">
<ele>337</ele>
<time>2012-01-30T11:56:19Z</time>
</trkpt>
<trkpt lat="51.38713" lon="7.78823">
<ele>337</ele>
<time>2012-01-30T11:56:23Z</time>
</trkpt>
<trkpt lat="51.38719" lon="7.78823">
<ele>337</ele>
<time>2012-01-30T11:56:27Z</time>
</trkpt>
<trkpt lat="51.38724" lon="7.78823">
<ele>337</ele>
<time>2012-01-30T11:56:31Z</time>
</trkpt>
<trkpt lat="51.38729" lon="7.78823">
<ele>337</ele>
<time>2012-01-30T11:56:35Z</time>
</trkpt>
<trkpt lat="51.38735" lon="7.78823">
<ele>337</ele>
<time>2012-01-30T11:56:39Z</time>
</trkpt>
<trkpt lat="51.3874" lon="7.78823">
<ele>337</ele>
<time>2012-01-30T11:56:43Z</time>
</trkpt>
<trkpt lat="51.38747" lon="7.78823">
<ele>337</ele>
<time>2012-01-30T11:56:48Z</time>
</trkpt>
<trkpt lat="51.38753" lon="7.78823">
<ele>337</ele>
<time>2012-01-30T11:56:53Z</time>
</trkpt>
<trkpt lat="51.38759" lon="7.78823">
<ele>337</ele>
<time>2012-01-30T11:56:58Z</time>
</trkpt>
<trkpt lat="51.38765" lon="7.78823">
<ele>337</ele>
<time>2012-01-30T11:57:02Z</time>
</trkpt>
<trkpt lat="51.3877" lon="7.78823">
<ele>337</ele>
<time>2012-01-30T11:57:06Z</time>
</trkpt>
<trkpt lat="51.38776" lon="7.78823">
<ele>337</ele>
<time>2012-01-30T11:57:10Z</time>
</trkpt>
<trkpt lat="51.38781" lon="7.78823">
<ele>337</ele>
<time>2012-01-30T11:57:14Z</time>
</trkpt>
<trkpt lat="51.38786" lon="7.78823">
<ele>337</ele>
<time>2012-01-30T11:57:18Z</time>
</trkpt>
<trkpt lat="51.38791" lon="7.78821">
<ele>337</ele>
<time>2012-01-30T11:57:21Z</time>
</trkpt>
<trkpt lat="51.38796" lon="7.78819">
<ele>337</ele>
<time>2012-01-30T11:57:25Z</time>
</trkpt>
<trkpt lat="51.38802" lon="7.78819">
<ele>337</ele>
<time>2012-01-30T11:57:29Z</time>
</trkpt>
<trkpt lat="51.38807" lon="7.78821">
<ele>337</ele>
<time>2012-01-30T11:57:33Z</time>
</trkpt>
<trkpt lat="51.38812" lon="7.78819">
<ele>338</ele>
<time>2012-01-30T11:57:38Z</time>
</trkpt>
<trkpt lat="51.38818" lon="7.78817">
<ele>338</ele>
<time>2012-01-30T11:57:42Z</time>
</trkpt>
<trkpt lat="51.38824" lon="7.78817">
<ele>338</ele>
<time>2012-01-30T11:57:46Z</time>
</trkpt>
<trkpt lat="51.38829" lon="7.78817">
<ele>338</ele>
<time>2012-01-30T11:57:50Z</time>
</trkpt>
<trkpt lat="51.38834" lon="7.78817">
<ele>338</ele>
<time>2012-01-30T11:57:55Z</time>
</trkpt>
<trkpt lat="51.3884" lon="7.78817">
<ele>338</ele>
<time>2012-01-30T11:57:59Z</time>
</trkpt>
<trkpt lat="51.38845" lon="7.78815">
<ele>338</ele>
<time>2012-01-30T11:58:03Z</time>
</trkpt>
<trkpt lat="51.38851" lon="7.78815">
<ele>338</ele>
<time>2012-01-30T11:58:07Z</time>
</trkpt>
<trkpt lat="51.38857" lon="7.78815">
<ele>338</ele>
<time>2012-01-30T11:58:12Z</time>
</trkpt>
<trkpt lat="51.38864" lon="7.78815">
<ele>338</ele>
<time>2012-01-30T11:58:17Z</time>
</trkpt>
<trkpt lat="51.38869" lon="7.78813">
<ele>338</ele>
<time>2012-01-30T11:58:21Z</time>
</trkpt>
<trkpt lat="51.38874" lon="7.78813">
<ele>338</ele>
<time>2012-01-30T11:58:25Z</time>
</trkpt>
<trkpt lat="51.38881" lon="7.78813">
<ele>338</ele>
<time>2012-01-30T11:58:30Z</time>
</trkpt>
<trkpt lat="51.38886" lon="7.78813">
<ele>338</ele>
<time>2012-01-30T11:58:34Z</time>
</trkpt>
<trkpt lat="51.38891" lon="7.78813">
<ele>338</ele>
<time>2012-01-30T11:58:38Z</time>
</trkpt>
<trkpt lat="51.38897" lon="7.78813">
<ele>338</ele>
<time>2012-01-30T11:58:42Z</time>
</trkpt>
<trkpt lat="51.38903" lon="7.78813">
<ele>338</ele>
<time>2012-01-30T11:58:46Z</time>
</trkpt>
<trkpt lat="51.38909" lon="7.78813">
<ele>339</ele>
<time>2012-01-30T11:58:50Z</time>
</trkpt>
<trkpt lat="51.38914" lon="7.78813">
<ele>339</ele>
<time>2012-01-30T11:58:54Z</time>
</trkpt>
<trkpt lat="51.38919" lon="7.78813">
<ele>339</ele>
<time>2012-01-30T11:58:58Z</time>
</trkpt>
<trkpt lat="51.38924" lon="7.78815">
<ele>339</ele>
<time>2012-01-30T11:59:02Z</time>
</trkpt>
<trkpt lat="51.38929" lon="7.78817">
<ele>340</ele>
<time>2012-01-30T11:59:06Z</time>
</trkpt>
<trkpt lat="51.38934" lon="7.78817">
<ele>340</ele>
<time>2012-01-30T11:59:10Z</time>
</trkpt>
<trkpt lat="51.38939" lon="7.78819">
<ele>340</ele>
<time>2012-01-30T11:59:13Z</time>
</trkpt>
<trkpt lat="51.38944" lon="7.78821">
<ele>341</ele>
<time>2012-01-30T11:59:17Z</time>
</trkpt>
<trkpt lat="51.38949" lon="7.78821">
<ele>341</ele>
<time>2012-01-30T11:59:21Z</time>
</trkpt>
<trkpt lat="51.38954" lon="7.78823">
<ele>341</ele>
<time>2012-01-30T11:59:24Z</time>
</trkpt>
<trkpt lat="51.38959" lon="7.78826">
<ele>342</ele>
<time>2012-01-30T11:59:28Z</time>
</trkpt>
<trkpt lat="51.38963" lon="7.78828">
<ele>342</ele>
<time>2012-01-30T11:59:32Z</time>
</trkpt>
<trkpt lat="51.38968" lon="7.7883">
<ele>342</ele>
<time>2012-01-30T11:59:36Z</time>
</trkpt>
<trkpt lat="51.38973" lon="7.7883">
<ele>342</ele>
<time>2012-01-30T11:59:40Z</time>
</trkpt>
<trkpt lat="51.38977" lon="7.78832">
<ele>343</ele>
<time>2012-01-30T11:59:44Z</time>
</trkpt>
<trkpt lat="51.38982" lon="7.78834">
<ele>343</ele>
<time>2012-01-30T11:59:48Z</time>
</trkpt>
<trkpt lat="51.38987" lon="7.78834">
<ele>343</ele>
<time>2012-01-30T11:59:52Z</time>
</trkpt>
<trkpt lat="51.38991" lon="7.78836">
<ele>343</ele>
<time>2012-01-30T11:59:56Z</time>
</trkpt>
<trkpt lat="51.38996" lon="7.78838">
<ele>343</ele>
<time>2012-01-30T12:00:00Z</time>
</trkpt>
<trkpt lat="51.39" lon="7.7884">
<ele>344</ele>
<time>2012-01-30T12:00:04Z</time>
</trkpt>
<trkpt lat="51.39005" lon="7.7884">
<ele>344</ele>
<time>2012-01-30T12:00:08Z</time>
</trkpt>
<trkpt lat="51.39009" lon="7.78843">
<ele>344</ele>
<time>2012-01-30T12:00:12Z</time>
</trkpt>
<trkpt lat="51.39015" lon="7.78843">
<ele>344</ele>
<time>2012-01-30T12:00:16Z</time>
</trkpt>
<trkpt lat="51.39019" lon="7.78845">
<ele>344</ele>
<time>2012-01-30T12:00:20Z</time>
</trkpt>
<trkpt lat="51.39024" lon="7.78847">
<ele>344</ele>
<time>2012-01-30T12:00:24Z</time>
</trkpt>
<trkpt lat="51.3903" lon="7.78849">
<ele>344</ele>
<time>2012-01-30T12:00:30Z</time>
</trkpt>
<trkpt lat="51.39035" lon="7.78849">
<ele>344</ele>
<time>2012-01-30T12:00:35Z</time>
</trkpt>
<trkpt lat="51.3904" lon="7.78851">
<ele>344</ele>
<time>2012-01-30T12:00:39Z</time>
</trkpt>
<trkpt lat="51.39044" lon="7.78853">
<ele>344</ele>
<time>2012-01-30T12:00:43Z</time>
</trkpt>
<trkpt lat="51.39049" lon="7.78856">
<ele>344</ele>
<time>2012-01-30T12:00:48Z</time>
</trkpt>
<trkpt lat="51.39054" lon="7.78856">
<ele>344</ele>
<time>2012-01-30T12:00:53Z</time>
</trkpt>
<trkpt lat="51.39059" lon="7.78858">
<ele>344</ele>
<time>2012-01-30T12:00:57Z</time>
</trkpt>
<trkpt lat="51.39064" lon="7.7886">
<ele>345</ele>
<time>2012-01-30T12:01:01Z</time>
</trkpt>
<trkpt lat="51.3907" lon="7.78862">
<ele>345</ele>
<time>2012-01-30T12:01:06Z</time>
</trkpt>
<trkpt lat="51.39075" lon="7.78862">
<ele>345</ele>
<time>2012-01-30T12:01:10Z</time>
</trkpt>
<trkpt lat="51.39079" lon="7.78864">
<ele>345</ele>
<time>2012-01-30T12:01:14Z</time>
</trkpt>
<trkpt lat="51.39084" lon="7.78866">
<ele>345</ele>
<time>2012-01-30T12:01:18Z</time>
</trkpt>
<trkpt lat="51.39088" lon="7.78868">
<ele>345</ele>
<time>2012-01-30T12:01:22Z</time>
</trkpt>
<trkpt lat="51.39093" lon="7.7887">
<ele>345</ele>
<time>2012-01-30T12:01:26Z</time>
</trkpt>
<trkpt lat="51.39097" lon="7.78875">
<ele>345</ele>
<time>2012-01-30T12:01:30Z</time>
</trkpt>
<trkpt lat="51.39102" lon="7.78879">
<ele>346</ele>
<time>2012-01-30T12:01:34Z</time>
</trkpt>
<trkpt lat="51.39106" lon="7.78883">
<ele>346</ele>
<time>2012-01-30T12:01:38Z</time>
</trkpt>
<trkpt lat="51.39106" lon="7.78883">
<ele>346</ele>
<time>2012-01-30T12:01:38Z</time>
</trkpt>
<trkpt lat="51.39106" lon="7.78883">
<ele>346</ele>
<time>2012-01-30T12:01:42Z</time>
</trkpt>
<trkpt lat="51.3911" lon="7.78888">
<ele>346</ele>
<time>2012-01-30T12:01:47Z</time>
</trkpt>
<trkpt lat="51.39115" lon="7.78892">
<ele>347</ele>
<time>2012-01-30T12:01:51Z</time>
</trkpt>
<trkpt lat="51.39119" lon="7.78898">
<ele>347</ele>
<time>2012-01-30T12:01:56Z</time>
</trkpt>
<trkpt lat="51.39123" lon="7.78905">
<ele>347</ele>
<time>2012-01-30T12:02:01Z</time>
</trkpt>
<trkpt lat="51.39126" lon="7.78911">
<ele>347</ele>
<time>2012-01-30T12:02:05Z</time>
</trkpt>
<trkpt lat="51.39131" lon="7.78918">
<ele>348</ele>
<time>2012-01-30T12:02:10Z</time>
</trkpt>
<trkpt lat="51.39133" lon="7.78924">
<ele>348</ele>
<time>2012-01-30T12:02:14Z</time>
</trkpt>
<trkpt lat="51.39135" lon="7.78931">
<ele>348</ele>
<time>2012-01-30T12:02:17Z</time>
</trkpt>
<trkpt lat="51.39136" lon="7.78939">
<ele>349</ele>
<time>2012-01-30T12:02:21Z</time>
</trkpt>
<trkpt lat="51.39136" lon="7.78939">
<ele>349</ele>
<time>2012-01-30T12:02:21Z</time>
</trkpt>
<trkpt lat="51.39136" lon="7.78939">
<ele>349</ele>
<time>2012-01-30T12:02:22Z</time>
</trkpt>
<trkpt lat="51.39136" lon="7.78948">
<ele>349</ele>
<time>2012-01-30T12:02:26Z</time>
</trkpt>
<trkpt lat="51.39136" lon="7.78958">
<ele>349</ele>
<time>2012-01-30T12:02:30Z</time>
</trkpt>
<trkpt lat="51.39136" lon="7.78967">
<ele>349</ele>
<time>2012-01-30T12:02:34Z</time>
</trkpt>
<trkpt lat="51.39136" lon="7.78976">
<ele>349</ele>
<time>2012-01-30T12:02:38Z</time>
</trkpt>
<trkpt lat="51.39136" lon="7.78984">
<ele>349</ele>
<time>2012-01-30T12:02:42Z</time>
</trkpt>
<trkpt lat="51.39137" lon="7.78993">
<ele>349</ele>
<time>2012-01-30T12:02:47Z</time>
</trkpt>
<trkpt lat="51.39137" lon="7.79001">
<ele>349</ele>
<time>2012-01-30T12:02:51Z</time>
</trkpt>
<trkpt lat="51.39137" lon="7.7901">
<ele>349</ele>
<time>2012-01-30T12:02:55Z</time>
</trkpt>
<trkpt lat="51.39137" lon="7.79019">
<ele>348</ele>
<time>2012-01-30T12:02:59Z</time>
</trkpt>
<trkpt lat="51.39138" lon="7.79027">
<ele>348</ele>
<time>2012-01-30T12:03:02Z</time>
</trkpt>
<trkpt lat="51.39138" lon="7.79036">
<ele>348</ele>
<time>2012-01-30T12:03:06Z</time>
</trkpt>
<trkpt lat="51.39138" lon="7.79044">
<ele>348</ele>
<time>2012-01-30T12:03:09Z</time>
</trkpt>
<trkpt lat="51.39137" lon="7.79053">
<ele>348</ele>
<time>2012-01-30T12:03:13Z</time>
</trkpt>
<trkpt lat="51.39137" lon="7.79062">
<ele>347</ele>
<time>2012-01-30T12:03:16Z</time>
</trkpt>
<trkpt lat="51.39138" lon="7.7907">
<ele>347</ele>
<time>2012-01-30T12:03:20Z</time>
</trkpt>
<trkpt lat="51.39138" lon="7.79079">
<ele>347</ele>
<time>2012-01-30T12:03:24Z</time>
</trkpt>
<trkpt lat="51.39139" lon="7.79087">
<ele>347</ele>
<time>2012-01-30T12:03:28Z</time>
</trkpt>
<trkpt lat="51.39139" lon="7.79096">
<ele>346</ele>
<time>2012-01-30T12:03:32Z</time>
</trkpt>
<trkpt lat="51.3914" lon="7.79104">
<ele>346</ele>
<time>2012-01-30T12:03:36Z</time>
</trkpt>
<trkpt lat="51.3914" lon="7.79113">
<ele>346</ele>
<time>2012-01-30T12:03:40Z</time>
</trkpt>
<trkpt lat="51.39141" lon="7.79122">
<ele>346</ele>
<time>2012-01-30T12:03:44Z</time>
</trkpt>
<trkpt lat="51.39141" lon="7.7913">
<ele>346</ele>
<time>2012-01-30T12:03:48Z</time>
</trkpt>
<trkpt lat="51.39142" lon="7.79139">
<ele>346</ele>
<time>2012-01-30T12:03:52Z</time>
</trkpt>
<trkpt lat="51.39142" lon="7.79147">
<ele>346</ele>
<time>2012-01-30T12:03:56Z</time>
</trkpt>
<trkpt lat="51.39144" lon="7.79156">
<ele>346</ele>
<time>2012-01-30T12:04:00Z</time>
</trkpt>
<trkpt lat="51.39144" lon="7.79164">
<ele>346</ele>
<time>2012-01-30T12:04:04Z</time>
</trkpt>
<trkpt lat="51.39145" lon="7.79173">
<ele>346</ele>
<time>2012-01-30T12:04:08Z</time>
</trkpt>
<trkpt lat="51.39145" lon="7.79182">
<ele>346</ele>
<time>2012-01-30T12:04:12Z</time>
</trkpt>
<trkpt lat="51.39145" lon="7.7919">
<ele>346</ele>
<time>2012-01-30T12:04:16Z</time>
</trkpt>
<trkpt lat="51.39145" lon="7.79199">
<ele>346</ele>
<time>2012-01-30T12:04:21Z</time>
</trkpt>
<trkpt lat="51.39146" lon="7.79207">
<ele>346</ele>
<time>2012-01-30T12:04:25Z</time>
</trkpt>
<trkpt lat="51.39146" lon="7.79216">
<ele>346</ele>
<time>2012-01-30T12:04:29Z</time>
</trkpt>
<trkpt lat="51.39146" lon="7.79225">
<ele>347</ele>
<time>2012-01-30T12:04:33Z</time>
</trkpt>
<trkpt lat="51.39146" lon="7.79233">
<ele>347</ele>
<time>2012-01-30T12:04:37Z</time>
</trkpt>
<trkpt lat="51.39147" lon="7.79242">
<ele>347</ele>
<time>2012-01-30T12:04:41Z</time>
</trkpt>
<trkpt lat="51.39147" lon="7.7925">
<ele>347</ele>
<time>2012-01-30T12:04:45Z</time>
</trkpt>
<trkpt lat="51.39146" lon="7.79259">
<ele>347</ele>
<time>2012-01-30T12:04:49Z</time>
</trkpt>
<trkpt lat="51.39146" lon="7.79268">
<ele>346</ele>
<time>2012-01-30T12:04:52Z</time>
</trkpt>
<trkpt lat="51.39146" lon="7.79276">
<ele>346</ele>
<time>2012-01-30T12:04:57Z</time>
</trkpt>
<trkpt lat="51.39146" lon="7.79285">
<ele>346</ele>
<time>2012-01-30T12:05:01Z</time>
</trkpt>
<trkpt lat="51.39146" lon="7.79293">
<ele>346</ele>
<time>2012-01-30T12:05:06Z</time>
</trkpt>
<trkpt lat="51.39147" lon="7.79302">
<ele>347</ele>
<time>2012-01-30T12:05:10Z</time>
</trkpt>
<trkpt lat="51.39147" lon="7.7931">
<ele>347</ele>
<time>2012-01-30T12:05:15Z</time>
</trkpt>
<trkpt lat="51.39148" lon="7.79319">
<ele>347</ele>
<time>2012-01-30T12:05:19Z</time>
</trkpt>
<trkpt lat="51.39148" lon="7.79328">
<ele>347</ele>
<time>2012-01-30T12:05:22Z</time>
</trkpt>
<trkpt lat="51.39149" lon="7.79336">
<ele>347</ele>
<time>2012-01-30T12:05:26Z</time>
</trkpt>
<trkpt lat="51.3915" lon="7.79345">
<ele>348</ele>
<time>2012-01-30T12:05:30Z</time>
</trkpt>
<trkpt lat="51.3915" lon="7.79353">
<ele>348</ele>
<time>2012-01-30T12:05:35Z</time>
</trkpt>
<trkpt lat="51.3915" lon="7.79362">
<ele>348</ele>
<time>2012-01-30T12:05:39Z</time>
</trkpt>
<trkpt lat="51.39151" lon="7.7937">
<ele>348</ele>
<time>2012-01-30T12:05:43Z</time>
</trkpt>
<trkpt lat="51.39152" lon="7.79379">
<ele>349</ele>
<time>2012-01-30T12:05:47Z</time>
</trkpt>
<trkpt lat="51.39152" lon="7.79388">
<ele>349</ele>
<time>2012-01-30T12:05:51Z</time>
</trkpt>
<trkpt lat="51.39153" lon="7.79396">
<ele>349</ele>
<time>2012-01-30T12:05:55Z</time>
</trkpt>
<trkpt lat="51.39153" lon="7.79405">
<ele>350</ele>
<time>2012-01-30T12:05:59Z</time>
</trkpt>
<trkpt lat="51.39153" lon="7.79413">
<ele>350</ele>
<time>2012-01-30T12:06:03Z</time>
</trkpt>
<trkpt lat="51.39153" lon="7.79422">
<ele>350</ele>
<time>2012-01-30T12:06:07Z</time>
</trkpt>
<trkpt lat="51.39153" lon="7.79431">
<ele>350</ele>
<time>2012-01-30T12:06:11Z</time>
</trkpt>
<trkpt lat="51.39154" lon="7.79439">
<ele>351</ele>
<time>2012-01-30T12:06:15Z</time>
</trkpt>
<trkpt lat="51.39154" lon="7.79448">
<ele>351</ele>
<time>2012-01-30T12:06:19Z</time>
</trkpt>
<trkpt lat="51.39155" lon="7.79456">
<ele>351</ele>
<time>2012-01-30T12:06:23Z</time>
</trkpt>
<trkpt lat="51.39155" lon="7.79465">
<ele>351</ele>
<time>2012-01-30T12:06:27Z</time>
</trkpt>
<trkpt lat="51.39156" lon="7.79476">
<ele>352</ele>
<time>2012-01-30T12:06:31Z</time>
</trkpt>
<trkpt lat="51.39156" lon="7.79484">
<ele>352</ele>
<time>2012-01-30T12:06:35Z</time>
</trkpt>
<trkpt lat="51.39155" lon="7.79493">
<ele>352</ele>
<time>2012-01-30T12:06:38Z</time>
</trkpt>
<trkpt lat="51.39155" lon="7.79501">
<ele>352</ele>
<time>2012-01-30T12:06:42Z</time>
</trkpt>
<trkpt lat="51.39155" lon="7.7951">
<ele>352</ele>
<time>2012-01-30T12:06:46Z</time>
</trkpt>
<trkpt lat="51.39156" lon="7.79519">
<ele>352</ele>
<time>2012-01-30T12:06:50Z</time>
</trkpt>
<trkpt lat="51.39156" lon="7.79527">
<ele>352</ele>
<time>2012-01-30T12:06:54Z</time>
</trkpt>
<trkpt lat="51.39158" lon="7.79536">
<ele>352</ele>
<time>2012-01-30T12:06:58Z</time>
</trkpt>
<trkpt lat="51.39158" lon="7.79544">
<ele>352</ele>
<time>2012-01-30T12:07:02Z</time>
</trkpt>
<trkpt lat="51.39159" lon="7.79553">
<ele>352</ele>
<time>2012-01-30T12:07:06Z</time>
</trkpt>
<trkpt lat="51.39159" lon="7.79553">
<ele>352</ele>
<time>2012-01-30T12:07:06Z</time>
</trkpt>
<trkpt lat="51.39159" lon="7.79553">
<ele>352</ele>
<time>2012-01-30T12:07:07Z</time>
</trkpt>
<trkpt lat="51.3916" lon="7.79562">
<ele>352</ele>
<time>2012-01-30T12:07:11Z</time>
</trkpt>
<trkpt lat="51.3916" lon="7.7957">
<ele>351</ele>
<time>2012-01-30T12:07:15Z</time>
</trkpt>
<trkpt lat="51.39161" lon="7.79579">
<ele>351</ele>
<time>2012-01-30T12:07:19Z</time>
</trkpt>
<trkpt lat="51.39161" lon="7.79587">
<ele>351</ele>
<time>2012-01-30T12:07:23Z</time>
</trkpt>
<trkpt lat="51.39162" lon="7.79596">
<ele>351</ele>
<time>2012-01-30T12:07:27Z</time>
</trkpt>
<trkpt lat="51.39162" lon="7.79604">
<ele>351</ele>
<time>2012-01-30T12:07:31Z</time>
</trkpt>
<trkpt lat="51.39163" lon="7.79613">
<ele>351</ele>
<time>2012-01-30T12:07:35Z</time>
</trkpt>
<trkpt lat="51.39163" lon="7.79622">
<ele>351</ele>
<time>2012-01-30T12:07:39Z</time>
</trkpt>
<trkpt lat="51.39163" lon="7.7963">
<ele>351</ele>
<time>2012-01-30T12:07:43Z</time>
</trkpt>
<trkpt lat="51.39163" lon="7.79639">
<ele>351</ele>
<time>2012-01-30T12:07:48Z</time>
</trkpt>
<trkpt lat="51.39163" lon="7.79647">
<ele>352</ele>
<time>2012-01-30T12:07:52Z</time>
</trkpt>
<trkpt lat="51.39163" lon="7.79656">
<ele>352</ele>
<time>2012-01-30T12:07:56Z</time>
</trkpt>
<trkpt lat="51.39163" lon="7.79664">
<ele>352</ele>
<time>2012-01-30T12:08:00Z</time>
</trkpt>
<trkpt lat="51.39163" lon="7.79673">
<ele>352</ele>
<time>2012-01-30T12:08:04Z</time>
</trkpt>
<trkpt lat="51.39164" lon="7.79682">
<ele>352</ele>
<time>2012-01-30T12:08:08Z</time>
</trkpt>
<trkpt lat="51.39164" lon="7.7969">
<ele>352</ele>
<time>2012-01-30T12:08:12Z</time>
</trkpt>
<trkpt lat="51.39164" lon="7.79699">
<ele>352</ele>
<time>2012-01-30T12:08:16Z</time>
</trkpt>
<trkpt lat="51.39164" lon="7.79699">
<ele>352</ele>
<time>2012-01-30T12:08:16Z</time>
</trkpt>
<trkpt lat="51.39164" lon="7.79699">
<ele>352</ele>
<time>2012-01-30T12:08:17Z</time>
</trkpt>
<trkpt lat="51.39164" lon="7.79707">
<ele>352</ele>
<time>2012-01-30T12:08:21Z</time>
</trkpt>
<trkpt lat="51.39165" lon="7.79716">
<ele>352</ele>
<time>2012-01-30T12:08:25Z</time>
</trkpt>
<trkpt lat="51.39165" lon="7.79724">
<ele>352</ele>
<time>2012-01-30T12:08:29Z</time>
</trkpt>
<trkpt lat="51.39165" lon="7.79733">
<ele>353</ele>
<time>2012-01-30T12:08:33Z</time>
</trkpt>
<trkpt lat="51.39166" lon="7.79742">
<ele>353</ele>
<time>2012-01-30T12:08:38Z</time>
</trkpt>
<trkpt lat="51.39167" lon="7.7975">
<ele>353</ele>
<time>2012-01-30T12:08:42Z</time>
</trkpt>
<trkpt lat="51.39167" lon="7.79759">
<ele>353</ele>
<time>2012-01-30T12:08:46Z</time>
</trkpt>
<trkpt lat="51.39167" lon="7.79768">
<ele>353</ele>
<time>2012-01-30T12:08:50Z</time>
</trkpt>
<trkpt lat="51.39167" lon="7.79776">
<ele>353</ele>
<time>2012-01-30T12:08:54Z</time>
</trkpt>
<trkpt lat="51.39167" lon="7.79785">
<ele>354</ele>
<time>2012-01-30T12:08:58Z</time>
</trkpt>
<trkpt lat="51.39167" lon="7.79793">
<ele>354</ele>
<time>2012-01-30T12:09:02Z</time>
</trkpt>
<trkpt lat="51.39167" lon="7.79802">
<ele>354</ele>
<time>2012-01-30T12:09:06Z</time>
</trkpt>
<trkpt lat="51.39167" lon="7.7981">
<ele>354</ele>
<time>2012-01-30T12:09:10Z</time>
</trkpt>
<trkpt lat="51.39167" lon="7.79819">
<ele>355</ele>
<time>2012-01-30T12:09:14Z</time>
</trkpt>
<trkpt lat="51.39167" lon="7.79828">
<ele>355</ele>
<time>2012-01-30T12:09:18Z</time>
</trkpt>
<trkpt lat="51.39168" lon="7.79836">
<ele>355</ele>
<time>2012-01-30T12:09:22Z</time>
</trkpt>
<trkpt lat="51.39168" lon="7.79836">
<ele>355</ele>
<time>2012-01-30T12:09:22Z</time>
</trkpt>
<trkpt lat="51.39168" lon="7.79836">
<ele>355</ele>
<time>2012-01-30T12:09:27Z</time>
</trkpt>
<trkpt lat="51.39168" lon="7.79845">
<ele>355</ele>
<time>2012-01-30T12:09:34Z</time>
</trkpt>
<trkpt lat="51.39168" lon="7.79853">
<ele>355</ele>
<time>2012-01-30T12:09:38Z</time>
</trkpt>
<trkpt lat="51.39168" lon="7.79864">
<ele>355</ele>
<time>2012-01-30T12:09:42Z</time>
</trkpt>
<trkpt lat="51.39168" lon="7.79873">
<ele>356</ele>
<time>2012-01-30T12:09:51Z</time>
</trkpt>
<trkpt lat="51.3917" lon="7.79879">
<ele>356</ele>
<time>2012-01-30T12:09:56Z</time>
</trkpt>
<trkpt lat="51.3917" lon="7.79879">
<ele>356</ele>
<time>2012-01-30T12:09:56Z</time>
</trkpt>
<trkpt lat="51.3917" lon="7.79879">
<ele>356</ele>
<time>2012-01-30T12:09:57Z</time>
</trkpt>
<trkpt lat="51.39175" lon="7.79883">
<ele>356</ele>
<time>2012-01-30T12:10:02Z</time>
</trkpt>
<trkpt lat="51.3918" lon="7.79883">
<ele>356</ele>
<time>2012-01-30T12:10:07Z</time>
</trkpt>
<trkpt lat="51.39185" lon="7.79883">
<ele>356</ele>
<time>2012-01-30T12:10:12Z</time>
</trkpt>
<trkpt lat="51.3919" lon="7.79881">
<ele>356</ele>
<time>2012-01-30T12:10:17Z</time>
</trkpt>
<trkpt lat="51.3919" lon="7.79881">
<ele>356</ele>
<time>2012-01-30T12:10:17Z</time>
</trkpt>
<trkpt lat="51.3919" lon="7.79881">
<ele>356</ele>
<time>2012-01-30T12:10:18Z</time>
</trkpt>
<trkpt lat="51.39194" lon="7.79879">
<ele>356</ele>
<time>2012-01-30T12:10:55Z</time>
</trkpt>
<trkpt lat="51.39194" lon="7.79879">
<ele>356</ele>
<time>2012-01-30T12:10:55Z</time>
</trkpt>
<trkpt lat="51.39194" lon="7.79879">
<ele>357</ele>
<time>2012-01-30T12:11:13Z</time>
</trkpt>
<trkpt lat="51.39194" lon="7.7987">
<ele>357</ele>
<time>2012-01-30T12:11:21Z</time>
</trkpt>
<trkpt lat="51.39194" lon="7.7987">
<ele>357</ele>
<time>2012-01-30T12:11:21Z</time>
</trkpt>
<trkpt lat="51.39194" lon="7.7987">
<ele>357</ele>
<time>2012-01-30T12:11:29Z</time>
</trkpt>
<trkpt lat="51.3919" lon="7.79877">
<ele>357</ele>
<time>2012-01-30T12:11:56Z</time>
</trkpt>
<trkpt lat="51.3919" lon="7.79877">
<ele>357</ele>
<time>2012-01-30T12:11:56Z</time>
</trkpt>
<trkpt lat="51.3919" lon="7.79877">
<ele>357</ele>
<time>2012-01-30T12:11:58Z</time>
</trkpt>
<trkpt lat="51.39184" lon="7.79879">
<ele>358</ele>
<time>2012-01-30T12:12:07Z</time>
</trkpt>
<trkpt lat="51.39184" lon="7.79879">
<ele>358</ele>
<time>2012-01-30T12:12:07Z</time>
</trkpt>
<trkpt lat="51.39184" lon="7.79879">
<ele>358</ele>
<time>2012-01-30T12:13:59Z</time>
</trkpt>
<trkpt lat="51.3918" lon="7.79883">
<ele>358</ele>
<time>2012-01-30T12:14:05Z</time>
</trkpt>
<trkpt lat="51.39176" lon="7.79888">
<ele>357</ele>
<time>2012-01-30T12:14:10Z</time>
</trkpt>
<trkpt lat="51.39176" lon="7.79888">
<ele>357</ele>
<time>2012-01-30T12:14:10Z</time>
</trkpt>
<trkpt lat="51.39176" lon="7.79888">
<ele>357</ele>
<time>2012-01-30T12:14:11Z</time>
</trkpt>
<trkpt lat="51.39172" lon="7.79894">
<ele>357</ele>
<time>2012-01-30T12:14:15Z</time>
</trkpt>
<trkpt lat="51.3917" lon="7.79903">
<ele>357</ele>
<time>2012-01-30T12:14:20Z</time>
</trkpt>
<trkpt lat="51.3917" lon="7.79911">
<ele>357</ele>
<time>2012-01-30T12:14:24Z</time>
</trkpt>
<trkpt lat="51.3917" lon="7.7992">
<ele>356</ele>
<time>2012-01-30T12:14:29Z</time>
</trkpt>
<trkpt lat="51.3917" lon="7.79928">
<ele>356</ele>
<time>2012-01-30T12:14:33Z</time>
</trkpt>
<trkpt lat="51.39169" lon="7.79937">
<ele>356</ele>
<time>2012-01-30T12:14:38Z</time>
</trkpt>
<trkpt lat="51.39168" lon="7.79946">
<ele>356</ele>
<time>2012-01-30T12:14:43Z</time>
</trkpt>
<trkpt lat="51.39169" lon="7.79954">
<ele>356</ele>
<time>2012-01-30T12:14:47Z</time>
</trkpt>
<trkpt lat="51.39169" lon="7.79963">
<ele>356</ele>
<time>2012-01-30T12:14:51Z</time>
</trkpt>
<trkpt lat="51.39169" lon="7.79971">
<ele>356</ele>
<time>2012-01-30T12:14:55Z</time>
</trkpt>
<trkpt lat="51.3917" lon="7.7998">
<ele>356</ele>
<time>2012-01-30T12:14:59Z</time>
</trkpt>
<trkpt lat="51.3917" lon="7.79988">
<ele>356</ele>
<time>2012-01-30T12:15:03Z</time>
</trkpt>
<trkpt lat="51.39171" lon="7.79997">
<ele>356</ele>
<time>2012-01-30T12:15:07Z</time>
</trkpt>
<trkpt lat="51.39171" lon="7.80006">
<ele>356</ele>
<time>2012-01-30T12:15:11Z</time>
</trkpt>
<trkpt lat="51.3917" lon="7.80014">
<ele>357</ele>
<time>2012-01-30T12:15:15Z</time>
</trkpt>
<trkpt lat="51.39169" lon="7.80023">
<ele>357</ele>
<time>2012-01-30T12:15:19Z</time>
</trkpt>
<trkpt lat="51.39169" lon="7.80031">
<ele>357</ele>
<time>2012-01-30T12:15:23Z</time>
</trkpt>
<trkpt lat="51.39168" lon="7.8004">
<ele>357</ele>
<time>2012-01-30T12:15:27Z</time>
</trkpt>
<trkpt lat="51.39167" lon="7.80049">
<ele>357</ele>
<time>2012-01-30T12:15:31Z</time>
</trkpt>
<trkpt lat="51.39165" lon="7.80057">
<ele>358</ele>
<time>2012-01-30T12:15:35Z</time>
</trkpt>
<trkpt lat="51.39165" lon="7.80066">
<ele>358</ele>
<time>2012-01-30T12:15:39Z</time>
</trkpt>
<trkpt lat="51.39164" lon="7.80074">
<ele>358</ele>
<time>2012-01-30T12:15:43Z</time>
</trkpt>
<trkpt lat="51.39163" lon="7.80083">
<ele>358</ele>
<time>2012-01-30T12:15:47Z</time>
</trkpt>
<trkpt lat="51.39163" lon="7.80092">
<ele>358</ele>
<time>2012-01-30T12:15:51Z</time>
</trkpt>
<trkpt lat="51.39163" lon="7.801">
<ele>358</ele>
<time>2012-01-30T12:15:55Z</time>
</trkpt>
<trkpt lat="51.39162" lon="7.80109">
<ele>358</ele>
<time>2012-01-30T12:15:59Z</time>
</trkpt>
<trkpt lat="51.39162" lon="7.80117">
<ele>358</ele>
<time>2012-01-30T12:16:03Z</time>
</trkpt>
<trkpt lat="51.39161" lon="7.80126">
<ele>358</ele>
<time>2012-01-30T12:16:07Z</time>
</trkpt>
<trkpt lat="51.39161" lon="7.80134">
<ele>358</ele>
<time>2012-01-30T12:16:11Z</time>
</trkpt>
<trkpt lat="51.3916" lon="7.80143">
<ele>358</ele>
<time>2012-01-30T12:16:16Z</time>
</trkpt>
<trkpt lat="51.3916" lon="7.80152">
<ele>358</ele>
<time>2012-01-30T12:16:20Z</time>
</trkpt>
<trkpt lat="51.3916" lon="7.8016">
<ele>358</ele>
<time>2012-01-30T12:16:25Z</time>
</trkpt>
<trkpt lat="51.39159" lon="7.80169">
<ele>358</ele>
<time>2012-01-30T12:16:29Z</time>
</trkpt>
<trkpt lat="51.3916" lon="7.80177">
<ele>358</ele>
<time>2012-01-30T12:16:33Z</time>
</trkpt>
<trkpt lat="51.39162" lon="7.80186">
<ele>358</ele>
<time>2012-01-30T12:16:38Z</time>
</trkpt>
<trkpt lat="51.39164" lon="7.80192">
<ele>358</ele>
<time>2012-01-30T12:16:43Z</time>
</trkpt>
<trkpt lat="51.39166" lon="7.80201">
<ele>359</ele>
<time>2012-01-30T12:16:47Z</time>
</trkpt>
<trkpt lat="51.39168" lon="7.80207">
<ele>359</ele>
<time>2012-01-30T12:16:50Z</time>
</trkpt>
<trkpt lat="51.3917" lon="7.80214">
<ele>359</ele>
<time>2012-01-30T12:16:53Z</time>
</trkpt>
<trkpt lat="51.39172" lon="7.8022">
<ele>359</ele>
<time>2012-01-30T12:16:56Z</time>
</trkpt>
<trkpt lat="51.39175" lon="7.80227">
<ele>359</ele>
<time>2012-01-30T12:16:59Z</time>
</trkpt>
<trkpt lat="51.39177" lon="7.80235">
<ele>359</ele>
<time>2012-01-30T12:17:03Z</time>
</trkpt>
<trkpt lat="51.39179" lon="7.80242">
<ele>359</ele>
<time>2012-01-30T12:17:07Z</time>
</trkpt>
<trkpt lat="51.39182" lon="7.80248">
<ele>359</ele>
<time>2012-01-30T12:17:11Z</time>
</trkpt>
<trkpt lat="51.39184" lon="7.80255">
<ele>359</ele>
<time>2012-01-30T12:17:14Z</time>
</trkpt>
<trkpt lat="51.39186" lon="7.80261">
<ele>359</ele>
<time>2012-01-30T12:17:17Z</time>
</trkpt>
<trkpt lat="51.39189" lon="7.80267">
<ele>359</ele>
<time>2012-01-30T12:17:20Z</time>
</trkpt>
<trkpt lat="51.39191" lon="7.80274">
<ele>359</ele>
<time>2012-01-30T12:17:24Z</time>
</trkpt>
<trkpt lat="51.39193" lon="7.80282">
<ele>358</ele>
<time>2012-01-30T12:17:28Z</time>
</trkpt>
<trkpt lat="51.39195" lon="7.80289">
<ele>358</ele>
<time>2012-01-30T12:17:32Z</time>
</trkpt>
<trkpt lat="51.39197" lon="7.80295">
<ele>358</ele>
<time>2012-01-30T12:17:35Z</time>
</trkpt>
<trkpt lat="51.39199" lon="7.80302">
<ele>358</ele>
<time>2012-01-30T12:17:39Z</time>
</trkpt>
<trkpt lat="51.39202" lon="7.80308">
<ele>358</ele>
<time>2012-01-30T12:17:43Z</time>
</trkpt>
<trkpt lat="51.39205" lon="7.80315">
<ele>358</ele>
<time>2012-01-30T12:17:46Z</time>
</trkpt>
<trkpt lat="51.39207" lon="7.80321">
<ele>358</ele>
<time>2012-01-30T12:17:49Z</time>
</trkpt>
<trkpt lat="51.39207" lon="7.80321">
<ele>358</ele>
<time>2012-01-30T12:17:49Z</time>
</trkpt>
<trkpt lat="51.39207" lon="7.80321">
<ele>358</ele>
<time>2012-01-30T12:17:50Z</time>
</trkpt>
<trkpt lat="51.39209" lon="7.80328">
<ele>358</ele>
<time>2012-01-30T12:17:53Z</time>
</trkpt>
<trkpt lat="51.39211" lon="7.80334">
<ele>358</ele>
<time>2012-01-30T12:17:56Z</time>
</trkpt>
<trkpt lat="51.39213" lon="7.8034">
<ele>358</ele>
<time>2012-01-30T12:18:00Z</time>
</trkpt>
<trkpt lat="51.39215" lon="7.80347">
<ele>358</ele>
<time>2012-01-30T12:18:03Z</time>
</trkpt>
<trkpt lat="51.39216" lon="7.80355">
<ele>358</ele>
<time>2012-01-30T12:18:07Z</time>
</trkpt>
<trkpt lat="51.39218" lon="7.80366">
<ele>358</ele>
<time>2012-01-30T12:18:11Z</time>
</trkpt>
<trkpt lat="51.3922" lon="7.80373">
<ele>358</ele>
<time>2012-01-30T12:18:14Z</time>
</trkpt>
<trkpt lat="51.39222" lon="7.80381">
<ele>358</ele>
<time>2012-01-30T12:18:18Z</time>
</trkpt>
<trkpt lat="51.39222" lon="7.80381">
<ele>358</ele>
<time>2012-01-30T12:18:18Z</time>
</trkpt>
<trkpt lat="51.39222" lon="7.80381">
<ele>358</ele>
<time>2012-01-30T12:18:19Z</time>
</trkpt>
<trkpt lat="51.39224" lon="7.80388">
<ele>358</ele>
<time>2012-01-30T12:18:22Z</time>
</trkpt>
<trkpt lat="51.39227" lon="7.80394">
<ele>358</ele>
<time>2012-01-30T12:18:26Z</time>
</trkpt>
<trkpt lat="51.3923" lon="7.804">
<ele>358</ele>
<time>2012-01-30T12:18:30Z</time>
</trkpt>
<trkpt lat="51.39233" lon="7.80407">
<ele>359</ele>
<time>2012-01-30T12:18:33Z</time>
</trkpt>
<trkpt lat="51.39237" lon="7.80413">
<ele>359</ele>
<time>2012-01-30T12:18:37Z</time>
</trkpt>
<trkpt lat="51.39241" lon="7.8042">
<ele>359</ele>
<time>2012-01-30T12:18:42Z</time>
</trkpt>
<trkpt lat="51.39246" lon="7.80426">
<ele>359</ele>
<time>2012-01-30T12:18:47Z</time>
</trkpt>
<trkpt lat="51.39249" lon="7.80433">
<ele>359</ele>
<time>2012-01-30T12:18:51Z</time>
</trkpt>
<trkpt lat="51.39252" lon="7.80439">
<ele>359</ele>
<time>2012-01-30T12:18:55Z</time>
</trkpt>
<trkpt lat="51.39256" lon="7.80443">
<ele>359</ele>
<time>2012-01-30T12:18:59Z</time>
</trkpt>
<trkpt lat="51.3926" lon="7.8045">
<ele>359</ele>
<time>2012-01-30T12:19:03Z</time>
</trkpt>
<trkpt lat="51.39265" lon="7.80454">
<ele>359</ele>
<time>2012-01-30T12:19:07Z</time>
</trkpt>
<trkpt lat="51.39269" lon="7.80458">
<ele>359</ele>
<time>2012-01-30T12:19:11Z</time>
</trkpt>
<trkpt lat="51.39273" lon="7.80463">
<ele>360</ele>
<time>2012-01-30T12:19:15Z</time>
</trkpt>
<trkpt lat="51.39278" lon="7.80467">
<ele>360</ele>
<time>2012-01-30T12:19:19Z</time>
</trkpt>
<trkpt lat="51.39282" lon="7.80469">
<ele>360</ele>
<time>2012-01-30T12:19:23Z</time>
</trkpt>
<trkpt lat="51.39286" lon="7.80473">
<ele>360</ele>
<time>2012-01-30T12:19:27Z</time>
</trkpt>
<trkpt lat="51.39292" lon="7.80478">
<ele>360</ele>
<time>2012-01-30T12:19:31Z</time>
</trkpt>
<trkpt lat="51.39296" lon="7.80482">
<ele>360</ele>
<time>2012-01-30T12:19:35Z</time>
</trkpt>
<trkpt lat="51.393" lon="7.80484">
<ele>360</ele>
<time>2012-01-30T12:19:39Z</time>
</trkpt>
<trkpt lat="51.39304" lon="7.80488">
<ele>360</ele>
<time>2012-01-30T12:19:43Z</time>
</trkpt>
<trkpt lat="51.39309" lon="7.80493">
<ele>360</ele>
<time>2012-01-30T12:19:47Z</time>
</trkpt>
<trkpt lat="51.39314" lon="7.80495">
<ele>360</ele>
<time>2012-01-30T12:19:51Z</time>
</trkpt>
<trkpt lat="51.39318" lon="7.80499">
<ele>360</ele>
<time>2012-01-30T12:19:55Z</time>
</trkpt>
<trkpt lat="51.39323" lon="7.80501">
<ele>360</ele>
<time>2012-01-30T12:19:58Z</time>
</trkpt>
<trkpt lat="51.39327" lon="7.80504">
<ele>360</ele>
<time>2012-01-30T12:20:01Z</time>
</trkpt>
<trkpt lat="51.39331" lon="7.80506">
<ele>360</ele>
<time>2012-01-30T12:20:05Z</time>
</trkpt>
<trkpt lat="51.39336" lon="7.80508">
<ele>360</ele>
<time>2012-01-30T12:20:08Z</time>
</trkpt>
<trkpt lat="51.3934" lon="7.80512">
<ele>361</ele>
<time>2012-01-30T12:20:11Z</time>
</trkpt>
<trkpt lat="51.39344" lon="7.80514">
<ele>361</ele>
<time>2012-01-30T12:20:14Z</time>
</trkpt>
<trkpt lat="51.3935" lon="7.80518">
<ele>361</ele>
<time>2012-01-30T12:20:18Z</time>
</trkpt>
<trkpt lat="51.39354" lon="7.80525">
<ele>361</ele>
<time>2012-01-30T12:20:22Z</time>
</trkpt>
<trkpt lat="51.39359" lon="7.80529">
<ele>361</ele>
<time>2012-01-30T12:20:26Z</time>
</trkpt>
<trkpt lat="51.39364" lon="7.80534">
<ele>362</ele>
<time>2012-01-30T12:20:30Z</time>
</trkpt>
<trkpt lat="51.39367" lon="7.8054">
<ele>362</ele>
<time>2012-01-30T12:20:34Z</time>
</trkpt>
<trkpt lat="51.39371" lon="7.80544">
<ele>362</ele>
<time>2012-01-30T12:20:38Z</time>
</trkpt>
<trkpt lat="51.39373" lon="7.80551">
<ele>362</ele>
<time>2012-01-30T12:20:41Z</time>
</trkpt>
<trkpt lat="51.39373" lon="7.80551">
<ele>362</ele>
<time>2012-01-30T12:20:41Z</time>
</trkpt>
<trkpt lat="51.39373" lon="7.80551">
<ele>362</ele>
<time>2012-01-30T12:20:42Z</time>
</trkpt>
<trkpt lat="51.39375" lon="7.80557">
<ele>362</ele>
<time>2012-01-30T12:20:45Z</time>
</trkpt>
<trkpt lat="51.39376" lon="7.80566">
<ele>362</ele>
<time>2012-01-30T12:21:00Z</time>
</trkpt>
<trkpt lat="51.39376" lon="7.80566">
<ele>362</ele>
<time>2012-01-30T12:21:00Z</time>
</trkpt>
<trkpt lat="51.39376" lon="7.80566">
<ele>362</ele>
<time>2012-01-30T12:21:01Z</time>
</trkpt>
<trkpt lat="51.39378" lon="7.80572">
<ele>363</ele>
<time>2012-01-30T12:21:04Z</time>
</trkpt>
<trkpt lat="51.39378" lon="7.80572">
<ele>363</ele>
<time>2012-01-30T12:21:04Z</time>
</trkpt>
<trkpt lat="51.39378" lon="7.80572">
<ele>363</ele>
<time>2012-01-30T12:21:05Z</time>
</trkpt>
<trkpt lat="51.39382" lon="7.80579">
<ele>363</ele>
<time>2012-01-30T12:21:09Z</time>
</trkpt>
<trkpt lat="51.39385" lon="7.80585">
<ele>363</ele>
<time>2012-01-30T12:21:13Z</time>
</trkpt>
<trkpt lat="51.39388" lon="7.80591">
<ele>363</ele>
<time>2012-01-30T12:21:18Z</time>
</trkpt>
<trkpt lat="51.3939" lon="7.80598">
<ele>363</ele>
<time>2012-01-30T12:21:22Z</time>
</trkpt>
<trkpt lat="51.39395" lon="7.80604">
<ele>363</ele>
<time>2012-01-30T12:21:27Z</time>
</trkpt>
<trkpt lat="51.39397" lon="7.80611">
<ele>363</ele>
<time>2012-01-30T12:21:30Z</time>
</trkpt>
<trkpt lat="51.394" lon="7.80617">
<ele>364</ele>
<time>2012-01-30T12:21:34Z</time>
</trkpt>
<trkpt lat="51.39403" lon="7.80624">
<ele>364</ele>
<time>2012-01-30T12:21:38Z</time>
</trkpt>
<trkpt lat="51.39406" lon="7.8063">
<ele>364</ele>
<time>2012-01-30T12:21:43Z</time>
</trkpt>
<trkpt lat="51.39408" lon="7.80636">
<ele>365</ele>
<time>2012-01-30T12:21:47Z</time>
</trkpt>
<trkpt lat="51.39412" lon="7.80643">
<ele>365</ele>
<time>2012-01-30T12:21:51Z</time>
</trkpt>
<trkpt lat="51.39412" lon="7.80643">
<ele>365</ele>
<time>2012-01-30T12:21:51Z</time>
</trkpt>
<trkpt lat="51.39412" lon="7.80643">
<ele>365</ele>
<time>2012-01-30T12:21:55Z</time>
</trkpt>
<trkpt lat="51.39414" lon="7.80649">
<ele>367</ele>
<time>2012-01-30T12:22:11Z</time>
</trkpt>
<trkpt lat="51.39415" lon="7.80658">
<ele>367</ele>
<time>2012-01-30T12:22:17Z</time>
</trkpt>
<trkpt lat="51.39417" lon="7.80664">
<ele>368</ele>
<time>2012-01-30T12:22:22Z</time>
</trkpt>
<trkpt lat="51.39417" lon="7.80664">
<ele>368</ele>
<time>2012-01-30T12:22:22Z</time>
</trkpt>
<trkpt lat="51.39417" lon="7.80664">
<ele>368</ele>
<time>2012-01-30T12:22:23Z</time>
</trkpt>
<trkpt lat="51.39418" lon="7.80673">
<ele>368</ele>
<time>2012-01-30T12:22:28Z</time>
</trkpt>
<trkpt lat="51.39418" lon="7.80682">
<ele>369</ele>
<time>2012-01-30T12:22:32Z</time>
</trkpt>
<trkpt lat="51.39418" lon="7.8069">
<ele>369</ele>
<time>2012-01-30T12:22:35Z</time>
</trkpt>
<trkpt lat="51.39419" lon="7.80699">
<ele>369</ele>
<time>2012-01-30T12:22:39Z</time>
</trkpt>
<trkpt lat="51.39419" lon="7.80699">
<ele>369</ele>
<time>2012-01-30T12:22:39Z</time>
</trkpt>
<trkpt lat="51.39419" lon="7.80699">
<ele>369</ele>
<time>2012-01-30T12:22:40Z</time>
</trkpt>
<trkpt lat="51.39418" lon="7.80707">
<ele>369</ele>
<time>2012-01-30T12:22:44Z</time>
</trkpt>
<trkpt lat="51.39418" lon="7.80716">
<ele>370</ele>
<time>2012-01-30T12:22:49Z</time>
</trkpt>
<trkpt lat="51.39418" lon="7.80724">
<ele>370</ele>
<time>2012-01-30T12:22:53Z</time>
</trkpt>
<trkpt lat="51.39418" lon="7.80733">
<ele>370</ele>
<time>2012-01-30T12:22:57Z</time>
</trkpt>
<trkpt lat="51.39418" lon="7.80742">
<ele>370</ele>
<time>2012-01-30T12:23:02Z</time>
</trkpt>
<trkpt lat="51.39417" lon="7.8075">
<ele>370</ele>
<time>2012-01-30T12:23:06Z</time>
</trkpt>
<trkpt lat="51.39417" lon="7.80759">
<ele>370</ele>
<time>2012-01-30T12:23:10Z</time>
</trkpt>
<trkpt lat="51.39417" lon="7.80767">
<ele>370</ele>
<time>2012-01-30T12:23:14Z</time>
</trkpt>
<trkpt lat="51.39416" lon="7.80776">
<ele>371</ele>
<time>2012-01-30T12:23:18Z</time>
</trkpt>
<trkpt lat="51.39416" lon="7.80785">
<ele>371</ele>
<time>2012-01-30T12:23:22Z</time>
</trkpt>
<trkpt lat="51.39415" lon="7.80793">
<ele>371</ele>
<time>2012-01-30T12:23:26Z</time>
</trkpt>
<trkpt lat="51.39414" lon="7.80802">
<ele>371</ele>
<time>2012-01-30T12:23:31Z</time>
</trkpt>
<trkpt lat="51.39414" lon="7.8081">
<ele>371</ele>
<time>2012-01-30T12:23:34Z</time>
</trkpt>
<trkpt lat="51.39413" lon="7.80819">
<ele>371</ele>
<time>2012-01-30T12:23:39Z</time>
</trkpt>
<trkpt lat="51.39412" lon="7.80828">
<ele>371</ele>
<time>2012-01-30T12:23:43Z</time>
</trkpt>
<trkpt lat="51.39412" lon="7.80836">
<ele>371</ele>
<time>2012-01-30T12:23:47Z</time>
</trkpt>
<trkpt lat="51.39412" lon="7.80845">
<ele>371</ele>
<time>2012-01-30T12:23:51Z</time>
</trkpt>
<trkpt lat="51.39411" lon="7.80853">
<ele>372</ele>
<time>2012-01-30T12:23:55Z</time>
</trkpt>
<trkpt lat="51.39411" lon="7.80862">
<ele>372</ele>
<time>2012-01-30T12:23:59Z</time>
</trkpt>
<trkpt lat="51.39411" lon="7.8087">
<ele>372</ele>
<time>2012-01-30T12:24:03Z</time>
</trkpt>
<trkpt lat="51.39411" lon="7.80879">
<ele>372</ele>
<time>2012-01-30T12:24:07Z</time>
</trkpt>
<trkpt lat="51.3941" lon="7.80888">
<ele>372</ele>
<time>2012-01-30T12:24:12Z</time>
</trkpt>
<trkpt lat="51.39408" lon="7.80896">
<ele>372</ele>
<time>2012-01-30T12:24:16Z</time>
</trkpt>
<trkpt lat="51.39408" lon="7.80905">
<ele>372</ele>
<time>2012-01-30T12:24:20Z</time>
</trkpt>
<trkpt lat="51.39408" lon="7.80913">
<ele>372</ele>
<time>2012-01-30T12:24:25Z</time>
</trkpt>
<trkpt lat="51.39408" lon="7.80922">
<ele>372</ele>
<time>2012-01-30T12:24:29Z</time>
</trkpt>
<trkpt lat="51.39408" lon="7.8093">
<ele>372</ele>
<time>2012-01-30T12:24:34Z</time>
</trkpt>
<trkpt lat="51.39408" lon="7.80939">
<ele>372</ele>
<time>2012-01-30T12:24:38Z</time>
</trkpt>
<trkpt lat="51.39408" lon="7.80948">
<ele>372</ele>
<time>2012-01-30T12:24:43Z</time>
</trkpt>
<trkpt lat="51.39408" lon="7.80956">
<ele>372</ele>
<time>2012-01-30T12:24:47Z</time>
</trkpt>
<trkpt lat="51.39408" lon="7.80965">
<ele>373</ele>
<time>2012-01-30T12:24:51Z</time>
</trkpt>
<trkpt lat="51.39408" lon="7.80973">
<ele>373</ele>
<time>2012-01-30T12:24:55Z</time>
</trkpt>
<trkpt lat="51.3941" lon="7.80982">
<ele>373</ele>
<time>2012-01-30T12:24:59Z</time>
</trkpt>
<trkpt lat="51.39411" lon="7.80991">
<ele>373</ele>
<time>2012-01-30T12:25:04Z</time>
</trkpt>
<trkpt lat="51.39413" lon="7.80997">
<ele>373</ele>
<time>2012-01-30T12:25:07Z</time>
</trkpt>
<trkpt lat="51.39415" lon="7.81003">
<ele>373</ele>
<time>2012-01-30T12:25:11Z</time>
</trkpt>
<trkpt lat="51.39416" lon="7.81012">
<ele>373</ele>
<time>2012-01-30T12:25:16Z</time>
</trkpt>
<trkpt lat="51.39416" lon="7.81021">
<ele>373</ele>
<time>2012-01-30T12:25:20Z</time>
</trkpt>
<trkpt lat="51.39418" lon="7.81027">
<ele>373</ele>
<time>2012-01-30T12:25:24Z</time>
</trkpt>
<trkpt lat="51.3942" lon="7.81036">
<ele>373</ele>
<time>2012-01-30T12:25:29Z</time>
</trkpt>
<trkpt lat="51.39422" lon="7.81044">
<ele>373</ele>
<time>2012-01-30T12:25:34Z</time>
</trkpt>
<trkpt lat="51.39424" lon="7.81053">
<ele>373</ele>
<time>2012-01-30T12:25:39Z</time>
</trkpt>
<trkpt lat="51.39426" lon="7.81059">
<ele>373</ele>
<time>2012-01-30T12:25:43Z</time>
</trkpt>
<trkpt lat="51.39428" lon="7.81066">
<ele>373</ele>
<time>2012-01-30T12:25:46Z</time>
</trkpt>
<trkpt lat="51.39431" lon="7.81072">
<ele>373</ele>
<time>2012-01-30T12:25:50Z</time>
</trkpt>
<trkpt lat="51.39433" lon="7.81078">
<ele>373</ele>
<time>2012-01-30T12:25:54Z</time>
</trkpt>
<trkpt lat="51.39435" lon="7.81087">
<ele>373</ele>
<time>2012-01-30T12:25:58Z</time>
</trkpt>
<trkpt lat="51.39435" lon="7.81087">
<ele>373</ele>
<time>2012-01-30T12:25:58Z</time>
</trkpt>
<trkpt lat="51.39435" lon="7.81087">
<ele>373</ele>
<time>2012-01-30T12:25:59Z</time>
</trkpt>
<trkpt lat="51.39439" lon="7.81094">
<ele>373</ele>
<time>2012-01-30T12:26:02Z</time>
</trkpt>
<trkpt lat="51.39441" lon="7.81102">
<ele>374</ele>
<time>2012-01-30T12:26:07Z</time>
</trkpt>
<trkpt lat="51.39442" lon="7.81111">
<ele>374</ele>
<time>2012-01-30T12:26:12Z</time>
</trkpt>
<trkpt lat="51.39443" lon="7.81119">
<ele>374</ele>
<time>2012-01-30T12:26:17Z</time>
</trkpt>
<trkpt lat="51.39443" lon="7.81128">
<ele>374</ele>
<time>2012-01-30T12:26:21Z</time>
</trkpt>
<trkpt lat="51.39444" lon="7.81136">
<ele>374</ele>
<time>2012-01-30T12:26:25Z</time>
</trkpt>
<trkpt lat="51.39444" lon="7.81145">
<ele>375</ele>
<time>2012-01-30T12:26:29Z</time>
</trkpt>
<trkpt lat="51.39444" lon="7.81145">
<ele>375</ele>
<time>2012-01-30T12:26:29Z</time>
</trkpt>
<trkpt lat="51.39444" lon="7.81145">
<ele>374</ele>
<time>2012-01-30T12:26:30Z</time>
</trkpt>
<trkpt lat="51.39443" lon="7.81154">
<ele>374</ele>
<time>2012-01-30T12:26:34Z</time>
</trkpt>
<trkpt lat="51.39442" lon="7.81162">
<ele>374</ele>
<time>2012-01-30T12:26:38Z</time>
</trkpt>
<trkpt lat="51.39442" lon="7.81171">
<ele>374</ele>
<time>2012-01-30T12:26:42Z</time>
</trkpt>
<trkpt lat="51.39442" lon="7.81179">
<ele>374</ele>
<time>2012-01-30T12:26:47Z</time>
</trkpt>
<trkpt lat="51.39441" lon="7.81188">
<ele>374</ele>
<time>2012-01-30T12:26:52Z</time>
</trkpt>
<trkpt lat="51.3944" lon="7.81196">
<ele>375</ele>
<time>2012-01-30T12:26:56Z</time>
</trkpt>
<trkpt lat="51.39438" lon="7.81205">
<ele>375</ele>
<time>2012-01-30T12:27:01Z</time>
</trkpt>
<trkpt lat="51.39435" lon="7.81212">
<ele>374</ele>
<time>2012-01-30T12:27:04Z</time>
</trkpt>
<trkpt lat="51.39432" lon="7.81218">
<ele>374</ele>
<time>2012-01-30T12:27:07Z</time>
</trkpt>
<trkpt lat="51.3943" lon="7.81224">
<ele>374</ele>
<time>2012-01-30T12:27:11Z</time>
</trkpt>
<trkpt lat="51.39429" lon="7.81233">
<ele>374</ele>
<time>2012-01-30T12:27:15Z</time>
</trkpt>
<trkpt lat="51.39427" lon="7.8124">
<ele>373</ele>
<time>2012-01-30T12:27:19Z</time>
</trkpt>
<trkpt lat="51.39425" lon="7.81248">
<ele>373</ele>
<time>2012-01-30T12:27:23Z</time>
</trkpt>
<trkpt lat="51.39424" lon="7.81257">
<ele>373</ele>
<time>2012-01-30T12:27:27Z</time>
</trkpt>
<trkpt lat="51.39421" lon="7.81265">
<ele>373</ele>
<time>2012-01-30T12:27:31Z</time>
</trkpt>
<trkpt lat="51.39419" lon="7.81274">
<ele>373</ele>
<time>2012-01-30T12:27:36Z</time>
</trkpt>
<trkpt lat="51.39418" lon="7.81282">
<ele>373</ele>
<time>2012-01-30T12:27:40Z</time>
</trkpt>
<trkpt lat="51.39416" lon="7.81289">
<ele>373</ele>
<time>2012-01-30T12:27:44Z</time>
</trkpt>
<trkpt lat="51.39414" lon="7.81297">
<ele>373</ele>
<time>2012-01-30T12:27:49Z</time>
</trkpt>
<trkpt lat="51.39412" lon="7.81306">
<ele>374</ele>
<time>2012-01-30T12:27:54Z</time>
</trkpt>
<trkpt lat="51.39412" lon="7.81306">
<ele>374</ele>
<time>2012-01-30T12:27:54Z</time>
</trkpt>
<trkpt lat="51.39412" lon="7.81306">
<ele>374</ele>
<time>2012-01-30T12:27:55Z</time>
</trkpt>
<trkpt lat="51.39408" lon="7.81312">
<ele>374</ele>
<time>2012-01-30T12:27:59Z</time>
</trkpt>
<trkpt lat="51.39406" lon="7.81319">
<ele>374</ele>
<time>2012-01-30T12:28:03Z</time>
</trkpt>
<trkpt lat="51.39404" lon="7.81325">
<ele>374</ele>
<time>2012-01-30T12:28:07Z</time>
</trkpt>
<trkpt lat="51.39404" lon="7.81325">
<ele>374</ele>
<time>2012-01-30T12:28:07Z</time>
</trkpt>
<trkpt lat="51.39404" lon="7.81325">
<ele>374</ele>
<time>2012-01-30T12:28:08Z</time>
</trkpt>
<trkpt lat="51.39402" lon="7.81332">
<ele>374</ele>
<time>2012-01-30T12:28:11Z</time>
</trkpt>
<trkpt lat="51.39402" lon="7.81332">
<ele>374</ele>
<time>2012-01-30T12:28:11Z</time>
</trkpt>
<trkpt lat="51.39402" lon="7.81332">
<ele>374</ele>
<time>2012-01-30T12:28:12Z</time>
</trkpt>
<trkpt lat="51.394" lon="7.81338">
<ele>374</ele>
<time>2012-01-30T12:28:15Z</time>
</trkpt>
<trkpt lat="51.39398" lon="7.81345">
<ele>374</ele>
<time>2012-01-30T12:28:19Z</time>
</trkpt>
<trkpt lat="51.39395" lon="7.81351">
<ele>374</ele>
<time>2012-01-30T12:28:23Z</time>
</trkpt>
<trkpt lat="51.39391" lon="7.81358">
<ele>375</ele>
<time>2012-01-30T12:28:27Z</time>
</trkpt>
<trkpt lat="51.39389" lon="7.81364">
<ele>375</ele>
<time>2012-01-30T12:28:31Z</time>
</trkpt>
<trkpt lat="51.39387" lon="7.8137">
<ele>375</ele>
<time>2012-01-30T12:28:34Z</time>
</trkpt>
<trkpt lat="51.39385" lon="7.81377">
<ele>375</ele>
<time>2012-01-30T12:28:38Z</time>
</trkpt>
<trkpt lat="51.39382" lon="7.81383">
<ele>376</ele>
<time>2012-01-30T12:28:42Z</time>
</trkpt>
<trkpt lat="51.3938" lon="7.8139">
<ele>376</ele>
<time>2012-01-30T12:28:45Z</time>
</trkpt>
<trkpt lat="51.3938" lon="7.8139">
<ele>376</ele>
<time>2012-01-30T12:28:45Z</time>
</trkpt>
<trkpt lat="51.3938" lon="7.8139">
<ele>376</ele>
<time>2012-01-30T12:28:46Z</time>
</trkpt>
<trkpt lat="51.39377" lon="7.81396">
<ele>376</ele>
<time>2012-01-30T12:28:49Z</time>
</trkpt>
<trkpt lat="51.39375" lon="7.81402">
<ele>377</ele>
<time>2012-01-30T12:28:53Z</time>
</trkpt>
<trkpt lat="51.39372" lon="7.81409">
<ele>377</ele>
<time>2012-01-30T12:28:57Z</time>
</trkpt>
<trkpt lat="51.39372" lon="7.81409">
<ele>377</ele>
<time>2012-01-30T12:28:57Z</time>
</trkpt>
<trkpt lat="51.39372" lon="7.81409">
<ele>377</ele>
<time>2012-01-30T12:28:58Z</time>
</trkpt>
<trkpt lat="51.3937" lon="7.81415">
<ele>377</ele>
<time>2012-01-30T12:29:01Z</time>
</trkpt>
<trkpt lat="51.3937" lon="7.81415">
<ele>377</ele>
<time>2012-01-30T12:29:01Z</time>
</trkpt>
<trkpt lat="51.3937" lon="7.81415">
<ele>377</ele>
<time>2012-01-30T12:29:02Z</time>
</trkpt>
<trkpt lat="51.39368" lon="7.81422">
<ele>378</ele>
<time>2012-01-30T12:29:06Z</time>
</trkpt>
<trkpt lat="51.39366" lon="7.8143">
<ele>378</ele>
<time>2012-01-30T12:29:10Z</time>
</trkpt>
<trkpt lat="51.39362" lon="7.81437">
<ele>378</ele>
<time>2012-01-30T12:29:14Z</time>
</trkpt>
<trkpt lat="51.39362" lon="7.81437">
<ele>378</ele>
<time>2012-01-30T12:29:14Z</time>
</trkpt>
<trkpt lat="51.39362" lon="7.81437">
<ele>378</ele>
<time>2012-01-30T12:29:15Z</time>
</trkpt>
<trkpt lat="51.39359" lon="7.81443">
<ele>379</ele>
<time>2012-01-30T12:29:18Z</time>
</trkpt>
<trkpt lat="51.39357" lon="7.81452">
<ele>379</ele>
<time>2012-01-30T12:29:22Z</time>
</trkpt>
<trkpt lat="51.39355" lon="7.81458">
<ele>379</ele>
<time>2012-01-30T12:29:25Z</time>
</trkpt>
<trkpt lat="51.39353" lon="7.81465">
<ele>380</ele>
<time>2012-01-30T12:29:28Z</time>
</trkpt>
<trkpt lat="51.3935" lon="7.81471">
<ele>380</ele>
<time>2012-01-30T12:29:32Z</time>
</trkpt>
<trkpt lat="51.39347" lon="7.81478">
<ele>379</ele>
<time>2012-01-30T12:29:35Z</time>
</trkpt>
<trkpt lat="51.39345" lon="7.81486">
<ele>379</ele>
<time>2012-01-30T12:29:39Z</time>
</trkpt>
<trkpt lat="51.39343" lon="7.81495">
<ele>379</ele>
<time>2012-01-30T12:29:44Z</time>
</trkpt>
<trkpt lat="51.39342" lon="7.81503">
<ele>379</ele>
<time>2012-01-30T12:29:48Z</time>
</trkpt>
<trkpt lat="51.39341" lon="7.81512">
<ele>378</ele>
<time>2012-01-30T12:29:53Z</time>
</trkpt>
<trkpt lat="51.39339" lon="7.81518">
<ele>378</ele>
<time>2012-01-30T12:29:57Z</time>
</trkpt>
<trkpt lat="51.39338" lon="7.81527">
<ele>378</ele>
<time>2012-01-30T12:30:02Z</time>
</trkpt>
<trkpt lat="51.39337" lon="7.81536">
<ele>378</ele>
<time>2012-01-30T12:30:06Z</time>
</trkpt>
<trkpt lat="51.39337" lon="7.81536">
<ele>378</ele>
<time>2012-01-30T12:30:06Z</time>
</trkpt>
<trkpt lat="51.39337" lon="7.81536">
<ele>378</ele>
<time>2012-01-30T12:30:07Z</time>
</trkpt>
<trkpt lat="51.39336" lon="7.81544">
<ele>378</ele>
<time>2012-01-30T12:30:11Z</time>
</trkpt>
<trkpt lat="51.39334" lon="7.81553">
<ele>378</ele>
<time>2012-01-30T12:30:15Z</time>
</trkpt>
<trkpt lat="51.39334" lon="7.81561">
<ele>377</ele>
<time>2012-01-30T12:30:19Z</time>
</trkpt>
<trkpt lat="51.39334" lon="7.8157">
<ele>377</ele>
<time>2012-01-30T12:30:23Z</time>
</trkpt>
<trkpt lat="51.39334" lon="7.81578">
<ele>377</ele>
<time>2012-01-30T12:30:27Z</time>
</trkpt>
<trkpt lat="51.39336" lon="7.81587">
<ele>377</ele>
<time>2012-01-30T12:30:31Z</time>
</trkpt>
<trkpt lat="51.39338" lon="7.81594">
<ele>377</ele>
<time>2012-01-30T12:30:34Z</time>
</trkpt>
<trkpt lat="51.39339" lon="7.81602">
<ele>376</ele>
<time>2012-01-30T12:30:38Z</time>
</trkpt>
<trkpt lat="51.39341" lon="7.81608">
<ele>376</ele>
<time>2012-01-30T12:30:42Z</time>
</trkpt>
<trkpt lat="51.39343" lon="7.81615">
<ele>376</ele>
<time>2012-01-30T12:30:45Z</time>
</trkpt>
<trkpt lat="51.39347" lon="7.81619">
<ele>375</ele>
<time>2012-01-30T12:30:50Z</time>
</trkpt>
<trkpt lat="51.39352" lon="7.81626">
<ele>375</ele>
<time>2012-01-30T12:30:54Z</time>
</trkpt>
<trkpt lat="51.39356" lon="7.81632">
<ele>375</ele>
<time>2012-01-30T12:30:59Z</time>
</trkpt>
<trkpt lat="51.3936" lon="7.81639">
<ele>374</ele>
<time>2012-01-30T12:31:04Z</time>
</trkpt>
<trkpt lat="51.39365" lon="7.81645">
<ele>374</ele>
<time>2012-01-30T12:31:09Z</time>
</trkpt>
<trkpt lat="51.39369" lon="7.81651">
<ele>373</ele>
<time>2012-01-30T12:31:14Z</time>
</trkpt>
<trkpt lat="51.39373" lon="7.81654">
<ele>373</ele>
<time>2012-01-30T12:31:18Z</time>
</trkpt>
<trkpt lat="51.39377" lon="7.81658">
<ele>372</ele>
<time>2012-01-30T12:31:22Z</time>
</trkpt>
<trkpt lat="51.39383" lon="7.81658">
<ele>372</ele>
<time>2012-01-30T12:31:26Z</time>
</trkpt>
<trkpt lat="51.39387" lon="7.8166">
<ele>372</ele>
<time>2012-01-30T12:31:31Z</time>
</trkpt>
<trkpt lat="51.39391" lon="7.81658">
<ele>372</ele>
<time>2012-01-30T12:31:36Z</time>
</trkpt>
<trkpt lat="51.39386" lon="7.81656">
<ele>372</ele>
<time>2012-01-30T12:32:07Z</time>
</trkpt>
<trkpt lat="51.39384" lon="7.81662">
<ele>372</ele>
<time>2012-01-30T12:32:15Z</time>
</trkpt>
<trkpt lat="51.39384" lon="7.81662">
<ele>372</ele>
<time>2012-01-30T12:32:15Z</time>
</trkpt>
<trkpt lat="51.39384" lon="7.81662">
<ele>372</ele>
<time>2012-01-30T12:32:16Z</time>
</trkpt>
<trkpt lat="51.39386" lon="7.81669">
<ele>372</ele>
<time>2012-01-30T12:32:19Z</time>
</trkpt>
<trkpt lat="51.39388" lon="7.81675">
<ele>372</ele>
<time>2012-01-30T12:32:23Z</time>
</trkpt>
<trkpt lat="51.3939" lon="7.81684">
<ele>372</ele>
<time>2012-01-30T12:32:27Z</time>
</trkpt>
<trkpt lat="51.3939" lon="7.81684">
<ele>372</ele>
<time>2012-01-30T12:32:27Z</time>
</trkpt>
<trkpt lat="51.3939" lon="7.81684">
<ele>372</ele>
<time>2012-01-30T12:32:28Z</time>
</trkpt>
<trkpt lat="51.39388" lon="7.8169">
<ele>372</ele>
<time>2012-01-30T12:32:32Z</time>
</trkpt>
<trkpt lat="51.39386" lon="7.81699">
<ele>372</ele>
<time>2012-01-30T12:32:37Z</time>
</trkpt>
<trkpt lat="51.39384" lon="7.81707">
<ele>372</ele>
<time>2012-01-30T12:32:43Z</time>
</trkpt>
<trkpt lat="51.39384" lon="7.81707">
<ele>372</ele>
<time>2012-01-30T12:32:43Z</time>
</trkpt>
<trkpt lat="51.39384" lon="7.81707">
<ele>372</ele>
<time>2012-01-30T12:32:44Z</time>
</trkpt>
<trkpt lat="51.39382" lon="7.81714">
<ele>372</ele>
<time>2012-01-30T12:32:48Z</time>
</trkpt>
<trkpt lat="51.39382" lon="7.81714">
<ele>372</ele>
<time>2012-01-30T12:32:48Z</time>
</trkpt>
<trkpt lat="51.39382" lon="7.81714">
<ele>372</ele>
<time>2012-01-30T12:32:49Z</time>
</trkpt>
<trkpt lat="51.3938" lon="7.8172">
<ele>372</ele>
<time>2012-01-30T12:32:53Z</time>
</trkpt>
<trkpt lat="51.39378" lon="7.81729">
<ele>372</ele>
<time>2012-01-30T12:32:58Z</time>
</trkpt>
<trkpt lat="51.39378" lon="7.81729">
<ele>372</ele>
<time>2012-01-30T12:32:58Z</time>
</trkpt>
<trkpt lat="51.39378" lon="7.81729">
<ele>372</ele>
<time>2012-01-30T12:32:59Z</time>
</trkpt>
<trkpt lat="51.39377" lon="7.81737">
<ele>372</ele>
<time>2012-01-30T12:33:03Z</time>
</trkpt>
<trkpt lat="51.39377" lon="7.81746">
<ele>373</ele>
<time>2012-01-30T12:33:07Z</time>
</trkpt>
<trkpt lat="51.39377" lon="7.81746">
<ele>373</ele>
<time>2012-01-30T12:33:07Z</time>
</trkpt>
<trkpt lat="51.39377" lon="7.81746">
<ele>373</ele>
<time>2012-01-30T12:33:08Z</time>
</trkpt>
<trkpt lat="51.39377" lon="7.81754">
<ele>373</ele>
<time>2012-01-30T12:33:12Z</time>
</trkpt>
<trkpt lat="51.39377" lon="7.81754">
<ele>373</ele>
<time>2012-01-30T12:33:12Z</time>
</trkpt>
<trkpt lat="51.39377" lon="7.81754">
<ele>373</ele>
<time>2012-01-30T12:33:13Z</time>
</trkpt>
<trkpt lat="51.39374" lon="7.81761">
<ele>373</ele>
<time>2012-01-30T12:33:24Z</time>
</trkpt>
<trkpt lat="51.39374" lon="7.81761">
<ele>373</ele>
<time>2012-01-30T12:33:24Z</time>
</trkpt>
<trkpt lat="51.39374" lon="7.81761">
<ele>373</ele>
<time>2012-01-30T12:33:26Z</time>
</trkpt>
<trkpt lat="51.39372" lon="7.8177">
<ele>373</ele>
<time>2012-01-30T12:33:32Z</time>
</trkpt>
<trkpt lat="51.39372" lon="7.81778">
<ele>373</ele>
<time>2012-01-30T12:33:37Z</time>
</trkpt>
<trkpt lat="51.39372" lon="7.81778">
<ele>373</ele>
<time>2012-01-30T12:33:37Z</time>
</trkpt>
<trkpt lat="51.39372" lon="7.81778">
<ele>373</ele>
<time>2012-01-30T12:33:38Z</time>
</trkpt>
<trkpt lat="51.39373" lon="7.81787">
<ele>373</ele>
<time>2012-01-30T12:33:43Z</time>
</trkpt>
<trkpt lat="51.39374" lon="7.81795">
<ele>372</ele>
<time>2012-01-30T12:33:48Z</time>
</trkpt>
<trkpt lat="51.39374" lon="7.81795">
<ele>372</ele>
<time>2012-01-30T12:33:48Z</time>
</trkpt>
<trkpt lat="51.39374" lon="7.81795">
<ele>372</ele>
<time>2012-01-30T12:33:49Z</time>
</trkpt>
<trkpt lat="51.39375" lon="7.81804">
<ele>371</ele>
<time>2012-01-30T12:33:55Z</time>
</trkpt>
<trkpt lat="51.39377" lon="7.81812">
<ele>371</ele>
<time>2012-01-30T12:34:00Z</time>
</trkpt>
<trkpt lat="51.39377" lon="7.81821">
<ele>371</ele>
<time>2012-01-30T12:34:04Z</time>
</trkpt>
<trkpt lat="51.39377" lon="7.81821">
<ele>371</ele>
<time>2012-01-30T12:34:04Z</time>
</trkpt>
<trkpt lat="51.39377" lon="7.81821">
<ele>371</ele>
<time>2012-01-30T12:34:05Z</time>
</trkpt>
<trkpt lat="51.39378" lon="7.8183">
<ele>371</ele>
<time>2012-01-30T12:34:09Z</time>
</trkpt>
<trkpt lat="51.39378" lon="7.81838">
<ele>370</ele>
<time>2012-01-30T12:34:14Z</time>
</trkpt>
<trkpt lat="51.39378" lon="7.81847">
<ele>370</ele>
<time>2012-01-30T12:34:19Z</time>
</trkpt>
<trkpt lat="51.39378" lon="7.81847">
<ele>370</ele>
<time>2012-01-30T12:34:19Z</time>
</trkpt>
<trkpt lat="51.39378" lon="7.81847">
<ele>370</ele>
<time>2012-01-30T12:34:20Z</time>
</trkpt>
<trkpt lat="51.39378" lon="7.81855">
<ele>370</ele>
<time>2012-01-30T12:34:25Z</time>
</trkpt>
<trkpt lat="51.3938" lon="7.81864">
<ele>370</ele>
<time>2012-01-30T12:34:30Z</time>
</trkpt>
<trkpt lat="51.39381" lon="7.81872">
<ele>370</ele>
<time>2012-01-30T12:34:36Z</time>
</trkpt>
<trkpt lat="51.39381" lon="7.81872">
<ele>370</ele>
<time>2012-01-30T12:34:36Z</time>
</trkpt>
<trkpt lat="51.39381" lon="7.81872">
<ele>370</ele>
<time>2012-01-30T12:34:37Z</time>
</trkpt>
<trkpt lat="51.39381" lon="7.81881">
<ele>371</ele>
<time>2012-01-30T12:34:43Z</time>
</trkpt>
<trkpt lat="51.39381" lon="7.81881">
<ele>371</ele>
<time>2012-01-30T12:34:43Z</time>
</trkpt>
<trkpt lat="51.39381" lon="7.81881">
<ele>371</ele>
<time>2012-01-30T12:34:44Z</time>
</trkpt>
<trkpt lat="51.39381" lon="7.8189">
<ele>371</ele>
<time>2012-01-30T12:34:50Z</time>
</trkpt>
<trkpt lat="51.39377" lon="7.81896">
<ele>371</ele>
<time>2012-01-30T12:34:56Z</time>
</trkpt>
<trkpt lat="51.39372" lon="7.81896">
<ele>371</ele>
<time>2012-01-30T12:35:01Z</time>
</trkpt>
<trkpt lat="51.39367" lon="7.819">
<ele>371</ele>
<time>2012-01-30T12:35:07Z</time>
</trkpt>
<trkpt lat="51.39367" lon="7.819">
<ele>371</ele>
<time>2012-01-30T12:35:07Z</time>
</trkpt>
<trkpt lat="51.39367" lon="7.819">
<ele>371</ele>
<time>2012-01-30T12:35:08Z</time>
</trkpt>
<trkpt lat="51.39365" lon="7.81907">
<ele>371</ele>
<time>2012-01-30T12:35:12Z</time>
</trkpt>
<trkpt lat="51.39364" lon="7.81915">
<ele>371</ele>
<time>2012-01-30T12:35:17Z</time>
</trkpt>
<trkpt lat="51.39364" lon="7.81924">
<ele>371</ele>
<time>2012-01-30T12:35:21Z</time>
</trkpt>
<trkpt lat="51.39362" lon="7.81932">
<ele>371</ele>
<time>2012-01-30T12:35:25Z</time>
</trkpt>
<trkpt lat="51.39361" lon="7.81941">
<ele>372</ele>
<time>2012-01-30T12:35:29Z</time>
</trkpt>
<trkpt lat="51.3936" lon="7.8195">
<ele>372</ele>
<time>2012-01-30T12:35:33Z</time>
</trkpt>
<trkpt lat="51.39359" lon="7.81958">
<ele>372</ele>
<time>2012-01-30T12:35:37Z</time>
</trkpt>
<trkpt lat="51.39358" lon="7.81967">
<ele>372</ele>
<time>2012-01-30T12:35:41Z</time>
</trkpt>
<trkpt lat="51.39357" lon="7.81976">
<ele>372</ele>
<time>2012-01-30T12:35:45Z</time>
</trkpt>
<trkpt lat="51.39356" lon="7.81984">
<ele>372</ele>
<time>2012-01-30T12:35:49Z</time>
</trkpt>
<trkpt lat="51.39355" lon="7.81993">
<ele>372</ele>
<time>2012-01-30T12:35:54Z</time>
</trkpt>
<trkpt lat="51.39353" lon="7.81999">
<ele>372</ele>
<time>2012-01-30T12:35:58Z</time>
</trkpt>
<trkpt lat="51.39351" lon="7.82006">
<ele>372</ele>
<time>2012-01-30T12:36:02Z</time>
</trkpt>
<trkpt lat="51.39348" lon="7.82012">
<ele>372</ele>
<time>2012-01-30T12:36:06Z</time>
</trkpt>
<trkpt lat="51.39346" lon="7.82018">
<ele>372</ele>
<time>2012-01-30T12:36:10Z</time>
</trkpt>
<trkpt lat="51.39345" lon="7.82027">
<ele>371</ele>
<time>2012-01-30T12:36:14Z</time>
</trkpt>
<trkpt lat="51.39345" lon="7.82027">
<ele>371</ele>
<time>2012-01-30T12:36:14Z</time>
</trkpt>
<trkpt lat="51.39345" lon="7.82027">
<ele>371</ele>
<time>2012-01-30T12:36:15Z</time>
</trkpt>
<trkpt lat="51.39343" lon="7.82036">
<ele>371</ele>
<time>2012-01-30T12:36:19Z</time>
</trkpt>
<trkpt lat="51.39342" lon="7.82044">
<ele>371</ele>
<time>2012-01-30T12:36:23Z</time>
</trkpt>
<trkpt lat="51.3934" lon="7.82051">
<ele>370</ele>
<time>2012-01-30T12:36:27Z</time>
</trkpt>
<trkpt lat="51.3934" lon="7.82051">
<ele>370</ele>
<time>2012-01-30T12:36:27Z</time>
</trkpt>
<trkpt lat="51.3934" lon="7.82051">
<ele>370</ele>
<time>2012-01-30T12:36:28Z</time>
</trkpt>
<trkpt lat="51.39339" lon="7.82059">
<ele>370</ele>
<time>2012-01-30T12:36:32Z</time>
</trkpt>
<trkpt lat="51.39337" lon="7.82066">
<ele>370</ele>
<time>2012-01-30T12:36:36Z</time>
</trkpt>
<trkpt lat="51.39334" lon="7.82074">
<ele>369</ele>
<time>2012-01-30T12:36:40Z</time>
</trkpt>
<trkpt lat="51.39332" lon="7.82083">
<ele>369</ele>
<time>2012-01-30T12:36:45Z</time>
</trkpt>
<trkpt lat="51.39331" lon="7.82091">
<ele>369</ele>
<time>2012-01-30T12:36:50Z</time>
</trkpt>
<trkpt lat="51.39329" lon="7.82098">
<ele>368</ele>
<time>2012-01-30T12:36:54Z</time>
</trkpt>
<trkpt lat="51.39327" lon="7.82104">
<ele>368</ele>
<time>2012-01-30T12:36:58Z</time>
</trkpt>
<trkpt lat="51.39325" lon="7.82111">
<ele>368</ele>
<time>2012-01-30T12:37:02Z</time>
</trkpt>
<trkpt lat="51.39323" lon="7.82117">
<ele>367</ele>
<time>2012-01-30T12:37:07Z</time>
</trkpt>
<trkpt lat="51.39321" lon="7.82124">
<ele>367</ele>
<time>2012-01-30T12:37:11Z</time>
</trkpt>
<trkpt lat="51.39318" lon="7.8213">
<ele>367</ele>
<time>2012-01-30T12:37:14Z</time>
</trkpt>
<trkpt lat="51.39318" lon="7.8213">
<ele>367</ele>
<time>2012-01-30T12:37:14Z</time>
</trkpt>
<trkpt lat="51.39318" lon="7.8213">
<ele>367</ele>
<time>2012-01-30T12:37:15Z</time>
</trkpt>
<trkpt lat="51.39316" lon="7.82136">
<ele>367</ele>
<time>2012-01-30T12:37:18Z</time>
</trkpt>
<trkpt lat="51.39314" lon="7.82145">
<ele>366</ele>
<time>2012-01-30T12:37:23Z</time>
</trkpt>
<trkpt lat="51.39312" lon="7.82154">
<ele>366</ele>
<time>2012-01-30T12:37:28Z</time>
</trkpt>
<trkpt lat="51.39312" lon="7.82154">
<ele>366</ele>
<time>2012-01-30T12:37:28Z</time>
</trkpt>
<trkpt lat="51.39312" lon="7.82154">
<ele>366</ele>
<time>2012-01-30T12:37:29Z</time>
</trkpt>
<trkpt lat="51.3931" lon="7.8216">
<ele>366</ele>
<time>2012-01-30T12:37:32Z</time>
</trkpt>
<trkpt lat="51.39308" lon="7.82166">
<ele>365</ele>
<time>2012-01-30T12:37:36Z</time>
</trkpt>
<trkpt lat="51.39306" lon="7.82173">
<ele>365</ele>
<time>2012-01-30T12:37:39Z</time>
</trkpt>
<trkpt lat="51.39303" lon="7.82179">
<ele>365</ele>
<time>2012-01-30T12:37:43Z</time>
</trkpt>
<trkpt lat="51.39303" lon="7.82179">
<ele>365</ele>
<time>2012-01-30T12:37:43Z</time>
</trkpt>
<trkpt lat="51.39303" lon="7.82179">
<ele>365</ele>
<time>2012-01-30T12:37:44Z</time>
</trkpt>
<trkpt lat="51.393" lon="7.82186">
<ele>365</ele>
<time>2012-01-30T12:37:50Z</time>
</trkpt>
<trkpt lat="51.39297" lon="7.82192">
<ele>364</ele>
<time>2012-01-30T12:37:54Z</time>
</trkpt>
<trkpt lat="51.39293" lon="7.82196">
<ele>363</ele>
<time>2012-01-30T12:37:58Z</time>
</trkpt>
<trkpt lat="51.39288" lon="7.82201">
<ele>363</ele>
<time>2012-01-30T12:38:01Z</time>
</trkpt>
<trkpt lat="51.39283" lon="7.82205">
<ele>362</ele>
<time>2012-01-30T12:38:05Z</time>
</trkpt>
<trkpt lat="51.39279" lon="7.82209">
<ele>361</ele>
<time>2012-01-30T12:38:09Z</time>
</trkpt>
<trkpt lat="51.39274" lon="7.82214">
<ele>361</ele>
<time>2012-01-30T12:38:12Z</time>
</trkpt>
<trkpt lat="51.39269" lon="7.82216">
<ele>361</ele>
<time>2012-01-30T12:38:16Z</time>
</trkpt>
<trkpt lat="51.39263" lon="7.8222">
<ele>360</ele>
<time>2012-01-30T12:38:21Z</time>
</trkpt>
<trkpt lat="51.39257" lon="7.8222">
<ele>359</ele>
<time>2012-01-30T12:38:25Z</time>
</trkpt>
<trkpt lat="51.39252" lon="7.82218">
<ele>358</ele>
<time>2012-01-30T12:38:30Z</time>
</trkpt>
<trkpt lat="51.39246" lon="7.82216">
<ele>358</ele>
<time>2012-01-30T12:38:34Z</time>
</trkpt>
<trkpt lat="51.39242" lon="7.82212">
<ele>357</ele>
<time>2012-01-30T12:38:39Z</time>
</trkpt>
<trkpt lat="51.39238" lon="7.82207">
<ele>356</ele>
<time>2012-01-30T12:38:43Z</time>
</trkpt>
<trkpt lat="51.39233" lon="7.82203">
<ele>355</ele>
<time>2012-01-30T12:38:48Z</time>
</trkpt>
<trkpt lat="51.39228" lon="7.82199">
<ele>355</ele>
<time>2012-01-30T12:38:53Z</time>
</trkpt>
<trkpt lat="51.39225" lon="7.82192">
<ele>354</ele>
<time>2012-01-30T12:38:57Z</time>
</trkpt>
<trkpt lat="51.39221" lon="7.82188">
<ele>354</ele>
<time>2012-01-30T12:39:01Z</time>
</trkpt>
<trkpt lat="51.39216" lon="7.82184">
<ele>354</ele>
<time>2012-01-30T12:39:05Z</time>
</trkpt>
<trkpt lat="51.39212" lon="7.82179">
<ele>353</ele>
<time>2012-01-30T12:39:09Z</time>
</trkpt>
<trkpt lat="51.3921" lon="7.82173">
<ele>353</ele>
<time>2012-01-30T12:39:13Z</time>
</trkpt>
<trkpt lat="51.39207" lon="7.82166">
<ele>353</ele>
<time>2012-01-30T12:39:16Z</time>
</trkpt>
<trkpt lat="51.39204" lon="7.8216">
<ele>352</ele>
<time>2012-01-30T12:39:20Z</time>
</trkpt>
<trkpt lat="51.39199" lon="7.82154">
<ele>352</ele>
<time>2012-01-30T12:39:24Z</time>
</trkpt>
<trkpt lat="51.39196" lon="7.82147">
<ele>352</ele>
<time>2012-01-30T12:39:27Z</time>
</trkpt>
<trkpt lat="51.39192" lon="7.82141">
<ele>352</ele>
<time>2012-01-30T12:39:32Z</time>
</trkpt>
<trkpt lat="51.3919" lon="7.82134">
<ele>351</ele>
<time>2012-01-30T12:39:36Z</time>
</trkpt>
<trkpt lat="51.39186" lon="7.82128">
<ele>351</ele>
<time>2012-01-30T12:39:40Z</time>
</trkpt>
<trkpt lat="51.39186" lon="7.82128">
<ele>351</ele>
<time>2012-01-30T12:39:40Z</time>
</trkpt>
<trkpt lat="51.39186" lon="7.82128">
<ele>351</ele>
<time>2012-01-30T12:39:41Z</time>
</trkpt>
<trkpt lat="51.39183" lon="7.82121">
<ele>351</ele>
<time>2012-01-30T12:39:45Z</time>
</trkpt>
<trkpt lat="51.39181" lon="7.82115">
<ele>351</ele>
<time>2012-01-30T12:39:49Z</time>
</trkpt>
<trkpt lat="51.39179" lon="7.82106">
<ele>350</ele>
<time>2012-01-30T12:39:58Z</time>
</trkpt>
<trkpt lat="51.39179" lon="7.82106">
<ele>350</ele>
<time>2012-01-30T12:39:58Z</time>
</trkpt>
<trkpt lat="51.39179" lon="7.82106">
<ele>350</ele>
<time>2012-01-30T12:39:59Z</time>
</trkpt>
<trkpt lat="51.39175" lon="7.82102">
<ele>349</ele>
<time>2012-01-30T12:40:04Z</time>
</trkpt>
<trkpt lat="51.39169" lon="7.821">
<ele>349</ele>
<time>2012-01-30T12:40:09Z</time>
</trkpt>
<trkpt lat="51.39164" lon="7.82098">
<ele>349</ele>
<time>2012-01-30T12:40:14Z</time>
</trkpt>
<trkpt lat="51.39159" lon="7.82094">
<ele>348</ele>
<time>2012-01-30T12:40:20Z</time>
</trkpt>
<trkpt lat="51.39159" lon="7.82094">
<ele>348</ele>
<time>2012-01-30T12:40:20Z</time>
</trkpt>
<trkpt lat="51.39159" lon="7.82094">
<ele>348</ele>
<time>2012-01-30T12:40:21Z</time>
</trkpt>
<trkpt lat="51.39155" lon="7.82087">
<ele>348</ele>
<time>2012-01-30T12:40:26Z</time>
</trkpt>
<trkpt lat="51.39151" lon="7.82083">
<ele>348</ele>
<time>2012-01-30T12:40:32Z</time>
</trkpt>
<trkpt lat="51.39147" lon="7.82078">
<ele>348</ele>
<time>2012-01-30T12:40:38Z</time>
</trkpt>
<trkpt lat="51.39142" lon="7.82074">
<ele>348</ele>
<time>2012-01-30T12:40:43Z</time>
</trkpt>
<trkpt lat="51.39142" lon="7.82074">
<ele>348</ele>
<time>2012-01-30T12:40:43Z</time>
</trkpt>
<trkpt lat="51.39142" lon="7.82074">
<ele>348</ele>
<time>2012-01-30T12:40:44Z</time>
</trkpt>
<trkpt lat="51.39139" lon="7.82068">
<ele>348</ele>
<time>2012-01-30T12:40:48Z</time>
</trkpt>
<trkpt lat="51.39139" lon="7.82068">
<ele>348</ele>
<time>2012-01-30T12:40:48Z</time>
</trkpt>
<trkpt lat="51.39139" lon="7.82068">
<ele>348</ele>
<time>2012-01-30T12:40:49Z</time>
</trkpt>
<trkpt lat="51.39135" lon="7.82061">
<ele>348</ele>
<time>2012-01-30T12:40:54Z</time>
</trkpt>
<trkpt lat="51.39135" lon="7.82061">
<ele>348</ele>
<time>2012-01-30T12:40:54Z</time>
</trkpt>
<trkpt lat="51.39135" lon="7.82061">
<ele>347</ele>
<time>2012-01-30T12:40:55Z</time>
</trkpt>
<trkpt lat="51.39132" lon="7.82055">
<ele>347</ele>
<time>2012-01-30T12:41:00Z</time>
</trkpt>
<trkpt lat="51.39132" lon="7.82055">
<ele>347</ele>
<time>2012-01-30T12:41:00Z</time>
</trkpt>
<trkpt lat="51.39132" lon="7.82055">
<ele>347</ele>
<time>2012-01-30T12:41:01Z</time>
</trkpt>
<trkpt lat="51.39128" lon="7.82048">
<ele>347</ele>
<time>2012-01-30T12:41:07Z</time>
</trkpt>
<trkpt lat="51.39126" lon="7.82042">
<ele>347</ele>
<time>2012-01-30T12:41:12Z</time>
</trkpt>
<trkpt lat="51.39126" lon="7.82042">
<ele>347</ele>
<time>2012-01-30T12:41:12Z</time>
</trkpt>
<trkpt lat="51.39126" lon="7.82042">
<ele>347</ele>
<time>2012-01-30T12:41:13Z</time>
</trkpt>
<trkpt lat="51.39124" lon="7.82036">
<ele>347</ele>
<time>2012-01-30T12:41:17Z</time>
</trkpt>
<trkpt lat="51.39123" lon="7.82027">
<ele>347</ele>
<time>2012-01-30T12:41:22Z</time>
</trkpt>
<trkpt lat="51.39123" lon="7.82027">
<ele>347</ele>
<time>2012-01-30T12:41:22Z</time>
</trkpt>
<trkpt lat="51.39123" lon="7.82027">
<ele>347</ele>
<time>2012-01-30T12:41:23Z</time>
</trkpt>
<trkpt lat="51.39121" lon="7.8202">
<ele>347</ele>
<time>2012-01-30T12:41:27Z</time>
</trkpt>
<trkpt lat="51.39121" lon="7.8202">
<ele>347</ele>
<time>2012-01-30T12:41:27Z</time>
</trkpt>
<trkpt lat="51.39121" lon="7.8202">
<ele>347</ele>
<time>2012-01-30T12:41:28Z</time>
</trkpt>
<trkpt lat="51.39118" lon="7.82014">
<ele>347</ele>
<time>2012-01-30T12:41:33Z</time>
</trkpt>
<trkpt lat="51.39116" lon="7.82008">
<ele>347</ele>
<time>2012-01-30T12:41:39Z</time>
</trkpt>
<trkpt lat="51.39116" lon="7.82008">
<ele>347</ele>
<time>2012-01-30T12:41:39Z</time>
</trkpt>
<trkpt lat="51.39116" lon="7.82008">
<ele>347</ele>
<time>2012-01-30T12:41:55Z</time>
</trkpt>
<trkpt lat="51.39112" lon="7.81999">
<ele>347</ele>
<time>2012-01-30T12:42:02Z</time>
</trkpt>
<trkpt lat="51.39112" lon="7.81999">
<ele>347</ele>
<time>2012-01-30T12:42:02Z</time>
</trkpt>
<trkpt lat="51.39112" lon="7.81999">
<ele>347</ele>
<time>2012-01-30T12:42:05Z</time>
</trkpt>
<trkpt lat="51.39111" lon="7.8199">
<ele>348</ele>
<time>2012-01-30T12:42:14Z</time>
</trkpt>
<trkpt lat="51.39111" lon="7.81982">
<ele>349</ele>
<time>2012-01-30T12:42:20Z</time>
</trkpt>
<trkpt lat="51.39111" lon="7.81982">
<ele>349</ele>
<time>2012-01-30T12:42:20Z</time>
</trkpt>
<trkpt lat="51.39111" lon="7.81982">
<ele>349</ele>
<time>2012-01-30T12:42:21Z</time>
</trkpt>
<trkpt lat="51.3911" lon="7.81973">
<ele>350</ele>
<time>2012-01-30T12:42:26Z</time>
</trkpt>
<trkpt lat="51.3911" lon="7.81973">
<ele>350</ele>
<time>2012-01-30T12:42:26Z</time>
</trkpt>
<trkpt lat="51.3911" lon="7.81973">
<ele>350</ele>
<time>2012-01-30T12:42:27Z</time>
</trkpt>
<trkpt lat="51.3911" lon="7.81965">
<ele>350</ele>
<time>2012-01-30T12:42:33Z</time>
</trkpt>
<trkpt lat="51.39108" lon="7.81958">
<ele>351</ele>
<time>2012-01-30T12:42:37Z</time>
</trkpt>
<trkpt lat="51.39106" lon="7.8195">
<ele>351</ele>
<time>2012-01-30T12:42:42Z</time>
</trkpt>
<trkpt lat="51.39104" lon="7.81943">
<ele>351</ele>
<time>2012-01-30T12:42:45Z</time>
</trkpt>
<trkpt lat="51.39104" lon="7.81943">
<ele>351</ele>
<time>2012-01-30T12:42:45Z</time>
</trkpt>
<trkpt lat="51.39104" lon="7.81943">
<ele>351</ele>
<time>2012-01-30T12:42:46Z</time>
</trkpt>
<trkpt lat="51.391" lon="7.81939">
<ele>352</ele>
<time>2012-01-30T12:42:49Z</time>
</trkpt>
<trkpt lat="51.39096" lon="7.81932">
<ele>353</ele>
<time>2012-01-30T12:42:54Z</time>
</trkpt>
<trkpt lat="51.39096" lon="7.81932">
<ele>353</ele>
<time>2012-01-30T12:42:54Z</time>
</trkpt>
<trkpt lat="51.39096" lon="7.81932">
<ele>353</ele>
<time>2012-01-30T12:42:55Z</time>
</trkpt>
<trkpt lat="51.39094" lon="7.81924">
<ele>353</ele>
<time>2012-01-30T12:43:00Z</time>
</trkpt>
<trkpt lat="51.39094" lon="7.81924">
<ele>353</ele>
<time>2012-01-30T12:43:00Z</time>
</trkpt>
<trkpt lat="51.39094" lon="7.81924">
<ele>353</ele>
<time>2012-01-30T12:43:01Z</time>
</trkpt>
<trkpt lat="51.39092" lon="7.81918">
<ele>353</ele>
<time>2012-01-30T12:43:06Z</time>
</trkpt>
<trkpt lat="51.39092" lon="7.81926">
<ele>353</ele>
<time>2012-01-30T12:43:21Z</time>
</trkpt>
<trkpt lat="51.39092" lon="7.81926">
<ele>353</ele>
<time>2012-01-30T12:43:21Z</time>
</trkpt>
<trkpt lat="51.39092" lon="7.81926">
<ele>354</ele>
<time>2012-01-30T12:43:28Z</time>
</trkpt>
<trkpt lat="51.3909" lon="7.81918">
<ele>354</ele>
<time>2012-01-30T12:43:36Z</time>
</trkpt>
<trkpt lat="51.3909" lon="7.81907">
<ele>354</ele>
<time>2012-01-30T12:43:40Z</time>
</trkpt>
<trkpt lat="51.3909" lon="7.81907">
<ele>354</ele>
<time>2012-01-30T12:43:40Z</time>
</trkpt>
<trkpt lat="51.3909" lon="7.81907">
<ele>354</ele>
<time>2012-01-30T12:43:41Z</time>
</trkpt>
<trkpt lat="51.39089" lon="7.81898">
<ele>354</ele>
<time>2012-01-30T12:43:45Z</time>
</trkpt>
<trkpt lat="51.39089" lon="7.8189">
<ele>354</ele>
<time>2012-01-30T12:43:50Z</time>
</trkpt>
<trkpt lat="51.39089" lon="7.81881">
<ele>354</ele>
<time>2012-01-30T12:43:55Z</time>
</trkpt>
<trkpt lat="51.39091" lon="7.81875">
<ele>354</ele>
<time>2012-01-30T12:43:59Z</time>
</trkpt>
<trkpt lat="51.39093" lon="7.81866">
<ele>354</ele>
<time>2012-01-30T12:44:04Z</time>
</trkpt>
<trkpt lat="51.39093" lon="7.81866">
<ele>354</ele>
<time>2012-01-30T12:44:04Z</time>
</trkpt>
<trkpt lat="51.39093" lon="7.81866">
<ele>354</ele>
<time>2012-01-30T12:44:05Z</time>
</trkpt>
<trkpt lat="51.39095" lon="7.81857">
<ele>354</ele>
<time>2012-01-30T12:44:10Z</time>
</trkpt>
<trkpt lat="51.39095" lon="7.81857">
<ele>354</ele>
<time>2012-01-30T12:44:10Z</time>
</trkpt>
<trkpt lat="51.39095" lon="7.81857">
<ele>354</ele>
<time>2012-01-30T12:44:11Z</time>
</trkpt>
<trkpt lat="51.39095" lon="7.81849">
<ele>355</ele>
<time>2012-01-30T12:44:16Z</time>
</trkpt>
<trkpt lat="51.39095" lon="7.81849">
<ele>355</ele>
<time>2012-01-30T12:44:16Z</time>
</trkpt>
<trkpt lat="51.39095" lon="7.81849">
<ele>355</ele>
<time>2012-01-30T12:44:20Z</time>
</trkpt>
<trkpt lat="51.39095" lon="7.8184">
<ele>355</ele>
<time>2012-01-30T12:44:27Z</time>
</trkpt>
<trkpt lat="51.39096" lon="7.81832">
<ele>356</ele>
<time>2012-01-30T12:44:32Z</time>
</trkpt>
<trkpt lat="51.39096" lon="7.81823">
<ele>356</ele>
<time>2012-01-30T12:44:37Z</time>
</trkpt>
<trkpt lat="51.39096" lon="7.81814">
<ele>357</ele>
<time>2012-01-30T12:44:42Z</time>
</trkpt>
<trkpt lat="51.39097" lon="7.81806">
<ele>357</ele>
<time>2012-01-30T12:44:47Z</time>
</trkpt>
<trkpt lat="51.39097" lon="7.81797">
<ele>357</ele>
<time>2012-01-30T12:44:51Z</time>
</trkpt>
<trkpt lat="51.39097" lon="7.81789">
<ele>357</ele>
<time>2012-01-30T12:44:55Z</time>
</trkpt>
<trkpt lat="51.39097" lon="7.8178">
<ele>358</ele>
<time>2012-01-30T12:44:59Z</time>
</trkpt>
<trkpt lat="51.39098" lon="7.81772">
<ele>358</ele>
<time>2012-01-30T12:45:03Z</time>
</trkpt>
<trkpt lat="51.39097" lon="7.81763">
<ele>358</ele>
<time>2012-01-30T12:45:20Z</time>
</trkpt>
<trkpt lat="51.39098" lon="7.81754">
<ele>359</ele>
<time>2012-01-30T12:45:25Z</time>
</trkpt>
<trkpt lat="51.39098" lon="7.81746">
<ele>359</ele>
<time>2012-01-30T12:45:30Z</time>
</trkpt>
<trkpt lat="51.39098" lon="7.81737">
<ele>360</ele>
<time>2012-01-30T12:45:34Z</time>
</trkpt>
<trkpt lat="51.39098" lon="7.81737">
<ele>360</ele>
<time>2012-01-30T12:45:34Z</time>
</trkpt>
<trkpt lat="51.39098" lon="7.81737">
<ele>360</ele>
<time>2012-01-30T12:45:35Z</time>
</trkpt>
<trkpt lat="51.39098" lon="7.81729">
<ele>360</ele>
<time>2012-01-30T12:45:39Z</time>
</trkpt>
<trkpt lat="51.39098" lon="7.8172">
<ele>361</ele>
<time>2012-01-30T12:45:54Z</time>
</trkpt>
<trkpt lat="51.39098" lon="7.81712">
<ele>361</ele>
<time>2012-01-30T12:45:59Z</time>
</trkpt>
<trkpt lat="51.39098" lon="7.81703">
<ele>362</ele>
<time>2012-01-30T12:46:03Z</time>
</trkpt>
<trkpt lat="51.39098" lon="7.81694">
<ele>362</ele>
<time>2012-01-30T12:46:08Z</time>
</trkpt>
<trkpt lat="51.391" lon="7.81686">
<ele>363</ele>
<time>2012-01-30T12:46:12Z</time>
</trkpt>
<trkpt lat="51.39102" lon="7.81677">
<ele>363</ele>
<time>2012-01-30T12:46:16Z</time>
</trkpt>
<trkpt lat="51.39102" lon="7.81669">
<ele>364</ele>
<time>2012-01-30T12:46:21Z</time>
</trkpt>
<trkpt lat="51.39103" lon="7.8166">
<ele>364</ele>
<time>2012-01-30T12:46:25Z</time>
</trkpt>
<trkpt lat="51.39103" lon="7.81651">
<ele>365</ele>
<time>2012-01-30T12:46:30Z</time>
</trkpt>
<trkpt lat="51.39104" lon="7.81643">
<ele>366</ele>
<time>2012-01-30T12:46:35Z</time>
</trkpt>
<trkpt lat="51.39106" lon="7.81636">
<ele>366</ele>
<time>2012-01-30T12:46:39Z</time>
</trkpt>
<trkpt lat="51.39108" lon="7.81628">
<ele>367</ele>
<time>2012-01-30T12:46:43Z</time>
</trkpt>
<trkpt lat="51.3911" lon="7.81619">
<ele>367</ele>
<time>2012-01-30T12:46:49Z</time>
</trkpt>
<trkpt lat="51.3911" lon="7.81619">
<ele>367</ele>
<time>2012-01-30T12:46:49Z</time>
</trkpt>
<trkpt lat="51.3911" lon="7.81619">
<ele>368</ele>
<time>2012-01-30T12:46:53Z</time>
</trkpt>
<trkpt lat="51.39108" lon="7.81613">
<ele>368</ele>
<time>2012-01-30T12:47:03Z</time>
</trkpt>
<trkpt lat="51.39108" lon="7.81613">
<ele>368</ele>
<time>2012-01-30T12:47:03Z</time>
</trkpt>
<trkpt lat="51.39108" lon="7.81613">
<ele>368</ele>
<time>2012-01-30T12:47:04Z</time>
</trkpt>
<trkpt lat="51.39109" lon="7.81604">
<ele>368</ele>
<time>2012-01-30T12:47:08Z</time>
</trkpt>
<trkpt lat="51.39109" lon="7.81604">
<ele>368</ele>
<time>2012-01-30T12:47:08Z</time>
</trkpt>
<trkpt lat="51.39109" lon="7.81604">
<ele>368</ele>
<time>2012-01-30T12:47:09Z</time>
</trkpt>
<trkpt lat="51.39111" lon="7.81598">
<ele>369</ele>
<time>2012-01-30T12:47:12Z</time>
</trkpt>
<trkpt lat="51.39111" lon="7.81589">
<ele>369</ele>
<time>2012-01-30T12:47:16Z</time>
</trkpt>
<trkpt lat="51.39112" lon="7.81581">
<ele>369</ele>
<time>2012-01-30T12:47:21Z</time>
</trkpt>
<trkpt lat="51.39114" lon="7.81572">
<ele>369</ele>
<time>2012-01-30T12:47:27Z</time>
</trkpt>
<trkpt lat="51.39115" lon="7.81564">
<ele>369</ele>
<time>2012-01-30T12:47:37Z</time>
</trkpt>
<trkpt lat="51.39114" lon="7.81555">
<ele>370</ele>
<time>2012-01-30T12:47:42Z</time>
</trkpt>
<trkpt lat="51.39114" lon="7.81546">
<ele>370</ele>
<time>2012-01-30T12:47:48Z</time>
</trkpt>
<trkpt lat="51.39115" lon="7.81538">
<ele>371</ele>
<time>2012-01-30T12:47:53Z</time>
</trkpt>
<trkpt lat="51.39115" lon="7.81538">
<ele>371</ele>
<time>2012-01-30T12:47:53Z</time>
</trkpt>
<trkpt lat="51.39115" lon="7.81538">
<ele>371</ele>
<time>2012-01-30T12:47:54Z</time>
</trkpt>
<trkpt lat="51.39117" lon="7.81531">
<ele>372</ele>
<time>2012-01-30T12:47:57Z</time>
</trkpt>
<trkpt lat="51.3912" lon="7.81525">
<ele>372</ele>
<time>2012-01-30T12:48:01Z</time>
</trkpt>
<trkpt lat="51.39122" lon="7.81518">
<ele>373</ele>
<time>2012-01-30T12:48:05Z</time>
</trkpt>
<trkpt lat="51.39118" lon="7.81514">
<ele>373</ele>
<time>2012-01-30T12:48:12Z</time>
</trkpt>
<trkpt lat="51.39112" lon="7.81514">
<ele>373</ele>
<time>2012-01-30T12:48:17Z</time>
</trkpt>
<trkpt lat="51.39107" lon="7.81516">
<ele>373</ele>
<time>2012-01-30T12:48:21Z</time>
</trkpt>
<trkpt lat="51.39102" lon="7.81518">
<ele>373</ele>
<time>2012-01-30T12:48:27Z</time>
</trkpt>
<trkpt lat="51.39096" lon="7.81521">
<ele>373</ele>
<time>2012-01-30T12:48:31Z</time>
</trkpt>
<trkpt lat="51.39091" lon="7.81525">
<ele>373</ele>
<time>2012-01-30T12:48:37Z</time>
</trkpt>
<trkpt lat="51.39087" lon="7.81527">
<ele>373</ele>
<time>2012-01-30T12:48:41Z</time>
</trkpt>
<trkpt lat="51.39081" lon="7.81529">
<ele>373</ele>
<time>2012-01-30T12:48:46Z</time>
</trkpt>
<trkpt lat="51.39076" lon="7.81533">
<ele>373</ele>
<time>2012-01-30T12:48:51Z</time>
</trkpt>
<trkpt lat="51.39071" lon="7.81536">
<ele>373</ele>
<time>2012-01-30T12:48:56Z</time>
</trkpt>
<trkpt lat="51.39065" lon="7.81538">
<ele>373</ele>
<time>2012-01-30T12:49:01Z</time>
</trkpt>
<trkpt lat="51.3906" lon="7.81542">
<ele>372</ele>
<time>2012-01-30T12:49:06Z</time>
</trkpt>
<trkpt lat="51.39056" lon="7.81546">
<ele>372</ele>
<time>2012-01-30T12:49:10Z</time>
</trkpt>
<trkpt lat="51.39051" lon="7.81551">
<ele>373</ele>
<time>2012-01-30T12:49:13Z</time>
</trkpt>
<trkpt lat="51.39046" lon="7.81553">
<ele>373</ele>
<time>2012-01-30T12:49:18Z</time>
</trkpt>
<trkpt lat="51.3904" lon="7.81555">
<ele>373</ele>
<time>2012-01-30T12:49:23Z</time>
</trkpt>
<trkpt lat="51.39035" lon="7.81559">
<ele>373</ele>
<time>2012-01-30T12:49:28Z</time>
</trkpt>
<trkpt lat="51.3903" lon="7.81561">
<ele>373</ele>
<time>2012-01-30T12:49:33Z</time>
</trkpt>
<trkpt lat="51.39026" lon="7.81566">
<ele>373</ele>
<time>2012-01-30T12:49:38Z</time>
</trkpt>
<trkpt lat="51.3902" lon="7.81568">
<ele>373</ele>
<time>2012-01-30T12:49:42Z</time>
</trkpt>
<trkpt lat="51.39016" lon="7.81572">
<ele>373</ele>
<time>2012-01-30T12:49:46Z</time>
</trkpt>
<trkpt lat="51.39012" lon="7.81576">
<ele>373</ele>
<time>2012-01-30T12:49:51Z</time>
</trkpt>
<trkpt lat="51.39012" lon="7.81576">
<ele>373</ele>
<time>2012-01-30T12:49:51Z</time>
</trkpt>
<trkpt lat="51.39012" lon="7.81576">
<ele>373</ele>
<time>2012-01-30T12:49:54Z</time>
</trkpt>
<trkpt lat="51.39007" lon="7.81578">
<ele>373</ele>
<time>2012-01-30T12:49:58Z</time>
</trkpt>
<trkpt lat="51.39002" lon="7.81581">
<ele>373</ele>
<time>2012-01-30T12:50:02Z</time>
</trkpt>
<trkpt lat="51.38998" lon="7.81585">
<ele>374</ele>
<time>2012-01-30T12:50:11Z</time>
</trkpt>
<trkpt lat="51.38992" lon="7.81585">
<ele>373</ele>
<time>2012-01-30T12:50:21Z</time>
</trkpt>
<trkpt lat="51.38988" lon="7.81587">
<ele>373</ele>
<time>2012-01-30T12:50:25Z</time>
</trkpt>
<trkpt lat="51.38983" lon="7.81589">
<ele>373</ele>
<time>2012-01-30T12:50:30Z</time>
</trkpt>
<trkpt lat="51.38978" lon="7.81594">
<ele>373</ele>
<time>2012-01-30T12:50:34Z</time>
</trkpt>
<trkpt lat="51.38974" lon="7.81598">
<ele>372</ele>
<time>2012-01-30T12:50:38Z</time>
</trkpt>
<trkpt lat="51.38969" lon="7.816">
<ele>372</ele>
<time>2012-01-30T12:50:43Z</time>
</trkpt>
<trkpt lat="51.38964" lon="7.81604">
<ele>372</ele>
<time>2012-01-30T12:50:47Z</time>
</trkpt>
<trkpt lat="51.3896" lon="7.81608">
<ele>372</ele>
<time>2012-01-30T12:50:52Z</time>
</trkpt>
<trkpt lat="51.38955" lon="7.81613">
<ele>372</ele>
<time>2012-01-30T12:50:57Z</time>
</trkpt>
<trkpt lat="51.3895" lon="7.81617">
<ele>372</ele>
<time>2012-01-30T12:51:02Z</time>
</trkpt>
<trkpt lat="51.38946" lon="7.81621">
<ele>372</ele>
<time>2012-01-30T12:51:06Z</time>
</trkpt>
<trkpt lat="51.38942" lon="7.81628">
<ele>372</ele>
<time>2012-01-30T12:51:11Z</time>
</trkpt>
<trkpt lat="51.38938" lon="7.81634">
<ele>372</ele>
<time>2012-01-30T12:51:16Z</time>
</trkpt>
<trkpt lat="51.38933" lon="7.81641">
<ele>372</ele>
<time>2012-01-30T12:51:21Z</time>
</trkpt>
<trkpt lat="51.38933" lon="7.81641">
<ele>372</ele>
<time>2012-01-30T12:51:21Z</time>
</trkpt>
<trkpt lat="51.38933" lon="7.81641">
<ele>372</ele>
<time>2012-01-30T12:51:22Z</time>
</trkpt>
<trkpt lat="51.38931" lon="7.81647">
<ele>372</ele>
<time>2012-01-30T12:51:26Z</time>
</trkpt>
<trkpt lat="51.38931" lon="7.81647">
<ele>372</ele>
<time>2012-01-30T12:51:26Z</time>
</trkpt>
<trkpt lat="51.38931" lon="7.81647">
<ele>372</ele>
<time>2012-01-30T12:51:27Z</time>
</trkpt>
<trkpt lat="51.38929" lon="7.81654">
<ele>372</ele>
<time>2012-01-30T12:51:31Z</time>
</trkpt>
<trkpt lat="51.38929" lon="7.81654">
<ele>372</ele>
<time>2012-01-30T12:51:31Z</time>
</trkpt>
<trkpt lat="51.38929" lon="7.81654">
<ele>372</ele>
<time>2012-01-30T12:51:35Z</time>
</trkpt>
<trkpt lat="51.38928" lon="7.81662">
<ele>372</ele>
<time>2012-01-30T12:51:44Z</time>
</trkpt>
<trkpt lat="51.38928" lon="7.81662">
<ele>372</ele>
<time>2012-01-30T12:51:44Z</time>
</trkpt>
<trkpt lat="51.38928" lon="7.81662">
<ele>372</ele>
<time>2012-01-30T12:51:45Z</time>
</trkpt>
<trkpt lat="51.38926" lon="7.81669">
<ele>373</ele>
<time>2012-01-30T12:51:49Z</time>
</trkpt>
<trkpt lat="51.38926" lon="7.81669">
<ele>373</ele>
<time>2012-01-30T12:51:49Z</time>
</trkpt>
<trkpt lat="51.38926" lon="7.81669">
<ele>373</ele>
<time>2012-01-30T12:51:50Z</time>
</trkpt>
<trkpt lat="51.38924" lon="7.81675">
<ele>373</ele>
<time>2012-01-30T12:51:56Z</time>
</trkpt>
<trkpt lat="51.38924" lon="7.81675">
<ele>373</ele>
<time>2012-01-30T12:51:56Z</time>
</trkpt>
<trkpt lat="51.38924" lon="7.81675">
<ele>373</ele>
<time>2012-01-30T12:51:57Z</time>
</trkpt>
<trkpt lat="51.38921" lon="7.81684">
<ele>373</ele>
<time>2012-01-30T12:52:04Z</time>
</trkpt>
<trkpt lat="51.38921" lon="7.81684">
<ele>373</ele>
<time>2012-01-30T12:52:04Z</time>
</trkpt>
<trkpt lat="51.38921" lon="7.81684">
<ele>373</ele>
<time>2012-01-30T12:52:05Z</time>
</trkpt>
<trkpt lat="51.38919" lon="7.8169">
<ele>373</ele>
<time>2012-01-30T12:52:09Z</time>
</trkpt>
<trkpt lat="51.38918" lon="7.81699">
<ele>373</ele>
<time>2012-01-30T12:52:13Z</time>
</trkpt>
<trkpt lat="51.38916" lon="7.81707">
<ele>373</ele>
<time>2012-01-30T12:52:16Z</time>
</trkpt>
<trkpt lat="51.38914" lon="7.81716">
<ele>373</ele>
<time>2012-01-30T12:52:21Z</time>
</trkpt>
<trkpt lat="51.38912" lon="7.81722">
<ele>373</ele>
<time>2012-01-30T12:52:24Z</time>
</trkpt>
<trkpt lat="51.3891" lon="7.81729">
<ele>373</ele>
<time>2012-01-30T12:52:27Z</time>
</trkpt>
<trkpt lat="51.38905" lon="7.81735">
<ele>373</ele>
<time>2012-01-30T12:52:31Z</time>
</trkpt>
<trkpt lat="51.38903" lon="7.81742">
<ele>373</ele>
<time>2012-01-30T12:52:34Z</time>
</trkpt>
<trkpt lat="51.389" lon="7.81748">
<ele>373</ele>
<time>2012-01-30T12:52:37Z</time>
</trkpt>
<trkpt lat="51.38896" lon="7.81752">
<ele>373</ele>
<time>2012-01-30T12:52:41Z</time>
</trkpt>
<trkpt lat="51.38891" lon="7.81759">
<ele>373</ele>
<time>2012-01-30T12:52:45Z</time>
</trkpt>
<trkpt lat="51.38888" lon="7.81765">
<ele>372</ele>
<time>2012-01-30T12:52:49Z</time>
</trkpt>
<trkpt lat="51.38888" lon="7.81765">
<ele>372</ele>
<time>2012-01-30T12:52:49Z</time>
</trkpt>
<trkpt lat="51.38888" lon="7.81765">
<ele>372</ele>
<time>2012-01-30T12:52:50Z</time>
</trkpt>
<trkpt lat="51.38885" lon="7.81772">
<ele>372</ele>
<time>2012-01-30T12:52:54Z</time>
</trkpt>
<trkpt lat="51.38882" lon="7.81778">
<ele>371</ele>
<time>2012-01-30T12:52:57Z</time>
</trkpt>
<trkpt lat="51.38878" lon="7.81784">
<ele>371</ele>
<time>2012-01-30T12:53:01Z</time>
</trkpt>
<trkpt lat="51.38875" lon="7.81791">
<ele>370</ele>
<time>2012-01-30T12:53:04Z</time>
</trkpt>
<trkpt lat="51.38871" lon="7.81797">
<ele>370</ele>
<time>2012-01-30T12:53:09Z</time>
</trkpt>
<trkpt lat="51.38867" lon="7.81802">
<ele>369</ele>
<time>2012-01-30T12:53:13Z</time>
</trkpt>
<trkpt lat="51.38861" lon="7.81806">
<ele>369</ele>
<time>2012-01-30T12:53:17Z</time>
</trkpt>
<trkpt lat="51.38855" lon="7.81806">
<ele>368</ele>
<time>2012-01-30T12:53:22Z</time>
</trkpt>
<trkpt lat="51.38851" lon="7.81802">
<ele>368</ele>
<time>2012-01-30T12:53:26Z</time>
</trkpt>
<trkpt lat="51.38846" lon="7.81797">
<ele>367</ele>
<time>2012-01-30T12:53:30Z</time>
</trkpt>
<trkpt lat="51.38843" lon="7.81791">
<ele>367</ele>
<time>2012-01-30T12:53:34Z</time>
</trkpt>
<trkpt lat="51.38839" lon="7.81784">
<ele>367</ele>
<time>2012-01-30T12:53:38Z</time>
</trkpt>
<trkpt lat="51.38836" lon="7.81778">
<ele>367</ele>
<time>2012-01-30T12:53:42Z</time>
</trkpt>
<trkpt lat="51.38832" lon="7.81772">
<ele>366</ele>
<time>2012-01-30T12:53:46Z</time>
</trkpt>
<trkpt lat="51.3883" lon="7.81765">
<ele>366</ele>
<time>2012-01-30T12:53:49Z</time>
</trkpt>
<trkpt lat="51.38827" lon="7.81759">
<ele>366</ele>
<time>2012-01-30T12:53:53Z</time>
</trkpt>
<trkpt lat="51.38824" lon="7.81752">
<ele>366</ele>
<time>2012-01-30T12:53:57Z</time>
</trkpt>
<trkpt lat="51.38821" lon="7.81746">
<ele>366</ele>
<time>2012-01-30T12:54:02Z</time>
</trkpt>
<trkpt lat="51.38817" lon="7.81739">
<ele>366</ele>
<time>2012-01-30T12:54:07Z</time>
</trkpt>
<trkpt lat="51.38817" lon="7.81739">
<ele>366</ele>
<time>2012-01-30T12:54:07Z</time>
</trkpt>
<trkpt lat="51.38817" lon="7.81739">
<ele>366</ele>
<time>2012-01-30T12:54:08Z</time>
</trkpt>
<trkpt lat="51.38816" lon="7.81731">
<ele>366</ele>
<time>2012-01-30T12:54:21Z</time>
</trkpt>
<trkpt lat="51.38813" lon="7.81724">
<ele>366</ele>
<time>2012-01-30T12:54:28Z</time>
</trkpt>
<trkpt lat="51.38812" lon="7.81716">
<ele>365</ele>
<time>2012-01-30T12:54:34Z</time>
</trkpt>
<trkpt lat="51.38812" lon="7.81716">
<ele>365</ele>
<time>2012-01-30T12:54:34Z</time>
</trkpt>
<trkpt lat="51.38812" lon="7.81716">
<ele>365</ele>
<time>2012-01-30T12:54:35Z</time>
</trkpt>
<trkpt lat="51.38811" lon="7.81707">
<ele>365</ele>
<time>2012-01-30T12:54:40Z</time>
</trkpt>
<trkpt lat="51.38811" lon="7.81707">
<ele>365</ele>
<time>2012-01-30T12:54:40Z</time>
</trkpt>
<trkpt lat="51.38811" lon="7.81707">
<ele>365</ele>
<time>2012-01-30T12:54:41Z</time>
</trkpt>
<trkpt lat="51.38811" lon="7.81699">
<ele>365</ele>
<time>2012-01-30T12:54:46Z</time>
</trkpt>
<trkpt lat="51.3881" lon="7.8169">
<ele>365</ele>
<time>2012-01-30T12:54:51Z</time>
</trkpt>
<trkpt lat="51.38808" lon="7.81684">
<ele>365</ele>
<time>2012-01-30T12:54:55Z</time>
</trkpt>
<trkpt lat="51.38804" lon="7.81677">
<ele>365</ele>
<time>2012-01-30T12:55:00Z</time>
</trkpt>
<trkpt lat="51.38802" lon="7.81671">
<ele>364</ele>
<time>2012-01-30T12:55:04Z</time>
</trkpt>
<trkpt lat="51.388" lon="7.81664">
<ele>364</ele>
<time>2012-01-30T12:55:07Z</time>
</trkpt>
<trkpt lat="51.38797" lon="7.81658">
<ele>364</ele>
<time>2012-01-30T12:55:11Z</time>
</trkpt>
<trkpt lat="51.38795" lon="7.81649">
<ele>364</ele>
<time>2012-01-30T12:55:15Z</time>
</trkpt>
<trkpt lat="51.38793" lon="7.81641">
<ele>364</ele>
<time>2012-01-30T12:55:19Z</time>
</trkpt>
<trkpt lat="51.38792" lon="7.81632">
<ele>364</ele>
<time>2012-01-30T12:55:23Z</time>
</trkpt>
<trkpt lat="51.3879" lon="7.81621">
<ele>364</ele>
<time>2012-01-30T12:55:27Z</time>
</trkpt>
<trkpt lat="51.38787" lon="7.81613">
<ele>363</ele>
<time>2012-01-30T12:55:31Z</time>
</trkpt>
<trkpt lat="51.38786" lon="7.81604">
<ele>363</ele>
<time>2012-01-30T12:55:35Z</time>
</trkpt>
<trkpt lat="51.38784" lon="7.81598">
<ele>363</ele>
<time>2012-01-30T12:55:37Z</time>
</trkpt>
<trkpt lat="51.38782" lon="7.81589">
<ele>362</ele>
<time>2012-01-30T12:55:41Z</time>
</trkpt>
<trkpt lat="51.3878" lon="7.81583">
<ele>362</ele>
<time>2012-01-30T12:55:44Z</time>
</trkpt>
<trkpt lat="51.38779" lon="7.81574">
<ele>362</ele>
<time>2012-01-30T12:55:49Z</time>
</trkpt>
<trkpt lat="51.38778" lon="7.81566">
<ele>362</ele>
<time>2012-01-30T12:55:54Z</time>
</trkpt>
<trkpt lat="51.38776" lon="7.81557">
<ele>361</ele>
<time>2012-01-30T12:55:58Z</time>
</trkpt>
<trkpt lat="51.38773" lon="7.81548">
<ele>361</ele>
<time>2012-01-30T12:56:02Z</time>
</trkpt>
<trkpt lat="51.38771" lon="7.81538">
<ele>361</ele>
<time>2012-01-30T12:56:06Z</time>
</trkpt>
<trkpt lat="51.38769" lon="7.81529">
<ele>361</ele>
<time>2012-01-30T12:56:10Z</time>
</trkpt>
<trkpt lat="51.38767" lon="7.81521">
<ele>361</ele>
<time>2012-01-30T12:56:13Z</time>
</trkpt>
<trkpt lat="51.38766" lon="7.81512">
<ele>361</ele>
<time>2012-01-30T12:56:17Z</time>
</trkpt>
<trkpt lat="51.38765" lon="7.81503">
<ele>361</ele>
<time>2012-01-30T12:56:21Z</time>
</trkpt>
<trkpt lat="51.38764" lon="7.81495">
<ele>361</ele>
<time>2012-01-30T12:56:25Z</time>
</trkpt>
<trkpt lat="51.38764" lon="7.81486">
<ele>361</ele>
<time>2012-01-30T12:56:29Z</time>
</trkpt>
<trkpt lat="51.38764" lon="7.81478">
<ele>360</ele>
<time>2012-01-30T12:56:34Z</time>
</trkpt>
<trkpt lat="51.38763" lon="7.81469">
<ele>360</ele>
<time>2012-01-30T12:56:38Z</time>
</trkpt>
<trkpt lat="51.3876" lon="7.8146">
<ele>360</ele>
<time>2012-01-30T12:56:42Z</time>
</trkpt>
<trkpt lat="51.38759" lon="7.81452">
<ele>360</ele>
<time>2012-01-30T12:56:46Z</time>
</trkpt>
<trkpt lat="51.38758" lon="7.81443">
<ele>360</ele>
<time>2012-01-30T12:56:50Z</time>
</trkpt>
<trkpt lat="51.38757" lon="7.81435">
<ele>360</ele>
<time>2012-01-30T12:56:54Z</time>
</trkpt>
<trkpt lat="51.38755" lon="7.81428">
<ele>360</ele>
<time>2012-01-30T12:56:57Z</time>
</trkpt>
<trkpt lat="51.38753" lon="7.81422">
<ele>360</ele>
<time>2012-01-30T12:57:00Z</time>
</trkpt>
<trkpt lat="51.38753" lon="7.81422">
<ele>360</ele>
<time>2012-01-30T12:57:00Z</time>
</trkpt>
<trkpt lat="51.38753" lon="7.81422">
<ele>359</ele>
<time>2012-01-30T12:57:01Z</time>
</trkpt>
<trkpt lat="51.38751" lon="7.81413">
<ele>359</ele>
<time>2012-01-30T12:57:05Z</time>
</trkpt>
<trkpt lat="51.38749" lon="7.81407">
<ele>359</ele>
<time>2012-01-30T12:57:08Z</time>
</trkpt>
<trkpt lat="51.38747" lon="7.81398">
<ele>359</ele>
<time>2012-01-30T12:57:12Z</time>
</trkpt>
<trkpt lat="51.38746" lon="7.8139">
<ele>359</ele>
<time>2012-01-30T12:57:15Z</time>
</trkpt>
<trkpt lat="51.38746" lon="7.8139">
<ele>359</ele>
<time>2012-01-30T12:57:15Z</time>
</trkpt>
<trkpt lat="51.38746" lon="7.8139">
<ele>358</ele>
<time>2012-01-30T12:57:16Z</time>
</trkpt>
<trkpt lat="51.38744" lon="7.81381">
<ele>358</ele>
<time>2012-01-30T12:57:20Z</time>
</trkpt>
<trkpt lat="51.38743" lon="7.81372">
<ele>358</ele>
<time>2012-01-30T12:57:24Z</time>
</trkpt>
<trkpt lat="51.38743" lon="7.81364">
<ele>358</ele>
<time>2012-01-30T12:57:28Z</time>
</trkpt>
<trkpt lat="51.38743" lon="7.81355">
<ele>358</ele>
<time>2012-01-30T12:57:33Z</time>
</trkpt>
<trkpt lat="51.38744" lon="7.81347">
<ele>357</ele>
<time>2012-01-30T12:57:38Z</time>
</trkpt>
<trkpt lat="51.38746" lon="7.81338">
<ele>357</ele>
<time>2012-01-30T12:57:43Z</time>
</trkpt>
<trkpt lat="51.38747" lon="7.8133">
<ele>356</ele>
<time>2012-01-30T12:57:48Z</time>
</trkpt>
<trkpt lat="51.38747" lon="7.81321">
<ele>356</ele>
<time>2012-01-30T12:57:53Z</time>
</trkpt>
<trkpt lat="51.38747" lon="7.81312">
<ele>356</ele>
<time>2012-01-30T12:57:57Z</time>
</trkpt>
<trkpt lat="51.38747" lon="7.81304">
<ele>356</ele>
<time>2012-01-30T12:58:01Z</time>
</trkpt>
<trkpt lat="51.38746" lon="7.81295">
<ele>355</ele>
<time>2012-01-30T12:58:05Z</time>
</trkpt>
<trkpt lat="51.38744" lon="7.81287">
<ele>355</ele>
<time>2012-01-30T12:58:09Z</time>
</trkpt>
<trkpt lat="51.38742" lon="7.81278">
<ele>355</ele>
<time>2012-01-30T12:58:15Z</time>
</trkpt>
<trkpt lat="51.3874" lon="7.81272">
<ele>354</ele>
<time>2012-01-30T12:58:18Z</time>
</trkpt>
<trkpt lat="51.38738" lon="7.81263">
<ele>354</ele>
<time>2012-01-30T12:58:23Z</time>
</trkpt>
<trkpt lat="51.38736" lon="7.81257">
<ele>354</ele>
<time>2012-01-30T12:58:28Z</time>
</trkpt>
<trkpt lat="51.38733" lon="7.81248">
<ele>353</ele>
<time>2012-01-30T12:58:33Z</time>
</trkpt>
<trkpt lat="51.38733" lon="7.81248">
<ele>353</ele>
<time>2012-01-30T12:58:33Z</time>
</trkpt>
<trkpt lat="51.38733" lon="7.81248">
<ele>353</ele>
<time>2012-01-30T12:58:34Z</time>
</trkpt>
<trkpt lat="51.3873" lon="7.8124">
<ele>353</ele>
<time>2012-01-30T12:58:38Z</time>
</trkpt>
<trkpt lat="51.38727" lon="7.81233">
<ele>353</ele>
<time>2012-01-30T12:58:42Z</time>
</trkpt>
<trkpt lat="51.38725" lon="7.81224">
<ele>353</ele>
<time>2012-01-30T12:58:46Z</time>
</trkpt>
<trkpt lat="51.38722" lon="7.81218">
<ele>353</ele>
<time>2012-01-30T12:58:49Z</time>
</trkpt>
<trkpt lat="51.3872" lon="7.81212">
<ele>352</ele>
<time>2012-01-30T12:58:52Z</time>
</trkpt>
<trkpt lat="51.38716" lon="7.81205">
<ele>352</ele>
<time>2012-01-30T12:58:57Z</time>
</trkpt>
<trkpt lat="51.38713" lon="7.81199">
<ele>352</ele>
<time>2012-01-30T12:59:01Z</time>
</trkpt>
<trkpt lat="51.38711" lon="7.81192">
<ele>351</ele>
<time>2012-01-30T12:59:05Z</time>
</trkpt>
<trkpt lat="51.38708" lon="7.81186">
<ele>351</ele>
<time>2012-01-30T12:59:09Z</time>
</trkpt>
<trkpt lat="51.38708" lon="7.81186">
<ele>351</ele>
<time>2012-01-30T12:59:09Z</time>
</trkpt>
<trkpt lat="51.38708" lon="7.81186">
<ele>351</ele>
<time>2012-01-30T12:59:10Z</time>
</trkpt>
<trkpt lat="51.38705" lon="7.81179">
<ele>350</ele>
<time>2012-01-30T12:59:14Z</time>
</trkpt>
<trkpt lat="51.38703" lon="7.81173">
<ele>350</ele>
<time>2012-01-30T12:59:18Z</time>
</trkpt>
<trkpt lat="51.387" lon="7.81164">
<ele>350</ele>
<time>2012-01-30T12:59:23Z</time>
</trkpt>
<trkpt lat="51.38698" lon="7.81158">
<ele>350</ele>
<time>2012-01-30T12:59:27Z</time>
</trkpt>
<trkpt lat="51.38696" lon="7.81152">
<ele>349</ele>
<time>2012-01-30T12:59:31Z</time>
</trkpt>
<trkpt lat="51.38695" lon="7.81143">
<ele>349</ele>
<time>2012-01-30T12:59:35Z</time>
</trkpt>
<trkpt lat="51.38693" lon="7.81134">
<ele>349</ele>
<time>2012-01-30T12:59:39Z</time>
</trkpt>
<trkpt lat="51.38691" lon="7.81126">
<ele>348</ele>
<time>2012-01-30T12:59:43Z</time>
</trkpt>
<trkpt lat="51.3869" lon="7.81117">
<ele>348</ele>
<time>2012-01-30T12:59:48Z</time>
</trkpt>
<trkpt lat="51.38688" lon="7.81111">
<ele>347</ele>
<time>2012-01-30T12:59:51Z</time>
</trkpt>
<trkpt lat="51.38688" lon="7.81111">
<ele>347</ele>
<time>2012-01-30T12:59:51Z</time>
</trkpt>
<trkpt lat="51.38688" lon="7.81111">
<ele>347</ele>
<time>2012-01-30T12:59:52Z</time>
</trkpt>
<trkpt lat="51.38684" lon="7.81104">
<ele>347</ele>
<time>2012-01-30T12:59:55Z</time>
</trkpt>
<trkpt lat="51.38682" lon="7.81098">
<ele>346</ele>
<time>2012-01-30T12:59:58Z</time>
</trkpt>
<trkpt lat="51.38682" lon="7.81098">
<ele>346</ele>
<time>2012-01-30T12:59:58Z</time>
</trkpt>
<trkpt lat="51.38682" lon="7.81098">
<ele>346</ele>
<time>2012-01-30T12:59:59Z</time>
</trkpt>
<trkpt lat="51.38679" lon="7.81091">
<ele>346</ele>
<time>2012-01-30T13:00:02Z</time>
</trkpt>
<trkpt lat="51.38677" lon="7.81085">
<ele>345</ele>
<time>2012-01-30T13:00:05Z</time>
</trkpt>
<trkpt lat="51.38675" lon="7.81078">
<ele>345</ele>
<time>2012-01-30T13:00:08Z</time>
</trkpt>
<trkpt lat="51.38672" lon="7.81072">
<ele>344</ele>
<time>2012-01-30T13:00:11Z</time>
</trkpt>
<trkpt lat="51.38669" lon="7.81066">
<ele>343</ele>
<time>2012-01-30T13:00:15Z</time>
</trkpt>
<trkpt lat="51.38667" lon="7.81059">
<ele>343</ele>
<time>2012-01-30T13:00:18Z</time>
</trkpt>
<trkpt lat="51.38665" lon="7.81053">
<ele>342</ele>
<time>2012-01-30T13:00:21Z</time>
</trkpt>
<trkpt lat="51.38663" lon="7.81046">
<ele>342</ele>
<time>2012-01-30T13:00:24Z</time>
</trkpt>
<trkpt lat="51.38661" lon="7.81038">
<ele>341</ele>
<time>2012-01-30T13:00:28Z</time>
</trkpt>
<trkpt lat="51.38661" lon="7.81038">
<ele>341</ele>
<time>2012-01-30T13:00:28Z</time>
</trkpt>
<trkpt lat="51.38661" lon="7.81038">
<ele>341</ele>
<time>2012-01-30T13:00:29Z</time>
</trkpt>
<trkpt lat="51.38659" lon="7.81029">
<ele>341</ele>
<time>2012-01-30T13:00:33Z</time>
</trkpt>
<trkpt lat="51.38656" lon="7.81023">
<ele>340</ele>
<time>2012-01-30T13:00:37Z</time>
</trkpt>
<trkpt lat="51.38655" lon="7.81014">
<ele>339</ele>
<time>2012-01-30T13:00:41Z</time>
</trkpt>
<trkpt lat="51.38653" lon="7.81008">
<ele>339</ele>
<time>2012-01-30T13:00:44Z</time>
</trkpt>
<trkpt lat="51.38651" lon="7.80999">
<ele>339</ele>
<time>2012-01-30T13:00:48Z</time>
</trkpt>
<trkpt lat="51.3865" lon="7.80991">
<ele>338</ele>
<time>2012-01-30T13:00:53Z</time>
</trkpt>
<trkpt lat="51.38649" lon="7.80982">
<ele>337</ele>
<time>2012-01-30T13:00:57Z</time>
</trkpt>
<trkpt lat="51.38649" lon="7.80973">
<ele>337</ele>
<time>2012-01-30T13:01:01Z</time>
</trkpt>
<trkpt lat="51.38651" lon="7.80965">
<ele>337</ele>
<time>2012-01-30T13:01:05Z</time>
</trkpt>
<trkpt lat="51.38653" lon="7.80958">
<ele>336</ele>
<time>2012-01-30T13:01:08Z</time>
</trkpt>
<trkpt lat="51.38655" lon="7.80952">
<ele>336</ele>
<time>2012-01-30T13:01:11Z</time>
</trkpt>
<trkpt lat="51.38658" lon="7.80943">
<ele>336</ele>
<time>2012-01-30T13:01:15Z</time>
</trkpt>
<trkpt lat="51.38658" lon="7.80943">
<ele>336</ele>
<time>2012-01-30T13:01:15Z</time>
</trkpt>
<trkpt lat="51.38658" lon="7.80943">
<ele>336</ele>
<time>2012-01-30T13:01:16Z</time>
</trkpt>
<trkpt lat="51.3866" lon="7.80935">
<ele>336</ele>
<time>2012-01-30T13:01:20Z</time>
</trkpt>
<trkpt lat="51.38662" lon="7.80928">
<ele>335</ele>
<time>2012-01-30T13:01:24Z</time>
</trkpt>
<trkpt lat="51.38664" lon="7.80922">
<ele>335</ele>
<time>2012-01-30T13:01:27Z</time>
</trkpt>
<trkpt lat="51.38666" lon="7.80913">
<ele>335</ele>
<time>2012-01-30T13:01:31Z</time>
</trkpt>
<trkpt lat="51.38668" lon="7.80907">
<ele>335</ele>
<time>2012-01-30T13:01:34Z</time>
</trkpt>
<trkpt lat="51.3867" lon="7.809">
<ele>335</ele>
<time>2012-01-30T13:01:36Z</time>
</trkpt>
<trkpt lat="51.38674" lon="7.80894">
<ele>335</ele>
<time>2012-01-30T13:01:40Z</time>
</trkpt>
<trkpt lat="51.38677" lon="7.80888">
<ele>334</ele>
<time>2012-01-30T13:01:44Z</time>
</trkpt>
<trkpt lat="51.38679" lon="7.80881">
<ele>334</ele>
<time>2012-01-30T13:01:48Z</time>
</trkpt>
<trkpt lat="51.38681" lon="7.80875">
<ele>334</ele>
<time>2012-01-30T13:01:52Z</time>
</trkpt>
<trkpt lat="51.38684" lon="7.80868">
<ele>334</ele>
<time>2012-01-30T13:01:56Z</time>
</trkpt>
<trkpt lat="51.38688" lon="7.80862">
<ele>333</ele>
<time>2012-01-30T13:02:00Z</time>
</trkpt>
<trkpt lat="51.38692" lon="7.80855">
<ele>333</ele>
<time>2012-01-30T13:02:04Z</time>
</trkpt>
<trkpt lat="51.38694" lon="7.80849">
<ele>333</ele>
<time>2012-01-30T13:02:07Z</time>
</trkpt>
<trkpt lat="51.38696" lon="7.80842">
<ele>333</ele>
<time>2012-01-30T13:02:10Z</time>
</trkpt>
<trkpt lat="51.38698" lon="7.80836">
<ele>333</ele>
<time>2012-01-30T13:02:13Z</time>
</trkpt>
<trkpt lat="51.38702" lon="7.8083">
<ele>333</ele>
<time>2012-01-30T13:02:17Z</time>
</trkpt>
<trkpt lat="51.38705" lon="7.80823">
<ele>333</ele>
<time>2012-01-30T13:02:21Z</time>
</trkpt>
<trkpt lat="51.38707" lon="7.80817">
<ele>333</ele>
<time>2012-01-30T13:02:25Z</time>
</trkpt>
<trkpt lat="51.38709" lon="7.8081">
<ele>333</ele>
<time>2012-01-30T13:02:29Z</time>
</trkpt>
<trkpt lat="51.38713" lon="7.80806">
<ele>333</ele>
<time>2012-01-30T13:02:35Z</time>
</trkpt>
<trkpt lat="51.38718" lon="7.808">
<ele>332</ele>
<time>2012-01-30T13:02:41Z</time>
</trkpt>
<trkpt lat="51.38718" lon="7.808">
<ele>332</ele>
<time>2012-01-30T13:02:41Z</time>
</trkpt>
<trkpt lat="51.38718" lon="7.808">
<ele>332</ele>
<time>2012-01-30T13:02:42Z</time>
</trkpt>
<trkpt lat="51.38721" lon="7.80793">
<ele>332</ele>
<time>2012-01-30T13:02:46Z</time>
</trkpt>
<trkpt lat="51.38725" lon="7.80787">
<ele>332</ele>
<time>2012-01-30T13:02:50Z</time>
</trkpt>
<trkpt lat="51.38728" lon="7.8078">
<ele>332</ele>
<time>2012-01-30T13:02:54Z</time>
</trkpt>
<trkpt lat="51.38732" lon="7.80774">
<ele>332</ele>
<time>2012-01-30T13:02:58Z</time>
</trkpt>
<trkpt lat="51.38735" lon="7.80767">
<ele>332</ele>
<time>2012-01-30T13:03:02Z</time>
</trkpt>
<trkpt lat="51.38738" lon="7.80761">
<ele>333</ele>
<time>2012-01-30T13:03:06Z</time>
</trkpt>
<trkpt lat="51.38738" lon="7.80761">
<ele>333</ele>
<time>2012-01-30T13:03:06Z</time>
</trkpt>
<trkpt lat="51.38738" lon="7.80761">
<ele>333</ele>
<time>2012-01-30T13:03:07Z</time>
</trkpt>
<trkpt lat="51.38741" lon="7.80754">
<ele>333</ele>
<time>2012-01-30T13:03:11Z</time>
</trkpt>
<trkpt lat="51.38743" lon="7.80748">
<ele>333</ele>
<time>2012-01-30T13:03:15Z</time>
</trkpt>
<trkpt lat="51.38747" lon="7.80742">
<ele>333</ele>
<time>2012-01-30T13:03:19Z</time>
</trkpt>
<trkpt lat="51.3875" lon="7.80735">
<ele>333</ele>
<time>2012-01-30T13:03:23Z</time>
</trkpt>
<trkpt lat="51.38754" lon="7.80731">
<ele>333</ele>
<time>2012-01-30T13:03:27Z</time>
</trkpt>
<trkpt lat="51.38757" lon="7.80724">
<ele>333</ele>
<time>2012-01-30T13:03:31Z</time>
</trkpt>
<trkpt lat="51.38762" lon="7.80718">
<ele>334</ele>
<time>2012-01-30T13:03:36Z</time>
</trkpt>
<trkpt lat="51.38765" lon="7.80712">
<ele>334</ele>
<time>2012-01-30T13:03:40Z</time>
</trkpt>
<trkpt lat="51.38768" lon="7.80705">
<ele>334</ele>
<time>2012-01-30T13:03:44Z</time>
</trkpt>
<trkpt lat="51.38771" lon="7.80699">
<ele>334</ele>
<time>2012-01-30T13:03:48Z</time>
</trkpt>
<trkpt lat="51.38774" lon="7.80692">
<ele>334</ele>
<time>2012-01-30T13:03:52Z</time>
</trkpt>
<trkpt lat="51.38778" lon="7.80686">
<ele>335</ele>
<time>2012-01-30T13:03:56Z</time>
</trkpt>
<trkpt lat="51.38781" lon="7.80679">
<ele>335</ele>
<time>2012-01-30T13:04:01Z</time>
</trkpt>
<trkpt lat="51.38785" lon="7.80675">
<ele>335</ele>
<time>2012-01-30T13:04:06Z</time>
</trkpt>
<trkpt lat="51.38788" lon="7.80669">
<ele>335</ele>
<time>2012-01-30T13:04:10Z</time>
</trkpt>
<trkpt lat="51.38793" lon="7.80662">
<ele>335</ele>
<time>2012-01-30T13:04:15Z</time>
</trkpt>
<trkpt lat="51.38793" lon="7.80662">
<ele>335</ele>
<time>2012-01-30T13:04:15Z</time>
</trkpt>
<trkpt lat="51.38793" lon="7.80662">
<ele>335</ele>
<time>2012-01-30T13:04:16Z</time>
</trkpt>
<trkpt lat="51.38796" lon="7.80656">
<ele>335</ele>
<time>2012-01-30T13:04:20Z</time>
</trkpt>
<trkpt lat="51.38799" lon="7.80649">
<ele>335</ele>
<time>2012-01-30T13:04:24Z</time>
</trkpt>
<trkpt lat="51.38799" lon="7.80649">
<ele>335</ele>
<time>2012-01-30T13:04:24Z</time>
</trkpt>
<trkpt lat="51.38799" lon="7.80649">
<ele>335</ele>
<time>2012-01-30T13:04:25Z</time>
</trkpt>
<trkpt lat="51.38802" lon="7.80643">
<ele>335</ele>
<time>2012-01-30T13:04:29Z</time>
</trkpt>
<trkpt lat="51.38807" lon="7.80636">
<ele>336</ele>
<time>2012-01-30T13:04:33Z</time>
</trkpt>
<trkpt lat="51.38807" lon="7.80636">
<ele>336</ele>
<time>2012-01-30T13:04:33Z</time>
</trkpt>
<trkpt lat="51.38807" lon="7.80636">
<ele>336</ele>
<time>2012-01-30T13:04:34Z</time>
</trkpt>
<trkpt lat="51.3881" lon="7.8063">
<ele>336</ele>
<time>2012-01-30T13:04:37Z</time>
</trkpt>
<trkpt lat="51.38813" lon="7.80624">
<ele>336</ele>
<time>2012-01-30T13:04:41Z</time>
</trkpt>
<trkpt lat="51.38816" lon="7.80617">
<ele>336</ele>
<time>2012-01-30T13:04:45Z</time>
</trkpt>
<trkpt lat="51.3882" lon="7.80611">
<ele>337</ele>
<time>2012-01-30T13:04:49Z</time>
</trkpt>
<trkpt lat="51.3882" lon="7.80611">
<ele>337</ele>
<time>2012-01-30T13:04:49Z</time>
</trkpt>
<trkpt lat="51.3882" lon="7.80611">
<ele>337</ele>
<time>2012-01-30T13:04:50Z</time>
</trkpt>
<trkpt lat="51.38823" lon="7.80604">
<ele>337</ele>
<time>2012-01-30T13:04:54Z</time>
</trkpt>
<trkpt lat="51.38827" lon="7.80598">
<ele>337</ele>
<time>2012-01-30T13:04:58Z</time>
</trkpt>
<trkpt lat="51.38827" lon="7.80598">
<ele>337</ele>
<time>2012-01-30T13:04:58Z</time>
</trkpt>
<trkpt lat="51.38827" lon="7.80598">
<ele>337</ele>
<time>2012-01-30T13:04:59Z</time>
</trkpt>
<trkpt lat="51.38831" lon="7.80591">
<ele>337</ele>
<time>2012-01-30T13:05:03Z</time>
</trkpt>
<trkpt lat="51.38834" lon="7.80585">
<ele>338</ele>
<time>2012-01-30T13:05:07Z</time>
</trkpt>
<trkpt lat="51.38838" lon="7.80579">
<ele>338</ele>
<time>2012-01-30T13:05:11Z</time>
</trkpt>
<trkpt lat="51.38841" lon="7.80572">
<ele>338</ele>
<time>2012-01-30T13:05:15Z</time>
</trkpt>
<trkpt lat="51.38844" lon="7.80566">
<ele>339</ele>
<time>2012-01-30T13:05:19Z</time>
</trkpt>
<trkpt lat="51.38848" lon="7.80559">
<ele>339</ele>
<time>2012-01-30T13:05:24Z</time>
</trkpt>
<trkpt lat="51.38852" lon="7.80553">
<ele>340</ele>
<time>2012-01-30T13:05:28Z</time>
</trkpt>
<trkpt lat="51.38856" lon="7.80546">
<ele>340</ele>
<time>2012-01-30T13:05:33Z</time>
</trkpt>
<trkpt lat="51.3886" lon="7.80542">
<ele>341</ele>
<time>2012-01-30T13:05:37Z</time>
</trkpt>
<trkpt lat="51.38865" lon="7.80538">
<ele>341</ele>
<time>2012-01-30T13:05:41Z</time>
</trkpt>
<trkpt lat="51.38869" lon="7.80534">
<ele>341</ele>
<time>2012-01-30T13:05:45Z</time>
</trkpt>
<trkpt lat="51.38864" lon="7.80536">
<ele>342</ele>
<time>2012-01-30T13:06:09Z</time>
</trkpt>
<trkpt lat="51.38864" lon="7.80536">
<ele>342</ele>
<time>2012-01-30T13:06:09Z</time>
</trkpt>
<trkpt lat="51.38864" lon="7.80536">
<ele>342</ele>
<time>2012-01-30T13:06:10Z</time>
</trkpt>
<trkpt lat="51.38868" lon="7.80534">
<ele>343</ele>
<time>2012-01-30T13:06:30Z</time>
</trkpt>
<trkpt lat="51.38873" lon="7.80531">
<ele>343</ele>
<time>2012-01-30T13:06:33Z</time>
</trkpt>
<trkpt lat="51.3888" lon="7.80529">
<ele>343</ele>
<time>2012-01-30T13:06:37Z</time>
</trkpt>
<trkpt lat="51.38884" lon="7.80527">
<ele>343</ele>
<time>2012-01-30T13:06:40Z</time>
</trkpt>
<trkpt lat="51.38888" lon="7.80525">
<ele>344</ele>
<time>2012-01-30T13:06:44Z</time>
</trkpt>
<trkpt lat="51.38892" lon="7.80521">
<ele>344</ele>
<time>2012-01-30T13:06:48Z</time>
</trkpt>
<trkpt lat="51.38897" lon="7.80516">
<ele>344</ele>
<time>2012-01-30T13:06:52Z</time>
</trkpt>
<trkpt lat="51.38901" lon="7.80512">
<ele>344</ele>
<time>2012-01-30T13:06:56Z</time>
</trkpt>
<trkpt lat="51.38904" lon="7.80506">
<ele>344</ele>
<time>2012-01-30T13:07:00Z</time>
</trkpt>
<trkpt lat="51.38909" lon="7.80501">
<ele>345</ele>
<time>2012-01-30T13:07:04Z</time>
</trkpt>
<trkpt lat="51.38913" lon="7.80497">
<ele>345</ele>
<time>2012-01-30T13:07:08Z</time>
</trkpt>
<trkpt lat="51.38917" lon="7.80491">
<ele>345</ele>
<time>2012-01-30T13:07:13Z</time>
</trkpt>
<trkpt lat="51.38921" lon="7.80486">
<ele>345</ele>
<time>2012-01-30T13:07:17Z</time>
</trkpt>
<trkpt lat="51.38926" lon="7.80482">
<ele>346</ele>
<time>2012-01-30T13:07:21Z</time>
</trkpt>
<trkpt lat="51.3893" lon="7.80478">
<ele>346</ele>
<time>2012-01-30T13:07:24Z</time>
</trkpt>
<trkpt lat="51.38934" lon="7.80476">
<ele>346</ele>
<time>2012-01-30T13:07:27Z</time>
</trkpt>
<trkpt lat="51.38939" lon="7.80471">
<ele>346</ele>
<time>2012-01-30T13:07:31Z</time>
</trkpt>
<trkpt lat="51.38943" lon="7.80465">
<ele>346</ele>
<time>2012-01-30T13:07:35Z</time>
</trkpt>
<trkpt lat="51.38947" lon="7.8046">
<ele>347</ele>
<time>2012-01-30T13:07:39Z</time>
</trkpt>
<trkpt lat="51.3895" lon="7.80454">
<ele>347</ele>
<time>2012-01-30T13:07:43Z</time>
</trkpt>
<trkpt lat="51.3895" lon="7.80454">
<ele>347</ele>
<time>2012-01-30T13:07:43Z</time>
</trkpt>
<trkpt lat="51.3895" lon="7.80454">
<ele>347</ele>
<time>2012-01-30T13:07:44Z</time>
</trkpt>
<trkpt lat="51.38955" lon="7.80448">
<ele>347</ele>
<time>2012-01-30T13:07:48Z</time>
</trkpt>
<trkpt lat="51.38955" lon="7.80448">
<ele>347</ele>
<time>2012-01-30T13:07:48Z</time>
</trkpt>
<trkpt lat="51.38955" lon="7.80448">
<ele>347</ele>
<time>2012-01-30T13:07:49Z</time>
</trkpt>
<trkpt lat="51.38958" lon="7.80441">
<ele>347</ele>
<time>2012-01-30T13:07:53Z</time>
</trkpt>
<trkpt lat="51.3896" lon="7.80435">
<ele>347</ele>
<time>2012-01-30T13:07:57Z</time>
</trkpt>
<trkpt lat="51.38964" lon="7.80433">
<ele>347</ele>
<time>2012-01-30T13:08:01Z</time>
</trkpt>
<trkpt lat="51.38964" lon="7.80433">
<ele>347</ele>
<time>2012-01-30T13:08:01Z</time>
</trkpt>
<trkpt lat="51.38964" lon="7.80433">
<ele>347</ele>
<time>2012-01-30T13:08:02Z</time>
</trkpt>
<trkpt lat="51.38969" lon="7.80435">
<ele>348</ele>
<time>2012-01-30T13:08:08Z</time>
</trkpt>
<trkpt lat="51.38973" lon="7.80439">
<ele>348</ele>
<time>2012-01-30T13:08:13Z</time>
</trkpt>
<trkpt lat="51.38972" lon="7.8043">
<ele>349</ele>
<time>2012-01-30T13:08:20Z</time>
</trkpt>
<trkpt lat="51.3897" lon="7.80424">
<ele>349</ele>
<time>2012-01-30T13:08:25Z</time>
</trkpt>
<trkpt lat="51.3897" lon="7.80424">
<ele>349</ele>
<time>2012-01-30T13:08:25Z</time>
</trkpt>
<trkpt lat="51.3897" lon="7.80424">
<ele>349</ele>
<time>2012-01-30T13:08:26Z</time>
</trkpt>
<trkpt lat="51.38964" lon="7.8042">
<ele>350</ele>
<time>2012-01-30T13:08:31Z</time>
</trkpt>
<trkpt lat="51.3896" lon="7.80413">
<ele>350</ele>
<time>2012-01-30T13:08:35Z</time>
</trkpt>
<trkpt lat="51.38956" lon="7.80407">
<ele>350</ele>
<time>2012-01-30T13:08:40Z</time>
</trkpt>
<trkpt lat="51.38952" lon="7.804">
<ele>350</ele>
<time>2012-01-30T13:08:44Z</time>
</trkpt>
<trkpt lat="51.38948" lon="7.80394">
<ele>351</ele>
<time>2012-01-30T13:08:48Z</time>
</trkpt>
<trkpt lat="51.38945" lon="7.80388">
<ele>351</ele>
<time>2012-01-30T13:08:52Z</time>
</trkpt>
<trkpt lat="51.38942" lon="7.80381">
<ele>351</ele>
<time>2012-01-30T13:08:56Z</time>
</trkpt>
<trkpt lat="51.38938" lon="7.80375">
<ele>351</ele>
<time>2012-01-30T13:09:00Z</time>
</trkpt>
<trkpt lat="51.38938" lon="7.80375">
<ele>351</ele>
<time>2012-01-30T13:09:00Z</time>
</trkpt>
<trkpt lat="51.38938" lon="7.80375">
<ele>351</ele>
<time>2012-01-30T13:09:01Z</time>
</trkpt>
<trkpt lat="51.38933" lon="7.80368">
<ele>351</ele>
<time>2012-01-30T13:09:05Z</time>
</trkpt>
<trkpt lat="51.38933" lon="7.80368">
<ele>351</ele>
<time>2012-01-30T13:09:05Z</time>
</trkpt>
<trkpt lat="51.38933" lon="7.80368">
<ele>351</ele>
<time>2012-01-30T13:09:06Z</time>
</trkpt>
<trkpt lat="51.3893" lon="7.80362">
<ele>351</ele>
<time>2012-01-30T13:09:10Z</time>
</trkpt>
<trkpt lat="51.3893" lon="7.80362">
<ele>351</ele>
<time>2012-01-30T13:09:10Z</time>
</trkpt>
<trkpt lat="51.3893" lon="7.80362">
<ele>351</ele>
<time>2012-01-30T13:09:11Z</time>
</trkpt>
<trkpt lat="51.38927" lon="7.80355">
<ele>351</ele>
<time>2012-01-30T13:09:15Z</time>
</trkpt>
<trkpt lat="51.38925" lon="7.80349">
<ele>351</ele>
<time>2012-01-30T13:09:19Z</time>
</trkpt>
<trkpt lat="51.38921" lon="7.80342">
<ele>351</ele>
<time>2012-01-30T13:09:23Z</time>
</trkpt>
<trkpt lat="51.38918" lon="7.80334">
<ele>351</ele>
<time>2012-01-30T13:09:28Z</time>
</trkpt>
<trkpt lat="51.38917" lon="7.80325">
<ele>351</ele>
<time>2012-01-30T13:09:32Z</time>
</trkpt>
<trkpt lat="51.38916" lon="7.80317">
<ele>352</ele>
<time>2012-01-30T13:09:36Z</time>
</trkpt>
<trkpt lat="51.38915" lon="7.80308">
<ele>352</ele>
<time>2012-01-30T13:09:40Z</time>
</trkpt>
<trkpt lat="51.38915" lon="7.803">
<ele>352</ele>
<time>2012-01-30T13:09:44Z</time>
</trkpt>
<trkpt lat="51.38915" lon="7.80291">
<ele>352</ele>
<time>2012-01-30T13:09:48Z</time>
</trkpt>
<trkpt lat="51.38915" lon="7.80282">
<ele>352</ele>
<time>2012-01-30T13:09:52Z</time>
</trkpt>
<trkpt lat="51.38915" lon="7.80274">
<ele>352</ele>
<time>2012-01-30T13:09:56Z</time>
</trkpt>
<trkpt lat="51.38915" lon="7.80265">
<ele>352</ele>
<time>2012-01-30T13:10:00Z</time>
</trkpt>
<trkpt lat="51.38916" lon="7.80257">
<ele>352</ele>
<time>2012-01-30T13:10:04Z</time>
</trkpt>
<trkpt lat="51.38917" lon="7.80248">
<ele>352</ele>
<time>2012-01-30T13:10:08Z</time>
</trkpt>
<trkpt lat="51.38919" lon="7.8024">
<ele>352</ele>
<time>2012-01-30T13:10:12Z</time>
</trkpt>
<trkpt lat="51.38921" lon="7.80233">
<ele>352</ele>
<time>2012-01-30T13:10:15Z</time>
</trkpt>
<trkpt lat="51.38924" lon="7.80227">
<ele>352</ele>
<time>2012-01-30T13:10:19Z</time>
</trkpt>
<trkpt lat="51.38927" lon="7.8022">
<ele>352</ele>
<time>2012-01-30T13:10:23Z</time>
</trkpt>
<trkpt lat="51.38929" lon="7.80214">
<ele>352</ele>
<time>2012-01-30T13:10:27Z</time>
</trkpt>
<trkpt lat="51.38931" lon="7.80205">
<ele>353</ele>
<time>2012-01-30T13:10:31Z</time>
</trkpt>
<trkpt lat="51.38932" lon="7.80197">
<ele>353</ele>
<time>2012-01-30T13:10:35Z</time>
</trkpt>
<trkpt lat="51.38933" lon="7.80188">
<ele>353</ele>
<time>2012-01-30T13:10:38Z</time>
</trkpt>
<trkpt lat="51.38933" lon="7.8018">
<ele>353</ele>
<time>2012-01-30T13:10:42Z</time>
</trkpt>
<trkpt lat="51.38933" lon="7.80171">
<ele>353</ele>
<time>2012-01-30T13:10:46Z</time>
</trkpt>
<trkpt lat="51.38932" lon="7.8016">
<ele>353</ele>
<time>2012-01-30T13:10:50Z</time>
</trkpt>
<trkpt lat="51.38932" lon="7.80152">
<ele>353</ele>
<time>2012-01-30T13:10:54Z</time>
</trkpt>
<trkpt lat="51.38931" lon="7.80143">
<ele>353</ele>
<time>2012-01-30T13:10:58Z</time>
</trkpt>
<trkpt lat="51.38931" lon="7.80134">
<ele>353</ele>
<time>2012-01-30T13:11:02Z</time>
</trkpt>
<trkpt lat="51.3893" lon="7.80126">
<ele>354</ele>
<time>2012-01-30T13:11:06Z</time>
</trkpt>
<trkpt lat="51.3893" lon="7.80117">
<ele>354</ele>
<time>2012-01-30T13:11:10Z</time>
</trkpt>
<trkpt lat="51.3893" lon="7.80109">
<ele>354</ele>
<time>2012-01-30T13:11:14Z</time>
</trkpt>
<trkpt lat="51.38929" lon="7.801">
<ele>354</ele>
<time>2012-01-30T13:11:18Z</time>
</trkpt>
<trkpt lat="51.38929" lon="7.80092">
<ele>354</ele>
<time>2012-01-30T13:11:22Z</time>
</trkpt>
<trkpt lat="51.38928" lon="7.80083">
<ele>354</ele>
<time>2012-01-30T13:11:25Z</time>
</trkpt>
<trkpt lat="51.38927" lon="7.80074">
<ele>354</ele>
<time>2012-01-30T13:11:29Z</time>
</trkpt>
<trkpt lat="51.38926" lon="7.80066">
<ele>354</ele>
<time>2012-01-30T13:11:32Z</time>
</trkpt>
<trkpt lat="51.38926" lon="7.80057">
<ele>354</ele>
<time>2012-01-30T13:11:36Z</time>
</trkpt>
<trkpt lat="51.38925" lon="7.80049">
<ele>355</ele>
<time>2012-01-30T13:11:40Z</time>
</trkpt>
<trkpt lat="51.38925" lon="7.8004">
<ele>355</ele>
<time>2012-01-30T13:11:44Z</time>
</trkpt>
<trkpt lat="51.38925" lon="7.80031">
<ele>355</ele>
<time>2012-01-30T13:11:48Z</time>
</trkpt>
<trkpt lat="51.38925" lon="7.80023">
<ele>355</ele>
<time>2012-01-30T13:11:52Z</time>
</trkpt>
<trkpt lat="51.38925" lon="7.80023">
<ele>355</ele>
<time>2012-01-30T13:11:52Z</time>
</trkpt>
<trkpt lat="51.38925" lon="7.80023">
<ele>355</ele>
<time>2012-01-30T13:11:53Z</time>
</trkpt>
<trkpt lat="51.38926" lon="7.80014">
<ele>355</ele>
<time>2012-01-30T13:11:57Z</time>
</trkpt>
<trkpt lat="51.38926" lon="7.80006">
<ele>354</ele>
<time>2012-01-30T13:12:01Z</time>
</trkpt>
<trkpt lat="51.38926" lon="7.79997">
<ele>355</ele>
<time>2012-01-30T13:12:04Z</time>
</trkpt>
<trkpt lat="51.38925" lon="7.79988">
<ele>355</ele>
<time>2012-01-30T13:12:08Z</time>
</trkpt>
<trkpt lat="51.38924" lon="7.7998">
<ele>355</ele>
<time>2012-01-30T13:12:11Z</time>
</trkpt>
<trkpt lat="51.38924" lon="7.79971">
<ele>355</ele>
<time>2012-01-30T13:12:15Z</time>
</trkpt>
<trkpt lat="51.38922" lon="7.79963">
<ele>355</ele>
<time>2012-01-30T13:12:18Z</time>
</trkpt>
<trkpt lat="51.38922" lon="7.79954">
<ele>355</ele>
<time>2012-01-30T13:12:23Z</time>
</trkpt>
<trkpt lat="51.38922" lon="7.79946">
<ele>355</ele>
<time>2012-01-30T13:12:27Z</time>
</trkpt>
<trkpt lat="51.38922" lon="7.79937">
<ele>355</ele>
<time>2012-01-30T13:12:31Z</time>
</trkpt>
<trkpt lat="51.38921" lon="7.79928">
<ele>355</ele>
<time>2012-01-30T13:12:35Z</time>
</trkpt>
<trkpt lat="51.38921" lon="7.7992">
<ele>355</ele>
<time>2012-01-30T13:12:39Z</time>
</trkpt>
<trkpt lat="51.3892" lon="7.79911">
<ele>355</ele>
<time>2012-01-30T13:12:43Z</time>
</trkpt>
<trkpt lat="51.3892" lon="7.79903">
<ele>355</ele>
<time>2012-01-30T13:12:48Z</time>
</trkpt>
<trkpt lat="51.38919" lon="7.79894">
<ele>355</ele>
<time>2012-01-30T13:12:52Z</time>
</trkpt>
<trkpt lat="51.38919" lon="7.79886">
<ele>355</ele>
<time>2012-01-30T13:12:57Z</time>
</trkpt>
<trkpt lat="51.38918" lon="7.79877">
<ele>355</ele>
<time>2012-01-30T13:13:01Z</time>
</trkpt>
<trkpt lat="51.38917" lon="7.79868">
<ele>355</ele>
<time>2012-01-30T13:13:06Z</time>
</trkpt>
<trkpt lat="51.38916" lon="7.7986">
<ele>355</ele>
<time>2012-01-30T13:13:10Z</time>
</trkpt>
<trkpt lat="51.38915" lon="7.79851">
<ele>354</ele>
<time>2012-01-30T13:13:14Z</time>
</trkpt>
<trkpt lat="51.38914" lon="7.79843">
<ele>354</ele>
<time>2012-01-30T13:13:18Z</time>
</trkpt>
<trkpt lat="51.38914" lon="7.79834">
<ele>354</ele>
<time>2012-01-30T13:13:22Z</time>
</trkpt>
<trkpt lat="51.38913" lon="7.79825">
<ele>354</ele>
<time>2012-01-30T13:13:26Z</time>
</trkpt>
<trkpt lat="51.38913" lon="7.79817">
<ele>354</ele>
<time>2012-01-30T13:13:30Z</time>
</trkpt>
<trkpt lat="51.38912" lon="7.79808">
<ele>354</ele>
<time>2012-01-30T13:13:34Z</time>
</trkpt>
<trkpt lat="51.38912" lon="7.798">
<ele>354</ele>
<time>2012-01-30T13:13:38Z</time>
</trkpt>
<trkpt lat="51.38911" lon="7.79791">
<ele>354</ele>
<time>2012-01-30T13:13:41Z</time>
</trkpt>
<trkpt lat="51.38911" lon="7.79782">
<ele>354</ele>
<time>2012-01-30T13:13:45Z</time>
</trkpt>
<trkpt lat="51.38911" lon="7.79774">
<ele>354</ele>
<time>2012-01-30T13:13:48Z</time>
</trkpt>
<trkpt lat="51.3891" lon="7.79765">
<ele>354</ele>
<time>2012-01-30T13:13:52Z</time>
</trkpt>
<trkpt lat="51.38909" lon="7.79757">
<ele>354</ele>
<time>2012-01-30T13:13:57Z</time>
</trkpt>
<trkpt lat="51.38906" lon="7.79748">
<ele>354</ele>
<time>2012-01-30T13:14:01Z</time>
</trkpt>
<trkpt lat="51.38904" lon="7.7974">
<ele>353</ele>
<time>2012-01-30T13:14:05Z</time>
</trkpt>
<trkpt lat="51.38901" lon="7.79733">
<ele>353</ele>
<time>2012-01-30T13:14:09Z</time>
</trkpt>
<trkpt lat="51.38899" lon="7.79724">
<ele>353</ele>
<time>2012-01-30T13:14:13Z</time>
</trkpt>
<trkpt lat="51.38897" lon="7.79716">
<ele>353</ele>
<time>2012-01-30T13:14:17Z</time>
</trkpt>
<trkpt lat="51.38895" lon="7.7971">
<ele>353</ele>
<time>2012-01-30T13:14:20Z</time>
</trkpt>
<trkpt lat="51.38892" lon="7.79701">
<ele>352</ele>
<time>2012-01-30T13:14:24Z</time>
</trkpt>
<trkpt lat="51.3889" lon="7.79692">
<ele>352</ele>
<time>2012-01-30T13:14:28Z</time>
</trkpt>
<trkpt lat="51.38888" lon="7.79684">
<ele>352</ele>
<time>2012-01-30T13:14:32Z</time>
</trkpt>
<trkpt lat="51.38885" lon="7.79677">
<ele>352</ele>
<time>2012-01-30T13:14:36Z</time>
</trkpt>
<trkpt lat="51.38882" lon="7.79671">
<ele>352</ele>
<time>2012-01-30T13:14:40Z</time>
</trkpt>
<trkpt lat="51.3888" lon="7.79664">
<ele>351</ele>
<time>2012-01-30T13:14:43Z</time>
</trkpt>
<trkpt lat="51.38876" lon="7.79658">
<ele>351</ele>
<time>2012-01-30T13:14:47Z</time>
</trkpt>
<trkpt lat="51.38873" lon="7.79652">
<ele>351</ele>
<time>2012-01-30T13:14:51Z</time>
</trkpt>
<trkpt lat="51.38871" lon="7.79645">
<ele>350</ele>
<time>2012-01-30T13:14:54Z</time>
</trkpt>
<trkpt lat="51.38868" lon="7.79639">
<ele>350</ele>
<time>2012-01-30T13:14:57Z</time>
</trkpt>
<trkpt lat="51.38866" lon="7.79632">
<ele>350</ele>
<time>2012-01-30T13:15:00Z</time>
</trkpt>
<trkpt lat="51.38862" lon="7.79626">
<ele>349</ele>
<time>2012-01-30T13:15:04Z</time>
</trkpt>
<trkpt lat="51.38859" lon="7.79619">
<ele>349</ele>
<time>2012-01-30T13:15:08Z</time>
</trkpt>
<trkpt lat="51.38856" lon="7.79613">
<ele>349</ele>
<time>2012-01-30T13:15:11Z</time>
</trkpt>
<trkpt lat="51.38856" lon="7.79613">
<ele>349</ele>
<time>2012-01-30T13:15:11Z</time>
</trkpt>
<trkpt lat="51.38856" lon="7.79613">
<ele>348</ele>
<time>2012-01-30T13:15:12Z</time>
</trkpt>
<trkpt lat="51.38853" lon="7.79606">
<ele>348</ele>
<time>2012-01-30T13:15:16Z</time>
</trkpt>
<trkpt lat="51.3885" lon="7.796">
<ele>348</ele>
<time>2012-01-30T13:15:20Z</time>
</trkpt>
<trkpt lat="51.38846" lon="7.79594">
<ele>347</ele>
<time>2012-01-30T13:15:24Z</time>
</trkpt>
<trkpt lat="51.38844" lon="7.79587">
<ele>347</ele>
<time>2012-01-30T13:15:27Z</time>
</trkpt>
<trkpt lat="51.38842" lon="7.79581">
<ele>346</ele>
<time>2012-01-30T13:15:30Z</time>
</trkpt>
<trkpt lat="51.38838" lon="7.79574">
<ele>346</ele>
<time>2012-01-30T13:15:34Z</time>
</trkpt>
<trkpt lat="51.38834" lon="7.79568">
<ele>345</ele>
<time>2012-01-30T13:15:37Z</time>
</trkpt>
<trkpt lat="51.38829" lon="7.79562">
<ele>345</ele>
<time>2012-01-30T13:15:41Z</time>
</trkpt>
<trkpt lat="51.38826" lon="7.79555">
<ele>344</ele>
<time>2012-01-30T13:15:44Z</time>
</trkpt>
<trkpt lat="51.38823" lon="7.79549">
<ele>344</ele>
<time>2012-01-30T13:15:48Z</time>
</trkpt>
<trkpt lat="51.3882" lon="7.79542">
<ele>344</ele>
<time>2012-01-30T13:15:51Z</time>
</trkpt>
<trkpt lat="51.38816" lon="7.79536">
<ele>344</ele>
<time>2012-01-30T13:15:54Z</time>
</trkpt>
<trkpt lat="51.38813" lon="7.79529">
<ele>343</ele>
<time>2012-01-30T13:15:58Z</time>
</trkpt>
<trkpt lat="51.38811" lon="7.79523">
<ele>343</ele>
<time>2012-01-30T13:16:01Z</time>
</trkpt>
<trkpt lat="51.38808" lon="7.79516">
<ele>342</ele>
<time>2012-01-30T13:16:05Z</time>
</trkpt>
<trkpt lat="51.38803" lon="7.7951">
<ele>342</ele>
<time>2012-01-30T13:16:09Z</time>
</trkpt>
<trkpt lat="51.38801" lon="7.79504">
<ele>341</ele>
<time>2012-01-30T13:16:13Z</time>
</trkpt>
<trkpt lat="51.38798" lon="7.79497">
<ele>340</ele>
<time>2012-01-30T13:16:17Z</time>
</trkpt>
<trkpt lat="51.38798" lon="7.79497">
<ele>340</ele>
<time>2012-01-30T13:16:17Z</time>
</trkpt>
<trkpt lat="51.38798" lon="7.79497">
<ele>340</ele>
<time>2012-01-30T13:16:18Z</time>
</trkpt>
<trkpt lat="51.38794" lon="7.79491">
<ele>339</ele>
<time>2012-01-30T13:16:22Z</time>
</trkpt>
<trkpt lat="51.38791" lon="7.79484">
<ele>339</ele>
<time>2012-01-30T13:16:26Z</time>
</trkpt>
<trkpt lat="51.38786" lon="7.79478">
<ele>339</ele>
<time>2012-01-30T13:16:30Z</time>
</trkpt>
<trkpt lat="51.38782" lon="7.79471">
<ele>339</ele>
<time>2012-01-30T13:16:34Z</time>
</trkpt>
<trkpt lat="51.38778" lon="7.79465">
<ele>338</ele>
<time>2012-01-30T13:16:38Z</time>
</trkpt>
<trkpt lat="51.38773" lon="7.79458">
<ele>338</ele>
<time>2012-01-30T13:16:42Z</time>
</trkpt>
<trkpt lat="51.38769" lon="7.79452">
<ele>338</ele>
<time>2012-01-30T13:16:46Z</time>
</trkpt>
<trkpt lat="51.38766" lon="7.79446">
<ele>338</ele>
<time>2012-01-30T13:16:50Z</time>
</trkpt>
<trkpt lat="51.3876" lon="7.79441">
<ele>338</ele>
<time>2012-01-30T13:16:54Z</time>
</trkpt>
<trkpt lat="51.38756" lon="7.79437">
<ele>337</ele>
<time>2012-01-30T13:16:58Z</time>
</trkpt>
<trkpt lat="51.38752" lon="7.79433">
<ele>337</ele>
<time>2012-01-30T13:17:01Z</time>
</trkpt>
<trkpt lat="51.38748" lon="7.79428">
<ele>337</ele>
<time>2012-01-30T13:17:05Z</time>
</trkpt>
<trkpt lat="51.38742" lon="7.79424">
<ele>337</ele>
<time>2012-01-30T13:17:09Z</time>
</trkpt>
<trkpt lat="51.38737" lon="7.7942">
<ele>337</ele>
<time>2012-01-30T13:17:13Z</time>
</trkpt>
<trkpt lat="51.38733" lon="7.79416">
<ele>337</ele>
<time>2012-01-30T13:17:17Z</time>
</trkpt>
<trkpt lat="51.38727" lon="7.79413">
<ele>338</ele>
<time>2012-01-30T13:17:21Z</time>
</trkpt>
<trkpt lat="51.38723" lon="7.79409">
<ele>338</ele>
<time>2012-01-30T13:17:25Z</time>
</trkpt>
<trkpt lat="51.38718" lon="7.79407">
<ele>338</ele>
<time>2012-01-30T13:17:29Z</time>
</trkpt>
<trkpt lat="51.38712" lon="7.79405">
<ele>338</ele>
<time>2012-01-30T13:17:33Z</time>
</trkpt>
<trkpt lat="51.38706" lon="7.794">
<ele>338</ele>
<time>2012-01-30T13:17:38Z</time>
</trkpt>
<trkpt lat="51.387" lon="7.79398">
<ele>338</ele>
<time>2012-01-30T13:17:42Z</time>
</trkpt>
<trkpt lat="51.38695" lon="7.79396">
<ele>338</ele>
<time>2012-01-30T13:17:46Z</time>
</trkpt>
<trkpt lat="51.3869" lon="7.79394">
<ele>338</ele>
<time>2012-01-30T13:17:50Z</time>
</trkpt>
<trkpt lat="51.38684" lon="7.79392">
<ele>338</ele>
<time>2012-01-30T13:17:54Z</time>
</trkpt>
<trkpt lat="51.38679" lon="7.79392">
<ele>338</ele>
<time>2012-01-30T13:17:58Z</time>
</trkpt>
<trkpt lat="51.38672" lon="7.79394">
<ele>338</ele>
<time>2012-01-30T13:18:02Z</time>
</trkpt>
<trkpt lat="51.38667" lon="7.79394">
<ele>338</ele>
<time>2012-01-30T13:18:06Z</time>
</trkpt>
<trkpt lat="51.38661" lon="7.79392">
<ele>338</ele>
<time>2012-01-30T13:18:10Z</time>
</trkpt>
<trkpt lat="51.38655" lon="7.79394">
<ele>338</ele>
<time>2012-01-30T13:18:14Z</time>
</trkpt>
<trkpt lat="51.3865" lon="7.79394">
<ele>338</ele>
<time>2012-01-30T13:18:18Z</time>
</trkpt>
<trkpt lat="51.38644" lon="7.79394">
<ele>338</ele>
<time>2012-01-30T13:18:22Z</time>
</trkpt>
<trkpt lat="51.38638" lon="7.79394">
<ele>338</ele>
<time>2012-01-30T13:18:26Z</time>
</trkpt>
<trkpt lat="51.38633" lon="7.79396">
<ele>338</ele>
<time>2012-01-30T13:18:30Z</time>
</trkpt>
<trkpt lat="51.38628" lon="7.79398">
<ele>338</ele>
<time>2012-01-30T13:18:33Z</time>
</trkpt>
<trkpt lat="51.38622" lon="7.79398">
<ele>337</ele>
<time>2012-01-30T13:18:37Z</time>
</trkpt>
<trkpt lat="51.38617" lon="7.79398">
<ele>337</ele>
<time>2012-01-30T13:18:41Z</time>
</trkpt>
<trkpt lat="51.38611" lon="7.79396">
<ele>337</ele>
<time>2012-01-30T13:18:46Z</time>
</trkpt>
<trkpt lat="51.38606" lon="7.79396">
<ele>337</ele>
<time>2012-01-30T13:18:50Z</time>
</trkpt>
<trkpt lat="51.386" lon="7.79396">
<ele>337</ele>
<time>2012-01-30T13:18:54Z</time>
</trkpt>
<trkpt lat="51.38594" lon="7.79394">
<ele>336</ele>
<time>2012-01-30T13:18:58Z</time>
</trkpt>
<trkpt lat="51.38589" lon="7.79396">
<ele>336</ele>
<time>2012-01-30T13:19:02Z</time>
</trkpt>
<trkpt lat="51.38584" lon="7.79396">
<ele>336</ele>
<time>2012-01-30T13:19:06Z</time>
</trkpt>
<trkpt lat="51.38578" lon="7.79396">
<ele>335</ele>
<time>2012-01-30T13:19:09Z</time>
</trkpt>
<trkpt lat="51.38572" lon="7.79396">
<ele>335</ele>
<time>2012-01-30T13:19:13Z</time>
</trkpt>
<trkpt lat="51.38566" lon="7.79396">
<ele>334</ele>
<time>2012-01-30T13:19:17Z</time>
</trkpt>
<trkpt lat="51.38561" lon="7.79394">
<ele>334</ele>
<time>2012-01-30T13:19:21Z</time>
</trkpt>
<trkpt lat="51.38556" lon="7.79392">
<ele>333</ele>
<time>2012-01-30T13:19:25Z</time>
</trkpt>
<trkpt lat="51.3855" lon="7.79392">
<ele>333</ele>
<time>2012-01-30T13:19:29Z</time>
</trkpt>
<trkpt lat="51.38545" lon="7.79392">
<ele>333</ele>
<time>2012-01-30T13:19:33Z</time>
</trkpt>
<trkpt lat="51.38538" lon="7.79392">
<ele>332</ele>
<time>2012-01-30T13:19:37Z</time>
</trkpt>
<trkpt lat="51.38533" lon="7.7939">
<ele>332</ele>
<time>2012-01-30T13:19:41Z</time>
</trkpt>
<trkpt lat="51.38528" lon="7.7939">
<ele>332</ele>
<time>2012-01-30T13:19:45Z</time>
</trkpt>
<trkpt lat="51.38522" lon="7.79392">
<ele>331</ele>
<time>2012-01-30T13:19:49Z</time>
</trkpt>
<trkpt lat="51.38517" lon="7.79392">
<ele>331</ele>
<time>2012-01-30T13:19:53Z</time>
</trkpt>
<trkpt lat="51.38512" lon="7.79392">
<ele>331</ele>
<time>2012-01-30T13:19:57Z</time>
</trkpt>
<trkpt lat="51.38506" lon="7.79392">
<ele>331</ele>
<time>2012-01-30T13:20:01Z</time>
</trkpt>
<trkpt lat="51.38501" lon="7.79392">
<ele>331</ele>
<time>2012-01-30T13:20:05Z</time>
</trkpt>
<trkpt lat="51.38496" lon="7.79392">
<ele>331</ele>
<time>2012-01-30T13:20:09Z</time>
</trkpt>
<trkpt lat="51.3849" lon="7.79392">
<ele>331</ele>
<time>2012-01-30T13:20:14Z</time>
</trkpt>
<trkpt lat="51.38485" lon="7.79392">
<ele>331</ele>
<time>2012-01-30T13:20:18Z</time>
</trkpt>
<trkpt lat="51.38479" lon="7.79392">
<ele>331</ele>
<time>2012-01-30T13:20:22Z</time>
</trkpt>
<trkpt lat="51.38474" lon="7.79394">
<ele>331</ele>
<time>2012-01-30T13:20:26Z</time>
</trkpt>
<trkpt lat="51.38469" lon="7.79394">
<ele>331</ele>
<time>2012-01-30T13:20:30Z</time>
</trkpt>
<trkpt lat="51.38463" lon="7.79394">
<ele>331</ele>
<time>2012-01-30T13:20:34Z</time>
</trkpt>
<trkpt lat="51.38458" lon="7.79394">
<ele>331</ele>
<time>2012-01-30T13:20:38Z</time>
</trkpt>
<trkpt lat="51.38453" lon="7.79394">
<ele>331</ele>
<time>2012-01-30T13:20:42Z</time>
</trkpt>
<trkpt lat="51.38447" lon="7.79394">
<ele>330</ele>
<time>2012-01-30T13:20:46Z</time>
</trkpt>
<trkpt lat="51.38442" lon="7.79394">
<ele>330</ele>
<time>2012-01-30T13:20:50Z</time>
</trkpt>
<trkpt lat="51.38436" lon="7.79394">
<ele>330</ele>
<time>2012-01-30T13:20:54Z</time>
</trkpt>
<trkpt lat="51.38431" lon="7.79394">
<ele>330</ele>
<time>2012-01-30T13:20:59Z</time>
</trkpt>
<trkpt lat="51.38426" lon="7.79394">
<ele>330</ele>
<time>2012-01-30T13:21:03Z</time>
</trkpt>
<trkpt lat="51.3842" lon="7.79392">
<ele>330</ele>
<time>2012-01-30T13:21:07Z</time>
</trkpt>
<trkpt lat="51.38414" lon="7.79394">
<ele>329</ele>
<time>2012-01-30T13:21:11Z</time>
</trkpt>
<trkpt lat="51.38409" lon="7.79394">
<ele>329</ele>
<time>2012-01-30T13:21:15Z</time>
</trkpt>
<trkpt lat="51.38402" lon="7.79394">
<ele>329</ele>
<time>2012-01-30T13:21:19Z</time>
</trkpt>
<trkpt lat="51.38397" lon="7.79394">
<ele>329</ele>
<time>2012-01-30T13:21:23Z</time>
</trkpt>
<trkpt lat="51.38391" lon="7.79394">
<ele>329</ele>
<time>2012-01-30T13:21:26Z</time>
</trkpt>
<trkpt lat="51.38386" lon="7.79394">
<ele>329</ele>
<time>2012-01-30T13:21:30Z</time>
</trkpt>
<trkpt lat="51.38381" lon="7.79394">
<ele>329</ele>
<time>2012-01-30T13:21:34Z</time>
</trkpt>
<trkpt lat="51.38375" lon="7.79394">
<ele>329</ele>
<time>2012-01-30T13:21:38Z</time>
</trkpt>
<trkpt lat="51.3837" lon="7.79394">
<ele>328</ele>
<time>2012-01-30T13:21:41Z</time>
</trkpt>
<trkpt lat="51.38364" lon="7.79396">
<ele>328</ele>
<time>2012-01-30T13:21:45Z</time>
</trkpt>
<trkpt lat="51.38357" lon="7.79396">
<ele>328</ele>
<time>2012-01-30T13:21:49Z</time>
</trkpt>
<trkpt lat="51.38351" lon="7.79398">
<ele>328</ele>
<time>2012-01-30T13:21:53Z</time>
</trkpt>
<trkpt lat="51.38345" lon="7.79398">
<ele>328</ele>
<time>2012-01-30T13:21:56Z</time>
</trkpt>
<trkpt lat="51.38339" lon="7.79398">
<ele>328</ele>
<time>2012-01-30T13:22:00Z</time>
</trkpt>
<trkpt lat="51.38332" lon="7.794">
<ele>327</ele>
<time>2012-01-30T13:22:04Z</time>
</trkpt>
<trkpt lat="51.38326" lon="7.794">
<ele>327</ele>
<time>2012-01-30T13:22:08Z</time>
</trkpt>
<trkpt lat="51.38321" lon="7.794">
<ele>327</ele>
<time>2012-01-30T13:22:11Z</time>
</trkpt>
<trkpt lat="51.38314" lon="7.794">
<ele>327</ele>
<time>2012-01-30T13:22:15Z</time>
</trkpt>
<trkpt lat="51.38308" lon="7.794">
<ele>327</ele>
<time>2012-01-30T13:22:19Z</time>
</trkpt>
<trkpt lat="51.38302" lon="7.794">
<ele>326</ele>
<time>2012-01-30T13:22:23Z</time>
</trkpt>
<trkpt lat="51.38297" lon="7.79398">
<ele>326</ele>
<time>2012-01-30T13:22:27Z</time>
</trkpt>
<trkpt lat="51.38292" lon="7.79396">
<ele>326</ele>
<time>2012-01-30T13:22:31Z</time>
</trkpt>
<trkpt lat="51.38286" lon="7.79396">
<ele>326</ele>
<time>2012-01-30T13:22:36Z</time>
</trkpt>
<trkpt lat="51.38281" lon="7.79396">
<ele>326</ele>
<time>2012-01-30T13:22:41Z</time>
</trkpt>
<trkpt lat="51.38274" lon="7.79396">
<ele>326</ele>
<time>2012-01-30T13:22:46Z</time>
</trkpt>
<trkpt lat="51.38269" lon="7.79394">
<ele>326</ele>
<time>2012-01-30T13:22:50Z</time>
</trkpt>
<trkpt lat="51.38264" lon="7.79394">
<ele>326</ele>
<time>2012-01-30T13:22:55Z</time>
</trkpt>
<trkpt lat="51.38258" lon="7.79394">
<ele>327</ele>
<time>2012-01-30T13:23:00Z</time>
</trkpt>
<trkpt lat="51.38258" lon="7.79394">
<ele>327</ele>
<time>2012-01-30T13:23:00Z</time>
</trkpt>
<trkpt lat="51.38258" lon="7.79394">
<ele>327</ele>
<time>2012-01-30T13:23:01Z</time>
</trkpt>
<trkpt lat="51.38253" lon="7.79392">
<ele>327</ele>
<time>2012-01-30T13:23:06Z</time>
</trkpt>
<trkpt lat="51.38248" lon="7.79392">
<ele>327</ele>
<time>2012-01-30T13:23:10Z</time>
</trkpt>
<trkpt lat="51.38242" lon="7.79392">
<ele>328</ele>
<time>2012-01-30T13:23:15Z</time>
</trkpt>
<trkpt lat="51.38237" lon="7.7939">
<ele>328</ele>
<time>2012-01-30T13:23:20Z</time>
</trkpt>
<trkpt lat="51.38232" lon="7.7939">
<ele>328</ele>
<time>2012-01-30T13:23:25Z</time>
</trkpt>
<trkpt lat="51.38226" lon="7.7939">
<ele>328</ele>
<time>2012-01-30T13:23:29Z</time>
</trkpt>
<trkpt lat="51.38221" lon="7.79388">
<ele>328</ele>
<time>2012-01-30T13:23:33Z</time>
</trkpt>
<trkpt lat="51.38216" lon="7.79388">
<ele>328</ele>
<time>2012-01-30T13:23:37Z</time>
</trkpt>
<trkpt lat="51.3821" lon="7.79388">
<ele>328</ele>
<time>2012-01-30T13:23:41Z</time>
</trkpt>
<trkpt lat="51.38204" lon="7.79388">
<ele>329</ele>
<time>2012-01-30T13:23:45Z</time>
</trkpt>
<trkpt lat="51.38197" lon="7.7939">
<ele>329</ele>
<time>2012-01-30T13:23:48Z</time>
</trkpt>
<trkpt lat="51.38192" lon="7.79392">
<ele>330</ele>
<time>2012-01-30T13:23:51Z</time>
</trkpt>
<trkpt lat="51.38186" lon="7.79392">
<ele>330</ele>
<time>2012-01-30T13:23:55Z</time>
</trkpt>
<trkpt lat="51.38179" lon="7.7939">
<ele>330</ele>
<time>2012-01-30T13:23:59Z</time>
</trkpt>
<trkpt lat="51.38174" lon="7.79388">
<ele>330</ele>
<time>2012-01-30T13:24:02Z</time>
</trkpt>
<trkpt lat="51.38168" lon="7.79386">
<ele>330</ele>
<time>2012-01-30T13:24:05Z</time>
</trkpt>
<trkpt lat="51.38164" lon="7.79381">
<ele>330</ele>
<time>2012-01-30T13:24:07Z</time>
</trkpt>
<trkpt lat="51.38159" lon="7.79377">
<ele>330</ele>
<time>2012-01-30T13:24:11Z</time>
</trkpt>
<trkpt lat="51.38155" lon="7.7937">
<ele>330</ele>
<time>2012-01-30T13:24:14Z</time>
</trkpt>
<trkpt lat="51.38152" lon="7.79364">
<ele>329</ele>
<time>2012-01-30T13:24:18Z</time>
</trkpt>
<trkpt lat="51.38151" lon="7.79356">
<ele>329</ele>
<time>2012-01-30T13:24:21Z</time>
</trkpt>
<trkpt lat="51.38152" lon="7.79347">
<ele>328</ele>
<time>2012-01-30T13:24:26Z</time>
</trkpt>
<trkpt lat="51.38154" lon="7.79338">
<ele>328</ele>
<time>2012-01-30T13:24:29Z</time>
</trkpt>
<trkpt lat="51.38155" lon="7.7933">
<ele>328</ele>
<time>2012-01-30T13:24:33Z</time>
</trkpt>
<trkpt lat="51.38158" lon="7.79323">
<ele>328</ele>
<time>2012-01-30T13:24:36Z</time>
</trkpt>
<trkpt lat="51.3816" lon="7.79315">
<ele>327</ele>
<time>2012-01-30T13:24:40Z</time>
</trkpt>
<trkpt lat="51.38162" lon="7.79308">
<ele>327</ele>
<time>2012-01-30T13:24:43Z</time>
</trkpt>
<trkpt lat="51.38162" lon="7.79308">
<ele>327</ele>
<time>2012-01-30T13:24:43Z</time>
</trkpt>
<trkpt lat="51.38162" lon="7.79308">
<ele>327</ele>
<time>2012-01-30T13:24:44Z</time>
</trkpt>
<trkpt lat="51.38164" lon="7.79302">
<ele>327</ele>
<time>2012-01-30T13:24:47Z</time>
</trkpt>
<trkpt lat="51.38165" lon="7.79293">
<ele>327</ele>
<time>2012-01-30T13:24:51Z</time>
</trkpt>
<trkpt lat="51.38167" lon="7.79287">
<ele>327</ele>
<time>2012-01-30T13:24:54Z</time>
</trkpt>
<trkpt lat="51.38168" lon="7.79278">
<ele>328</ele>
<time>2012-01-30T13:24:57Z</time>
</trkpt>
<trkpt lat="51.3817" lon="7.7927">
<ele>328</ele>
<time>2012-01-30T13:25:01Z</time>
</trkpt>
<trkpt lat="51.38173" lon="7.79259">
<ele>328</ele>
<time>2012-01-30T13:25:05Z</time>
</trkpt>
<trkpt lat="51.38174" lon="7.7925">
<ele>328</ele>
<time>2012-01-30T13:25:09Z</time>
</trkpt>
<trkpt lat="51.38176" lon="7.79244">
<ele>328</ele>
<time>2012-01-30T13:25:12Z</time>
</trkpt>
<trkpt lat="51.38178" lon="7.79235">
<ele>328</ele>
<time>2012-01-30T13:25:16Z</time>
</trkpt>
<trkpt lat="51.3818" lon="7.79229">
<ele>328</ele>
<time>2012-01-30T13:25:19Z</time>
</trkpt>
<trkpt lat="51.38182" lon="7.79222">
<ele>328</ele>
<time>2012-01-30T13:25:22Z</time>
</trkpt>
<trkpt lat="51.38186" lon="7.79216">
<ele>328</ele>
<time>2012-01-30T13:25:26Z</time>
</trkpt>
<trkpt lat="51.38188" lon="7.79207">
<ele>328</ele>
<time>2012-01-30T13:25:30Z</time>
</trkpt>
<trkpt lat="51.3819" lon="7.79199">
<ele>327</ele>
<time>2012-01-30T13:25:33Z</time>
</trkpt>
<trkpt lat="51.38192" lon="7.79192">
<ele>327</ele>
<time>2012-01-30T13:25:36Z</time>
</trkpt>
<trkpt lat="51.38194" lon="7.79186">
<ele>327</ele>
<time>2012-01-30T13:25:39Z</time>
</trkpt>
<trkpt lat="51.38196" lon="7.7918">
<ele>327</ele>
<time>2012-01-30T13:25:42Z</time>
</trkpt>
<trkpt lat="51.38199" lon="7.79173">
<ele>327</ele>
<time>2012-01-30T13:25:46Z</time>
</trkpt>
<trkpt lat="51.38202" lon="7.79167">
<ele>327</ele>
<time>2012-01-30T13:25:49Z</time>
</trkpt>
<trkpt lat="51.38205" lon="7.7916">
<ele>327</ele>
<time>2012-01-30T13:25:53Z</time>
</trkpt>
<trkpt lat="51.38207" lon="7.79154">
<ele>327</ele>
<time>2012-01-30T13:25:56Z</time>
</trkpt>
<trkpt lat="51.3821" lon="7.79147">
<ele>327</ele>
<time>2012-01-30T13:26:00Z</time>
</trkpt>
<trkpt lat="51.38213" lon="7.79141">
<ele>327</ele>
<time>2012-01-30T13:26:04Z</time>
</trkpt>
<trkpt lat="51.38217" lon="7.79134">
<ele>327</ele>
<time>2012-01-30T13:26:07Z</time>
</trkpt>
<trkpt lat="51.3822" lon="7.79128">
<ele>327</ele>
<time>2012-01-30T13:26:11Z</time>
</trkpt>
<trkpt lat="51.38222" lon="7.79122">
<ele>327</ele>
<time>2012-01-30T13:26:14Z</time>
</trkpt>
<trkpt lat="51.38224" lon="7.79115">
<ele>326</ele>
<time>2012-01-30T13:26:17Z</time>
</trkpt>
<trkpt lat="51.38227" lon="7.79109">
<ele>326</ele>
<time>2012-01-30T13:26:21Z</time>
</trkpt>
<trkpt lat="51.38232" lon="7.79102">
<ele>326</ele>
<time>2012-01-30T13:26:25Z</time>
</trkpt>
<trkpt lat="51.38234" lon="7.79096">
<ele>326</ele>
<time>2012-01-30T13:26:28Z</time>
</trkpt>
<trkpt lat="51.38237" lon="7.79089">
<ele>326</ele>
<time>2012-01-30T13:26:32Z</time>
</trkpt>
<trkpt lat="51.38241" lon="7.79083">
<ele>326</ele>
<time>2012-01-30T13:26:37Z</time>
</trkpt>
<trkpt lat="51.38243" lon="7.79074">
<ele>326</ele>
<time>2012-01-30T13:26:41Z</time>
</trkpt>
<trkpt lat="51.38246" lon="7.79066">
<ele>326</ele>
<time>2012-01-30T13:26:46Z</time>
</trkpt>
<trkpt lat="51.38247" lon="7.79057">
<ele>326</ele>
<time>2012-01-30T13:26:50Z</time>
</trkpt>
<trkpt lat="51.38249" lon="7.79051">
<ele>326</ele>
<time>2012-01-30T13:26:53Z</time>
</trkpt>
<trkpt lat="51.38251" lon="7.79044">
<ele>326</ele>
<time>2012-01-30T13:26:56Z</time>
</trkpt>
<trkpt lat="51.38253" lon="7.79038">
<ele>326</ele>
<time>2012-01-30T13:26:59Z</time>
</trkpt>
<trkpt lat="51.38257" lon="7.79032">
<ele>326</ele>
<time>2012-01-30T13:27:03Z</time>
</trkpt>
<trkpt lat="51.3826" lon="7.79025">
<ele>326</ele>
<time>2012-01-30T13:27:06Z</time>
</trkpt>
<trkpt lat="51.38264" lon="7.79019">
<ele>326</ele>
<time>2012-01-30T13:27:10Z</time>
</trkpt>
<trkpt lat="51.38267" lon="7.79012">
<ele>326</ele>
<time>2012-01-30T13:27:14Z</time>
</trkpt>
<trkpt lat="51.38271" lon="7.79008">
<ele>326</ele>
<time>2012-01-30T13:27:19Z</time>
</trkpt>
<trkpt lat="51.38273" lon="7.79001">
<ele>326</ele>
<time>2012-01-30T13:27:22Z</time>
</trkpt>
<trkpt lat="51.38276" lon="7.78993">
<ele>326</ele>
<time>2012-01-30T13:27:26Z</time>
</trkpt>
<trkpt lat="51.38278" lon="7.78986">
<ele>326</ele>
<time>2012-01-30T13:27:28Z</time>
</trkpt>
<trkpt lat="51.3828" lon="7.7898">
<ele>326</ele>
<time>2012-01-30T13:27:31Z</time>
</trkpt>
<trkpt lat="51.38282" lon="7.78971">
<ele>327</ele>
<time>2012-01-30T13:27:35Z</time>
</trkpt>
<trkpt lat="51.38284" lon="7.78965">
<ele>327</ele>
<time>2012-01-30T13:27:39Z</time>
</trkpt>
<trkpt lat="51.38285" lon="7.78956">
<ele>327</ele>
<time>2012-01-30T13:27:43Z</time>
</trkpt>
<trkpt lat="51.38287" lon="7.7895">
<ele>326</ele>
<time>2012-01-30T13:27:46Z</time>
</trkpt>
<trkpt lat="51.38291" lon="7.78944">
<ele>325</ele>
<time>2012-01-30T13:27:50Z</time>
</trkpt>
<trkpt lat="51.38293" lon="7.78935">
<ele>325</ele>
<time>2012-01-30T13:27:54Z</time>
</trkpt>
<trkpt lat="51.38295" lon="7.78928">
<ele>324</ele>
<time>2012-01-30T13:27:58Z</time>
</trkpt>
<trkpt lat="51.38297" lon="7.78922">
<ele>324</ele>
<time>2012-01-30T13:28:02Z</time>
</trkpt>
<trkpt lat="51.38299" lon="7.78913">
<ele>323</ele>
<time>2012-01-30T13:28:06Z</time>
</trkpt>
<trkpt lat="51.383" lon="7.78905">
<ele>323</ele>
<time>2012-01-30T13:28:10Z</time>
</trkpt>
<trkpt lat="51.38301" lon="7.78896">
<ele>324</ele>
<time>2012-01-30T13:28:14Z</time>
</trkpt>
<trkpt lat="51.38301" lon="7.78888">
<ele>324</ele>
<time>2012-01-30T13:28:18Z</time>
</trkpt>
<trkpt lat="51.38302" lon="7.78879">
<ele>324</ele>
<time>2012-01-30T13:28:23Z</time>
</trkpt>
<trkpt lat="51.38304" lon="7.78873">
<ele>324</ele>
<time>2012-01-30T13:28:26Z</time>
</trkpt>
<trkpt lat="51.38306" lon="7.78864">
<ele>325</ele>
<time>2012-01-30T13:28:30Z</time>
</trkpt>
<trkpt lat="51.38307" lon="7.78853">
<ele>325</ele>
<time>2012-01-30T13:28:34Z</time>
</trkpt>
<trkpt lat="51.38307" lon="7.78853">
<ele>325</ele>
<time>2012-01-30T13:28:34Z</time>
</trkpt>
<trkpt lat="51.38307" lon="7.78853">
<ele>325</ele>
<time>2012-01-30T13:28:35Z</time>
</trkpt>
<trkpt lat="51.38307" lon="7.78845">
<ele>325</ele>
<time>2012-01-30T13:28:38Z</time>
</trkpt>
<trkpt lat="51.38307" lon="7.78836">
<ele>326</ele>
<time>2012-01-30T13:28:43Z</time>
</trkpt>
<trkpt lat="51.38308" lon="7.78828">
<ele>326</ele>
<time>2012-01-30T13:28:47Z</time>
</trkpt>
<trkpt lat="51.38307" lon="7.78819">
<ele>327</ele>
<time>2012-01-30T13:28:51Z</time>
</trkpt>
<trkpt lat="51.38307" lon="7.7881">
<ele>327</ele>
<time>2012-01-30T13:28:55Z</time>
</trkpt>
<trkpt lat="51.38307" lon="7.78802">
<ele>327</ele>
<time>2012-01-30T13:28:59Z</time>
</trkpt>
<trkpt lat="51.38307" lon="7.78793">
<ele>328</ele>
<time>2012-01-30T13:29:03Z</time>
</trkpt>
<trkpt lat="51.38308" lon="7.78785">
<ele>328</ele>
<time>2012-01-30T13:29:08Z</time>
</trkpt>
<trkpt lat="51.38308" lon="7.78785">
<ele>328</ele>
<time>2012-01-30T13:29:08Z</time>
</trkpt>
<trkpt lat="51.38308" lon="7.78785">
<ele>328</ele>
<time>2012-01-30T13:29:09Z</time>
</trkpt>
<trkpt lat="51.38306" lon="7.78778">
<ele>328</ele>
<time>2012-01-30T13:29:14Z</time>
</trkpt>
<trkpt lat="51.38306" lon="7.78778">
<ele>328</ele>
<time>2012-01-30T13:29:14Z</time>
</trkpt>
</trkseg>
</trk>
</gpx>
